Provisional Data: Nanticoke Creek near Maine, NY


Please select a monitoring station.
Please select start date.
Please select start date.

Toggle Unit: C/F Toggle Unit: C/F
Sample Time Temperature (C) Temperature (F) Specific Conductivity (mS/cm) pH   Turbidity (NTU+) DO (mg/L)
10/17/2022 12:00:00 AM 10.8 51.44 0.205 7.19 4.75 9.73
10/17/2022 12:15:00 AM 10.78 51.404 0.205 7.18 4.44 9.7
10/17/2022 12:30:00 AM 10.75 51.35 0.205 7.18 4.39 9.66
10/17/2022 12:45:00 AM 10.73 51.314 0.205 7.17 4.91 9.63
10/17/2022 1:00:00 AM 10.7 51.26 0.205 7.17 4.51 9.59
10/17/2022 1:15:00 AM 10.68 51.224 0.205 7.16 4.53 9.57
10/17/2022 1:30:00 AM 10.64 51.152 0.205 7.16 4.57 9.54
10/17/2022 1:45:00 AM 10.61 51.098 0.205 7.16 4.54 9.5
10/17/2022 2:00:00 AM 10.59 51.062 0.205 7.15 4.34 9.49
10/17/2022 2:15:00 AM 10.55 50.99 0.205 7.15 4.57 9.47
10/17/2022 2:30:00 AM 10.52 50.936 0.205 7.15 4.38 9.45
10/17/2022 2:45:00 AM 10.48 50.864 0.206 7.14 4.32 9.43
10/17/2022 3:00:00 AM 10.45 50.81 0.206 7.14 4.83 9.42
10/17/2022 3:15:00 AM 10.41 50.738 0.206 7.14 4.42 9.42
10/17/2022 3:30:00 AM 10.38 50.684 0.206 7.13 4.61 9.39
10/17/2022 3:45:00 AM 10.34 50.612 0.206 7.13 4.42 9.39
10/17/2022 4:00:00 AM 10.31 50.558 0.206 7.13 4.63 9.38
10/17/2022 4:15:00 AM 10.28 50.504 0.206 7.12 4.33 9.39
10/17/2022 4:30:00 AM 10.25 50.45 0.206 7.12 4.47 9.38
10/17/2022 4:45:00 AM 10.21 50.378 0.206 7.12 4.3 9.37
10/17/2022 5:00:00 AM 10.18 50.324 0.207 7.12 4.21 9.33
10/17/2022 5:15:00 AM 10.16 50.288 0.206 7.12 4.45 9.36
10/17/2022 5:30:00 AM 10.12 50.216 0.207 7.11 4.45 9.35
10/17/2022 5:45:00 AM 10.07 50.126 0.207 7.12 4.4 9.37
10/17/2022 6:00:00 AM 10.03 50.054 0.207 7.11 4.52 9.34
10/17/2022 6:15:00 AM 10 50 0.207 7.1 4.55 9.36
10/17/2022 6:30:00 AM 9.94 49.892 0.207 7.1 4.33 9.39
10/17/2022 6:45:00 AM 9.9 49.82 0.207 7.09 4.35 9.37
10/17/2022 7:00:00 AM 9.87 49.766 0.207 7.09 4.46 9.36
10/17/2022 7:15:00 AM 9.82 49.676 0.207 7.08 4.38 9.39
10/17/2022 7:30:00 AM 9.78 49.604 0.208 7.02 4.36 9.4
10/17/2022 7:45:00 AM 9.75 49.55 0.208 7.08 4.47 9.39
10/17/2022 8:00:00 AM 9.72 49.496 0.208 7.08 4.33 9.43
10/17/2022 8:15:00 AM 9.68 49.424 0.207 7.08 4.36 9.46
10/17/2022 8:30:00 AM 9.67 49.406 0.208 7.08 4.47 9.43
10/17/2022 8:45:00 AM 9.65 49.37 0.208 7.09 4.26 9.52
10/17/2022 9:00:00 AM 9.64 49.352 0.208 7.09 4.8 9.55
10/17/2022 9:15:00 AM 9.64 49.352 0.208 7.1 4.46 9.66
10/17/2022 9:30:00 AM 9.63 49.334 0.208 7.11 4.49 9.77
10/17/2022 9:45:00 AM 9.63 49.334 0.207 7.12 4.65 9.9
10/17/2022 10:00:00 AM 9.64 49.352 0.207 7.13 5.03 9.99
10/17/2022 10:15:00 AM 9.65 49.37 0.207 7.15 4.51 10.16
10/17/2022 10:30:00 AM 9.66 49.388 0.207 7.17 4.44 10.32
10/17/2022 10:45:00 AM 9.66 49.388 0.207 7.18 4.48 10.39
10/17/2022 11:00:00 AM 9.66 49.388 0.207 7.19 4.59 10.46
10/17/2022 11:15:00 AM 9.68 49.424 0.207 7.19 4.44 10.48
10/17/2022 11:30:00 AM 9.68 49.424 0.207 7.21 4.34 10.62
10/17/2022 11:45:00 AM 9.69 49.442 0.207 7.21 4.32 10.67
10/17/2022 12:00:00 PM 9.73 49.514 0.207 7.22 4.58 10.68
10/17/2022 12:15:00 PM 9.75 49.55 0.206 7.24 4.41 10.79
10/17/2022 12:30:00 PM 9.76 49.568 0.206 7.24 4.58 10.79
10/17/2022 12:45:00 PM 9.8 49.64 0.206 7.15 4.33 10.88
10/17/2022 1:00:00 PM 9.88 49.784 0.206 7.25 4.53 10.94
10/17/2022 1:15:00 PM 9.95 49.91 0.206 7.27 4.4 11.06
10/17/2022 1:30:00 PM 10 50 0.206 7.29 4.19 11.2
10/17/2022 1:45:00 PM 10.06 50.108 0.206 7.3 4.64 11.25
10/17/2022 2:00:00 PM 10.14 50.252 0.206 7.31 4.81 11.37
10/17/2022 2:15:00 PM 10.21 50.378 0.206 7.34 4.38 11.5
10/17/2022 2:30:00 PM 10.26 50.468 0.206 7.36 4.43 11.61
10/17/2022 2:45:00 PM 10.3 50.54 0.206 7.37 4.37 11.68
10/17/2022 3:00:00 PM 10.33 50.594 0.206 7.38 4.45 11.68
10/17/2022 3:15:00 PM 10.34 50.612 0.206 7.38 4.4 11.62
10/17/2022 3:30:00 PM 10.35 50.63 0.206 7.38 4.47 11.55
10/17/2022 3:45:00 PM 10.37 50.666 0.206 7.38 4.19 11.56
10/17/2022 4:00:00 PM 10.41 50.738 0.206 7.39 4.21 11.62
10/17/2022 4:15:00 PM 10.43 50.774 0.206 7.4 4.29 11.7
10/17/2022 4:30:00 PM 10.45 50.81 0.206 7.41 4.37 11.75
10/17/2022 4:45:00 PM 10.48 50.864 0.206 7.43 4.33 11.84
10/17/2022 5:00:00 PM 10.51 50.918 0.206 7.44 4.2 11.89
10/17/2022 5:15:00 PM 10.54 50.972 0.205 7.46 4.26 11.93
10/17/2022 5:30:00 PM 10.54 50.972 0.206 7.46 4.41 11.93
10/17/2022 5:45:00 PM 10.53 50.954 0.206 7.47 4.22 11.91
10/17/2022 6:00:00 PM 10.51 50.918 0.206 7.47 4.4 11.87
10/17/2022 6:15:00 PM 10.47 50.846 0.206 7.46 4.32 11.76
10/17/2022 6:30:00 PM 10.44 50.792 0.206 7.45 4.12 11.64
10/17/2022 6:45:00 PM 10.4 50.72 0.206 7.43 4.16 11.52
10/17/2022 7:00:00 PM 10.36 50.648 0.206 7.4 4.05 11.34
10/17/2022 7:15:00 PM 10.33 50.594 0.206 7.38 4.09 11.2
10/17/2022 7:30:00 PM 10.29 50.522 0.206 7.35 4.15 11.02
10/17/2022 7:45:00 PM 10.26 50.468 0.206 7.34 4.23 10.9
10/17/2022 8:00:00 PM 10.23 50.414 0.206 7.32 4.17 10.8
10/17/2022 8:15:00 PM 10.2 50.36 0.206 7.3 4.3 10.71
10/17/2022 8:30:00 PM 10.17 50.306 0.206 7.29 4.25 10.62
10/17/2022 8:45:00 PM 10.14 50.252 0.206 7.28 4.28 10.56
10/17/2022 9:00:00 PM 10.12 50.216 0.206 7.27 4.29 10.51
10/17/2022 9:15:00 PM 10.09 50.162 0.206 7.26 4.17 10.46
10/17/2022 9:30:00 PM 10.08 50.144 0.206 7.26 4.5 10.41
10/17/2022 9:45:00 PM 10.05 50.09 0.206 7.25 4.32 10.37
10/17/2022 10:00:00 PM 10.03 50.054 0.206 7.24 4.56 10.33
10/17/2022 10:15:00 PM 10.01 50.018 0.207 7.24 4.32 10.28
10/17/2022 10:30:00 PM 9.99 49.982 0.207 7.23 4.22 10.24
10/17/2022 10:45:00 PM 9.97 49.946 0.206 7.22 4.83 10.2
10/17/2022 11:00:00 PM 9.95 49.91 0.207 7.21 4.53 10.16
10/17/2022 11:15:00 PM 9.93 49.874 0.206 7.21 4.51 10.12
10/17/2022 11:30:00 PM 9.9 49.82 0.206 7.2 4.24 10.08
10/17/2022 11:45:00 PM 9.88 49.784 0.206 7.2 4.46 10.05
10/18/2022 12:00:00 AM 9.85 49.73 0.206 7.19 4.25 10.01
10/18/2022 12:15:00 AM 9.81 49.658 0.207 7.19 4.46 9.98
10/18/2022 12:30:00 AM 9.78 49.604 0.206 7.18 4.45 9.96
10/18/2022 12:45:00 AM 9.75 49.55 0.206 7.18 4.15 9.91
10/18/2022 1:00:00 AM 9.72 49.496 0.206 7.17 4.36 9.9
10/18/2022 1:15:00 AM 9.68 49.424 0.206 7.17 4.27 9.87
10/18/2022 1:30:00 AM 9.63 49.334 0.206 7.16 4.13 9.85
10/18/2022 1:45:00 AM 9.6 49.28 0.206 7.16 4.45 9.81
10/18/2022 2:00:00 AM 9.54 49.172 0.206 7.16 4.37 9.79
10/18/2022 2:15:00 AM 9.49 49.082 0.206 7.15 4.25 9.77
10/18/2022 2:30:00 AM 9.43 48.974 0.206 7.14 4.3 9.76
10/18/2022 2:45:00 AM 9.38 48.884 0.206 7.13 4.43 9.74
10/18/2022 3:00:00 AM 9.33 48.794 0.206 7.12 4.47 9.71
10/18/2022 3:15:00 AM 9.25 48.65 0.206 7.12 4.38 9.73
10/18/2022 3:30:00 AM 9.2 48.56 0.206 7.11 4.42 9.7
10/18/2022 3:45:00 AM 9.14 48.452 0.206 7.11 4.4 9.71
10/18/2022 4:00:00 AM 9.09 48.362 0.206 7.1 4.18 9.72
10/18/2022 4:15:00 AM 9.02 48.236 0.206 7.1 4.41 9.69
10/18/2022 4:30:00 AM 8.97 48.146 0.206 7.08 4.35 9.68
10/18/2022 4:45:00 AM 8.9 48.02 0.205 7.09 4.5 9.7
10/18/2022 5:00:00 AM 8.85 47.93 0.205 7.08 4.6 9.68
10/18/2022 5:15:00 AM 8.79 47.822 0.205 7.08 4.43 9.67
10/18/2022 5:30:00 AM 8.74 47.732 0.205 7.07 4.22 9.68
10/18/2022 5:45:00 AM 8.69 47.642 0.205 7.07 4.39 9.68
10/18/2022 6:00:00 AM 8.63 47.534 0.205 7.07 4.27 9.69
10/18/2022 6:15:00 AM 8.58 47.444 0.205 7.07 4.37 9.7
10/18/2022 6:30:00 AM 8.52 47.336 0.205 7.07 4.22 9.72
10/18/2022 6:45:00 AM 8.47 47.246 0.205 7.06 4.34 9.71
10/18/2022 7:00:00 AM 8.4 47.12 0.205 7.06 4.36 9.72
10/18/2022 7:15:00 AM 8.37 47.066 0.205 7.06 4.39 9.73
10/18/2022 7:30:00 AM 8.29 46.922 0.204 7.07 4.53 9.76
10/18/2022 7:45:00 AM 8.25 46.85 0.204 7.06 4.41 9.76
10/18/2022 8:00:00 AM 8.19 46.742 0.205 7.06 4.35 9.75
10/18/2022 8:15:00 AM 8.15 46.67 0.204 7.07 4.34 9.79
10/18/2022 8:30:00 AM 8.11 46.598 0.204 6.98 4.3 9.81
10/18/2022 8:45:00 AM 8.07 46.526 0.204 7.01 4.29 9.83
10/18/2022 9:00:00 AM 8.04 46.472 0.204 7.06 4.2 9.92
10/18/2022 9:15:00 AM 8.01 46.418 0.204 7.09 4.28 9.99
10/18/2022 9:30:00 AM 8 46.4 0.204 7.01 4.25 10.03
10/18/2022 9:45:00 AM 8.01 46.418 0.204 7.11 4.18 10.18
10/18/2022 10:00:00 AM 8.03 46.454 0.204 7.07 4.24 10.27
10/18/2022 10:15:00 AM 8.05 46.49 0.204 7.08 4.15 10.44
10/18/2022 10:30:00 AM 8.11 46.598 0.203 7.12 4.17 10.62
10/18/2022 10:45:00 AM 8.2 46.76 0.203 7.14 4.26 10.81
10/18/2022 11:00:00 AM 8.24 46.832 0.203 7.19 4.52 10.93
10/18/2022 11:15:00 AM 8.31 46.958 0.203 7.16 4.34 11.11
10/18/2022 11:30:00 AM 8.36 47.048 0.203 7.2 4.28 11.25
10/18/2022 11:45:00 AM 8.43 47.174 0.203 7.21 4.28 11.32
10/18/2022 12:00:00 PM 8.51 47.318 0.203 7.28 4.58 11.44
10/18/2022 12:15:00 PM 8.59 47.462 0.203 7.23 4.26 11.58
10/18/2022 12:30:00 PM 8.65 47.57 0.202 7.31 4.1 11.65
10/18/2022 12:45:00 PM 8.73 47.714 0.203 7.25 4.11 11.71
10/18/2022 1:00:00 PM 8.79 47.822 0.203 7.34 4.15 11.8
10/18/2022 1:15:00 PM 8.84 47.912 0.202 7.35 4.06 11.89
10/18/2022 1:30:00 PM 8.93 48.074 0.202 7.31 4.17 11.98
10/18/2022 1:45:00 PM 9.01 48.218 0.202 7.4 4.12 12.07
10/18/2022 2:00:00 PM 9.06 48.308 0.202 7.41 4.15 12.16
10/18/2022 2:15:00 PM 9.09 48.362 0.202 7.35 4.2 12.2
10/18/2022 2:30:00 PM 9.13 48.434 0.202 7.44 4.28 12.23
10/18/2022 2:45:00 PM 9.19 48.542 0.202 7.45 4.09 12.27
10/18/2022 3:00:00 PM 9.19 48.542 0.202 7.45 4.08 12.29
10/18/2022 3:15:00 PM 9.2 48.56 0.202 7.44 4.07 12.29
10/18/2022 3:30:00 PM 9.22 48.596 0.202 7.48 4.05 12.35
10/18/2022 3:45:00 PM 9.24 48.632 0.202 7.48 4.31 12.35
10/18/2022 4:00:00 PM 9.26 48.668 0.202 7.48 4.33 12.35
10/18/2022 4:15:00 PM 9.26 48.668 0.202 7.49 4.18 12.38
10/18/2022 4:30:00 PM 9.26 48.668 0.202 7.49 4.14 12.36
10/18/2022 4:45:00 PM 9.26 48.668 0.202 7.48 4.11 12.34
10/18/2022 5:00:00 PM 9.24 48.632 0.202 7.5 4.24 12.32
10/18/2022 5:15:00 PM 9.23 48.614 0.202 7.5 4.16 12.36
10/18/2022 5:30:00 PM 9.21 48.578 0.202 7.5 4.39 12.35
10/18/2022 5:45:00 PM 9.18 48.524 0.202 7.5 4.21 12.36
10/18/2022 6:00:00 PM 9.18 48.524 0.202 7.5 4.28 12.34
10/18/2022 6:15:00 PM 9.14 48.452 0.202 7.48 4.34 12.3
10/18/2022 6:30:00 PM 9.08 48.344 0.202 7.49 4.3 12.24
10/18/2022 6:45:00 PM 9.02 48.236 0.202 7.47 4.34 12.12
10/18/2022 7:00:00 PM 8.97 48.146 0.202 7.46 4.37 12
10/18/2022 7:15:00 PM 8.92 48.056 0.202 7.44 4.42 11.89
10/18/2022 7:30:00 PM 8.85 47.93 0.202 7.42 4.35 11.77
10/18/2022 7:45:00 PM 8.79 47.822 0.203 7.4 4.28 11.62
10/18/2022 8:00:00 PM 8.73 47.714 0.203 7.38 4.63 11.49
10/18/2022 8:15:00 PM 8.67 47.606 0.203 7.27 4.28 11.37
10/18/2022 8:30:00 PM 8.61 47.498 0.203 7.35 4.52 11.29
10/18/2022 8:45:00 PM 8.54 47.372 0.203 7.33 4.52 11.19
10/18/2022 9:00:00 PM 8.48 47.264 0.203 7.32 4.58 11.11
10/18/2022 9:15:00 PM 8.42 47.156 0.203 7.3 4.56 11.05
10/18/2022 9:30:00 PM 8.36 47.048 0.204 7.29 4.59 10.99
10/18/2022 9:45:00 PM 8.3 46.94 0.204 7.28 4.6 10.95
10/18/2022 10:00:00 PM 8.24 46.832 0.203 7.19 4.6 10.91
10/18/2022 10:15:00 PM 8.18 46.724 0.204 7.21 4.74 10.87
10/18/2022 10:30:00 PM 8.13 46.634 0.204 7.26 4.54 10.84
10/18/2022 10:45:00 PM 8.07 46.526 0.204 7.25 4.55 10.81
10/18/2022 11:00:00 PM 8.03 46.454 0.204 7.15 4.88 10.78
10/18/2022 11:15:00 PM 7.97 46.346 0.204 7.24 4.92 10.75
10/18/2022 11:30:00 PM 7.92 46.256 0.204 7.23 4.52 10.71
10/18/2022 11:45:00 PM 7.86 46.148 0.204 7.22 4.87 10.69
10/19/2022 12:00:00 AM 7.79 46.022 0.204 7.12 4.78 10.67
10/19/2022 12:15:00 AM 7.74 45.932 0.204 7.18 4.95 10.64
10/19/2022 12:30:00 AM 7.7 45.86 0.204 7.17 4.58 10.61
10/19/2022 12:45:00 AM 7.64 45.752 0.204 7.17 4.74 10.59
10/19/2022 1:00:00 AM 7.59 45.662 0.205 7.16 4.98 10.54
10/19/2022 1:15:00 AM 7.54 45.572 0.205 7.06 4.84 10.52
10/19/2022 1:30:00 AM 7.47 45.446 0.204 7.1 4.7 10.51
10/19/2022 1:45:00 AM 7.43 45.374 0.205 7.15 4.77 10.48
10/19/2022 2:00:00 AM 7.38 45.284 0.205 7.15 4.77 10.45
10/19/2022 2:15:00 AM 7.34 45.212 0.205 7.14 4.79 10.44
10/19/2022 2:30:00 AM 7.28 45.104 0.205 7.06 4.78 10.43
10/19/2022 2:45:00 AM 7.22 44.996 0.205 7.14 4.7 10.41
10/19/2022 3:00:00 AM 7.19 44.942 0.205 7.14 4.87 10.4
10/19/2022 3:15:00 AM 7.13 44.834 0.205 7.13 4.86 10.39
10/19/2022 3:30:00 AM 7.09 44.762 0.205 7.12 4.98 10.37
10/19/2022 3:45:00 AM 7.03 44.654 0.205 7.11 4.77 10.36
10/19/2022 4:00:00 AM 6.98 44.564 0.205 7.11 5.38 10.36
10/19/2022 4:15:00 AM 6.94 44.492 0.205 7.04 5.01 10.33
10/19/2022 4:30:00 AM 6.89 44.402 0.205 7.11 4.8 10.33
10/19/2022 4:45:00 AM 6.86 44.348 0.205 7.11 4.58 10.32
10/19/2022 5:00:00 AM 6.81 44.258 0.205 7.11 4.72 10.32
10/19/2022 5:15:00 AM 6.77 44.186 0.206 7.11 4.71 10.31
10/19/2022 5:30:00 AM 6.72 44.096 0.206 7.11 4.85 10.3
10/19/2022 5:45:00 AM 6.69 44.042 0.206 7.11 4.82 10.29
10/19/2022 6:00:00 AM 6.65 43.97 0.206 7.11 4.5 10.31
10/19/2022 6:15:00 AM 6.62 43.916 0.206 7.11 4.53 10.3
10/19/2022 6:30:00 AM 6.58 43.844 0.206 7.02 4.32 10.3
10/19/2022 6:45:00 AM 6.56 43.808 0.206 7.12 4.33 10.29
10/19/2022 7:00:00 AM 6.54 43.772 0.206 7.05 4.34 10.3
10/19/2022 7:15:00 AM 6.52 43.736 0.207 7.12 4.31 10.3
10/19/2022 7:30:00 AM 6.5 43.7 0.207 7.11 4.47 10.3
10/19/2022 7:45:00 AM 6.5 43.7 0.207 7.11 4.41 10.31
10/19/2022 8:00:00 AM 6.49 43.682 0.207 7.11 4.37 10.32
10/19/2022 8:15:00 AM 6.49 43.682 0.207 7.11 4.52 10.32
10/19/2022 8:30:00 AM 6.49 43.682 0.207 7.12 4.38 10.33
10/19/2022 8:45:00 AM 6.5 43.7 0.207 7.12 4.46 10.35
10/19/2022 9:00:00 AM 6.5 43.7 0.207 7.12 4.37 10.35
10/19/2022 9:15:00 AM 6.51 43.718 0.208 7.12 4.29 10.39
10/19/2022 9:30:00 AM 6.53 43.754 0.208 7.13 4.26 10.44
10/19/2022 9:45:00 AM 6.55 43.79 0.208 7.13 4.26 10.49
10/19/2022 10:00:00 AM 6.57 43.826 0.208 7.14 4.3 10.58
10/19/2022 10:15:00 AM 6.59 43.862 0.208 7.15 4.51 10.75
10/19/2022 10:30:00 AM 6.62 43.916 0.208 7.17 4.51 10.87
10/19/2022 10:45:00 AM 6.67 44.006 0.208 7.18 4.48 11.06
10/19/2022 11:00:00 AM 6.76 44.168 0.208 7.09 4.45 11.17
10/19/2022 11:15:00 AM 6.79 44.222 0.208 7.21 4.63 11.34
10/19/2022 11:30:00 AM 6.82 44.276 0.208 7.22 4.43 11.42
10/19/2022 11:45:00 AM 6.86 44.348 0.208 7.24 4.46 11.56
10/19/2022 12:00:00 PM 6.91 44.438 0.208 7.17 4.42 11.67
10/19/2022 12:15:00 PM 6.94 44.492 0.208 7.27 4.33 11.73
10/19/2022 12:30:00 PM 6.97 44.546 0.208 7.27 4.39 11.78
10/19/2022 12:45:00 PM 7 44.6 0.208 7.29 4.3 11.87
10/19/2022 1:00:00 PM 7.04 44.672 0.208 7.3 4.31 11.94
10/19/2022 1:15:00 PM 7.08 44.744 0.208 7.31 4.3 12.01
10/19/2022 1:30:00 PM 7.11 44.798 0.208 7.33 4.23 12.1
10/19/2022 1:45:00 PM 7.13 44.834 0.208 7.24 4.26 12.15
10/19/2022 2:00:00 PM 7.15 44.87 0.208 7.34 4.21 12.16
10/19/2022 2:15:00 PM 7.18 44.924 0.208 7.35 4.29 12.18
10/19/2022 2:30:00 PM 7.2 44.96 0.208 7.36 4.19 12.23
10/19/2022 2:45:00 PM 7.22 44.996 0.209 7.36 4.24 12.24
10/19/2022 3:00:00 PM 7.24 45.032 0.208 7.37 4.16 12.3
10/19/2022 3:15:00 PM 7.27 45.086 0.208 7.38 4.18 12.38
10/19/2022 3:30:00 PM 7.29 45.122 0.208 7.39 4.18 12.4
10/19/2022 3:45:00 PM 7.32 45.176 0.208 7.31 4.14 12.43
10/19/2022 4:00:00 PM 7.34 45.212 0.208 7.4 4.09 12.47
10/19/2022 4:15:00 PM 7.36 45.248 0.208 7.38 4.08 12.56
10/19/2022 4:30:00 PM 7.38 45.284 0.208 7.42 4.13 12.57
10/19/2022 4:45:00 PM 7.38 45.284 0.208 7.42 4.11 12.55
10/19/2022 5:00:00 PM 7.39 45.302 0.208 7.43 4.09 12.56
10/19/2022 5:15:00 PM 7.4 45.32 0.208 7.43 4.3 12.55
10/19/2022 5:30:00 PM 7.4 45.32 0.208 7.34 4.06 12.54
10/19/2022 5:45:00 PM 7.39 45.302 0.208 7.43 4.21 12.48
10/19/2022 6:00:00 PM 7.36 45.248 0.208 7.42 4.15 12.42
10/19/2022 6:15:00 PM 7.34 45.212 0.208 7.33 4.1 12.35
10/19/2022 6:30:00 PM 7.33 45.194 0.208 7.41 4.22 12.31
10/19/2022 6:45:00 PM 7.33 45.194 0.208 7.4 4.16 12.26
10/19/2022 7:00:00 PM 7.31 45.158 0.208 7.39 4.21 12.21
10/19/2022 7:15:00 PM 7.3 45.14 0.208 7.39 4.1 12.15
10/19/2022 7:30:00 PM 7.26 45.068 0.209 7.37 4.22 12.09
10/19/2022 7:45:00 PM 7.25 45.05 0.209 7.37 4.24 12.02
10/19/2022 8:00:00 PM 7.24 45.032 0.209 7.27 4.23 11.93
10/19/2022 8:15:00 PM 7.2 44.96 0.209 7.29 4.16 11.83
10/19/2022 8:30:00 PM 7.17 44.906 0.209 7.34 4.28 11.73
10/19/2022 8:45:00 PM 7.15 44.87 0.209 7.33 4.31 11.66
10/19/2022 9:00:00 PM 7.13 44.834 0.209 7.24 4.29 11.57
10/19/2022 9:15:00 PM 7.11 44.798 0.209 7.25 4.27 11.52
10/19/2022 9:30:00 PM 7.08 44.744 0.209 7.25 4.34 11.47
10/19/2022 9:45:00 PM 7.05 44.69 0.209 7.24 4.38 11.41
10/19/2022 10:00:00 PM 7.03 44.654 0.209 7.29 4.36 11.37
10/19/2022 10:15:00 PM 7.01 44.618 0.209 7.21 4.34 11.32
10/19/2022 10:30:00 PM 6.99 44.582 0.21 7.22 4.28 11.29
10/19/2022 10:45:00 PM 6.97 44.546 0.21 7.27 4.52 11.25
10/19/2022 11:00:00 PM 6.94 44.492 0.21 7.22 4.56 11.21
10/19/2022 11:15:00 PM 6.93 44.474 0.21 7.21 4.55 11.18
10/19/2022 11:30:00 PM 6.9 44.42 0.21 7.2 4.31 11.14
10/19/2022 11:45:00 PM 6.87 44.366 0.21 7.2 4.52 11.1
10/20/2022 12:00:00 AM 6.85 44.33 0.21 7.18 4.39 11.08
10/20/2022 12:15:00 AM 6.83 44.294 0.21 7.19 4.62 11.04
10/20/2022 12:30:00 AM 6.82 44.276 0.21 7.18 4.71 11.01
10/20/2022 12:45:00 AM 6.82 44.276 0.21 7.18 4.54 10.97
10/20/2022 1:00:00 AM 6.81 44.258 0.211 7.17 4.6 10.93
10/20/2022 1:15:00 AM 6.8 44.24 0.211 7.21 4.71 10.9
10/20/2022 1:30:00 AM 6.77 44.186 0.21 7.19 4.67 10.88
10/20/2022 1:45:00 AM 6.76 44.168 0.21 7.19 7.61 10.85
10/20/2022 2:00:00 AM 6.75 44.15 0.21 7.2 4.79 10.82
10/20/2022 2:15:00 AM 6.74 44.132 0.21 7.12 5.01 10.8
10/20/2022 2:30:00 AM 6.73 44.114 0.211 7.19 4.86 10.77
10/20/2022 2:45:00 AM 6.72 44.096 0.211 7.12 4.91 10.74
10/20/2022 3:00:00 AM 6.71 44.078 0.211 7.19 4.54 10.72
10/20/2022 3:15:00 AM 6.69 44.042 0.211 7.18 4.81 10.7
10/20/2022 3:30:00 AM 6.69 44.042 0.211 7.18 4.67 10.67
10/20/2022 3:45:00 AM 6.68 44.024 0.211 7.18 4.74 10.66
10/20/2022 4:00:00 AM 6.68 44.024 0.211 7.15 4.76 10.63
10/20/2022 4:15:00 AM 6.68 44.024 0.211 7.17 4.65 10.61
10/20/2022 4:30:00 AM 6.68 44.024 0.211 7.17 4.69 10.59
10/20/2022 4:45:00 AM 6.68 44.024 0.211 7.14 4.81 10.57
10/20/2022 5:00:00 AM 6.69 44.042 0.211 7.1 4.69 10.56
10/20/2022 5:15:00 AM 6.68 44.024 0.211 7.16 4.66 10.53
10/20/2022 5:30:00 AM 6.68 44.024 0.211 7.16 4.7 10.52
10/20/2022 5:45:00 AM 6.67 44.006 0.211 7.16 4.93 10.52
10/20/2022 6:00:00 AM 6.69 44.042 0.211 7.15 4.64 10.5
10/20/2022 6:15:00 AM 6.67 44.006 0.212 7.06 4.47 10.47
10/20/2022 6:30:00 AM 6.66 43.988 0.212 7.15 4.52 10.47
10/20/2022 6:45:00 AM 6.64 43.952 0.212 7.15 4.6 10.45
10/20/2022 7:00:00 AM 6.62 43.916 0.212 7.15 4.47 10.45
10/20/2022 7:15:00 AM 6.59 43.862 0.212 7.15 4.56 10.46
10/20/2022 7:30:00 AM 6.57 43.826 0.212 7.13 4.55 10.44
10/20/2022 7:45:00 AM 6.55 43.79 0.212 7.15 4.41 10.45
10/20/2022 8:00:00 AM 6.53 43.754 0.212 7.14 4.41 10.45
10/20/2022 8:15:00 AM 6.5 43.7 0.212 7.08 4.57 10.46
10/20/2022 8:30:00 AM 6.49 43.682 0.212 7.15 4.31 10.47
10/20/2022 8:45:00 AM 6.48 43.664 0.213 7.06 4.27 10.46
10/20/2022 9:00:00 AM 6.47 43.646 0.213 7.15 4.98 10.51
10/20/2022 9:15:00 AM 6.47 43.646 0.213 7.06 4.36 10.53
10/20/2022 9:30:00 AM 6.47 43.646 0.213 7.15 4.31 10.56
10/20/2022 9:45:00 AM 6.49 43.682 0.213 7.15 4.38 10.6
10/20/2022 10:00:00 AM 6.54 43.772 0.213 7.16 4.42 10.69
10/20/2022 10:15:00 AM 6.6 43.88 0.213 7.17 4.65 10.81
10/20/2022 10:30:00 AM 6.65 43.97 0.213 7.17 4.67 10.91
10/20/2022 10:45:00 AM 6.7 44.06 0.213 7.16 4.31 11.01
10/20/2022 11:00:00 AM 6.79 44.222 0.213 7.2 4.36 11.13
10/20/2022 11:15:00 AM 6.89 44.402 0.213 7.21 4.24 11.3
10/20/2022 11:30:00 AM 6.96 44.528 0.213 7.21 5.16 11.38
10/20/2022 11:45:00 AM 7.08 44.744 0.213 7.23 4.33 11.5
10/20/2022 12:00:00 PM 7.18 44.924 0.213 7.24 4.31 11.54
10/20/2022 12:15:00 PM 7.27 45.086 0.213 7.27 4.22 11.76
10/20/2022 12:30:00 PM 7.32 45.176 0.213 7.28 4.23 11.87
10/20/2022 12:45:00 PM 7.43 45.374 0.213 7.31 4.24 12.12
10/20/2022 1:00:00 PM 7.5 45.5 0.213 7.33 4.54 12.22
10/20/2022 1:15:00 PM 7.57 45.626 0.213 7.35 4.1 12.31
10/20/2022 1:30:00 PM 7.66 45.788 0.213 7.36 4.98 12.43
10/20/2022 1:45:00 PM 7.71 45.878 0.213 7.37 5.02 12.48
10/20/2022 2:00:00 PM 7.75 45.95 0.214 7.39 3.93 12.54
10/20/2022 2:15:00 PM 7.81 46.058 0.214 7.39 5.55 12.58
10/20/2022 2:30:00 PM 7.85 46.13 0.213 7.41 3.94 12.63
10/20/2022 2:45:00 PM 7.89 46.202 0.213 7.42 3.92 12.67
10/20/2022 3:00:00 PM 7.93 46.274 0.214 7.44 3.96 12.72
10/20/2022 3:15:00 PM 7.97 46.346 0.214 7.45 3.86 12.75
10/20/2022 3:30:00 PM 8.04 46.472 0.213 7.46 3.83 12.81
10/20/2022 3:45:00 PM 8.09 46.562 0.213 7.47 3.85 12.85
10/20/2022 4:00:00 PM 8.15 46.67 0.213 7.49 3.85 12.89
10/20/2022 4:15:00 PM 8.21 46.778 0.213 7.49 3.8 12.9
10/20/2022 4:30:00 PM 8.27 46.886 0.213 7.51 3.93 12.96
10/20/2022 4:45:00 PM 8.32 46.976 0.213 7.52 5.29 12.97
10/20/2022 5:00:00 PM 8.36 47.048 0.213 7.53 3.87 12.98
10/20/2022 5:15:00 PM 8.38 47.084 0.213 7.54 3.9 12.99
10/20/2022 5:30:00 PM 8.39 47.102 0.213 7.55 4.41 13.02
10/20/2022 5:45:00 PM 8.37 47.066 0.213 7.55 6.31 12.98
10/20/2022 6:00:00 PM 8.35 47.03 0.213 7.55 5.28 12.96
10/20/2022 6:15:00 PM 8.33 46.994 0.213 7.55 5.13 12.92
10/20/2022 6:30:00 PM 8.3 46.94 0.213 7.55 5.23 12.86
10/20/2022 6:45:00 PM 8.27 46.886 0.213 7.54 5.2 12.8
10/20/2022 7:00:00 PM 8.23 46.814 0.213 7.53 5.3 12.72
10/20/2022 7:15:00 PM 8.18 46.724 0.213 7.52 5.19 12.64
10/20/2022 7:30:00 PM 8.12 46.616 0.213 7.5 5.1 12.5
10/20/2022 7:45:00 PM 8.08 46.544 0.213 7.49 5.06 12.41
10/20/2022 8:00:00 PM 8.04 46.472 0.213 7.47 5.08 12.29
10/20/2022 8:15:00 PM 7.98 46.364 0.213 7.45 5.08 12.13
10/20/2022 8:30:00 PM 7.94 46.292 0.213 7.43 5.14 11.97
10/20/2022 8:45:00 PM 7.88 46.184 0.213 7.41 5.24 11.86
10/20/2022 9:00:00 PM 7.84 46.112 0.213 7.39 5.43 11.74
10/20/2022 9:15:00 PM 7.8 46.04 0.213 7.38 5.49 11.63
10/20/2022 9:30:00 PM 7.77 45.986 0.213 7.36 5.34 11.57
10/20/2022 9:45:00 PM 7.74 45.932 0.213 7.35 5.58 11.48
10/20/2022 10:00:00 PM 7.72 45.896 0.213 7.34 5.29 11.42
10/20/2022 10:15:00 PM 7.68 45.824 0.213 7.32 5.28 11.32
10/20/2022 10:30:00 PM 7.66 45.788 0.214 7.31 5.3 11.31
10/20/2022 10:45:00 PM 7.63 45.734 0.214 7.29 5.69 11.27
10/20/2022 11:00:00 PM 7.61 45.698 0.214 7.3 5.27 11.23
10/20/2022 11:15:00 PM 7.58 45.644 0.214 7.29 5.31 11.19
10/20/2022 11:30:00 PM 7.55 45.59 0.214 7.28 5.37 11.13
10/20/2022 11:45:00 PM 7.53 45.554 0.215 7.27 5.47 11.09
10/21/2022 12:00:00 AM 7.51 45.518 0.215 7.27 5.51 11.06
10/21/2022 12:15:00 AM 7.49 45.482 0.214 7.26 7.32 11.02
10/21/2022 12:30:00 AM 7.46 45.428 0.215 7.25 5.36 10.97
10/21/2022 12:45:00 AM 7.43 45.374 0.215 7.25 5.54 10.94
10/21/2022 1:00:00 AM 7.4 45.32 0.215 7.24 5.51 10.91
10/21/2022 1:15:00 AM 7.37 45.266 0.215 7.23 5.51 10.88
10/21/2022 1:30:00 AM 7.33 45.194 0.215 7.23 5.48 10.84
10/21/2022 1:45:00 AM 7.28 45.104 0.215 7.23 6.81 10.82
10/21/2022 2:00:00 AM 7.24 45.032 0.215 7.22 5.58 10.79
10/21/2022 2:15:00 AM 7.22 44.996 0.215 7.21 5.92 10.74
10/21/2022 2:30:00 AM 7.2 44.96 0.216 7.21 5.49 10.73
10/21/2022 2:45:00 AM 7.16 44.888 0.215 7.2 5.6 10.7
10/21/2022 3:00:00 AM 7.11 44.798 0.216 7.2 5.65 10.66
10/21/2022 3:15:00 AM 7.08 44.744 0.216 7.2 5.62 10.63
10/21/2022 3:30:00 AM 7.05 44.69 0.216 7.17 5.45 10.61
10/21/2022 3:45:00 AM 7 44.6 0.216 7.19 5.48 10.58
10/21/2022 4:00:00 AM 6.95 44.51 0.216 7.18 5.73 10.55
10/21/2022 4:15:00 AM 6.91 44.438 0.216 7.18 5.66 10.53
10/21/2022 4:30:00 AM 6.86 44.348 0.216 7.18 5.64 10.51
10/21/2022 4:45:00 AM 6.81 44.258 0.216 7.18 5.47 10.5
10/21/2022 5:00:00 AM 6.76 44.168 0.216 7.07 5.61 10.49
10/21/2022 5:15:00 AM 6.71 44.078 0.216 7.17 5.52 10.47
10/21/2022 5:30:00 AM 6.66 43.988 0.216 7.16 7.16 10.45
10/21/2022 5:45:00 AM 6.61 43.898 0.216 7.16 5.49 10.44
10/21/2022 6:00:00 AM 6.57 43.826 0.216 7.16 5.57 10.43
10/21/2022 6:15:00 AM 6.51 43.718 0.216 7.15 5.59 10.44
10/21/2022 6:30:00 AM 6.46 43.628 0.216 7.14 5.95 10.43
10/21/2022 6:45:00 AM 6.41 43.538 0.217 7.14 5.67 10.42
10/21/2022 7:00:00 AM 6.37 43.466 0.217 7.04 5.69 10.41
10/21/2022 7:15:00 AM 6.31 43.358 0.217 7.13 5.54 10.41
10/21/2022 7:30:00 AM 6.27 43.286 0.217 7.13 5.85 10.38
10/21/2022 7:45:00 AM 6.22 43.196 0.217 7.12 7.09 10.4
10/21/2022 8:00:00 AM 6.19 43.142 0.217 7.11 5.33 10.41
10/21/2022 8:15:00 AM 6.14 43.052 0.217 7.1 5.24 10.42
10/21/2022 8:30:00 AM 6.11 42.998 0.217 7.1 5.5 10.42
10/21/2022 8:45:00 AM 6.08 42.944 0.217 7.1 5.32 10.42
10/21/2022 9:00:00 AM 6.03 42.854 0.217 7.1 5.27 10.45
10/21/2022 9:15:00 AM 6.03 42.854 0.217 7.1 5.26 10.48
10/21/2022 9:30:00 AM 6.01 42.818 0.217 7.1 5.18 10.5
10/21/2022 9:45:00 AM 6.03 42.854 0.217 7.11 5.41 10.56
10/21/2022 10:00:00 AM 6.07 42.926 0.217 7.11 5.05 10.61
10/21/2022 10:15:00 AM 6.14 43.052 0.217 7.04 5.06 10.7
10/21/2022 10:30:00 AM 6.19 43.142 0.217 7.13 5.06 10.79
10/21/2022 10:45:00 AM 6.25 43.25 0.217 7.14 5.07 10.84
10/21/2022 11:00:00 AM 6.34 43.412 0.217 7.17 5.13 11.09
10/21/2022 11:15:00 AM 6.44 43.592 0.217 7.18 5.4 11.18
10/21/2022 11:30:00 AM 6.57 43.826 0.217 7.2 5.41 11.31
10/21/2022 11:45:00 AM 6.7 44.06 0.217 7.22 5.14 11.46
10/21/2022 12:00:00 PM 6.88 44.384 0.217 7.25 5.22 11.65
10/21/2022 12:15:00 PM 7.02 44.636 0.217 7.26 5.09 11.76
10/21/2022 12:30:00 PM 7.19 44.942 0.216 7.28 5.14 11.9
10/21/2022 12:45:00 PM 7.33 45.194 0.216 7.29 5.09 12
10/21/2022 1:00:00 PM 7.44 45.392 0.217 7.3 5.23 12.07
10/21/2022 1:15:00 PM 7.56 45.608 0.217 7.31 5.13 12.11
10/21/2022 1:30:00 PM 7.77 45.986 0.217 7.31 5.19 12.13
10/21/2022 1:45:00 PM 7.85 46.13 0.217 7.32 5.06 12.21
10/21/2022 2:00:00 PM 8.05 46.49 0.217 7.33 5.15 12.26
10/21/2022 2:15:00 PM 8.17 46.706 0.217 7.35 5.02 12.35
10/21/2022 2:30:00 PM 8.32 46.976 0.217 7.36 4.85 12.43
10/21/2022 2:45:00 PM 8.47 47.246 0.217 7.37 4.91 12.49
10/21/2022 3:00:00 PM 8.55 47.39 0.217 7.39 4.83 12.53
10/21/2022 3:15:00 PM 8.73 47.714 0.218 7.39 4.95 12.54
10/21/2022 3:30:00 PM 8.85 47.93 0.218 7.4 4.9 12.58
10/21/2022 3:45:00 PM 8.97 48.146 0.218 7.4 5.02 12.58
10/21/2022 4:00:00 PM 9.08 48.344 0.218 7.41 4.81 12.62
10/21/2022 4:15:00 PM 9.2 48.56 0.218 7.43 4.8 12.67
10/21/2022 4:30:00 PM 9.29 48.722 0.217 7.44 4.9 12.69
10/21/2022 4:45:00 PM 9.38 48.884 0.217 7.46 4.8 12.7
10/21/2022 5:00:00 PM 9.43 48.974 0.217 7.46 4.78 12.72
10/21/2022 5:15:00 PM 9.43 48.974 0.217 7.47 4.74 12.7
10/21/2022 5:30:00 PM 9.43 48.974 0.217 7.47 4.8 12.68
10/21/2022 5:45:00 PM 9.43 48.974 0.217 7.48 4.82 12.67
10/21/2022 6:00:00 PM 9.42 48.956 0.217 7.48 4.81 12.67
10/21/2022 6:15:00 PM 9.37 48.866 0.218 7.48 4.89 12.62
10/21/2022 6:30:00 PM 9.3 48.74 0.217 7.48 4.84 12.56
10/21/2022 6:45:00 PM 9.21 48.578 0.218 7.47 4.83 12.49
10/21/2022 7:00:00 PM 9.09 48.362 0.218 7.38 4.72 12.4
10/21/2022 7:15:00 PM 8.99 48.182 0.218 7.45 4.74 12.31
10/21/2022 7:30:00 PM 8.89 48.002 0.218 7.44 4.98 12.2
10/21/2022 7:45:00 PM 8.8 47.84 0.217 7.43 4.93 12.09
10/21/2022 8:00:00 PM 8.72 47.696 0.218 7.41 4.92 11.96
10/21/2022 8:15:00 PM 8.63 47.534 0.217 7.4 4.99 11.84
10/21/2022 8:30:00 PM 8.55 47.39 0.217 7.39 4.94 11.75
10/21/2022 8:45:00 PM 8.47 47.246 0.218 7.37 5.04 11.62
10/21/2022 9:00:00 PM 8.4 47.12 0.217 7.35 5.06 11.52
10/21/2022 9:15:00 PM 8.34 47.012 0.218 7.34 5.22 11.44
10/21/2022 9:30:00 PM 8.27 46.886 0.218 7.33 5.13 11.36
10/21/2022 9:45:00 PM 8.22 46.796 0.218 7.32 5.07 11.3
10/21/2022 10:00:00 PM 8.16 46.688 0.218 7.31 4.95 11.22
10/21/2022 10:15:00 PM 8.09 46.562 0.218 7.3 5.3 11.17
10/21/2022 10:30:00 PM 8.04 46.472 0.218 7.29 5.32 11.12
10/21/2022 10:45:00 PM 7.98 46.364 0.218 7.28 5.13 11.06
10/21/2022 11:00:00 PM 7.93 46.274 0.218 7.27 5.46 11.02
10/21/2022 11:15:00 PM 7.86 46.148 0.218 7.26 5.15 10.97
10/21/2022 11:30:00 PM 7.8 46.04 0.218 7.25 5.6 10.96
10/21/2022 11:45:00 PM 7.76 45.968 0.218 7.21 5.17 10.93
10/22/2022 12:00:00 AM 7.7 45.86 0.218 7.24 5.15 10.9
10/22/2022 12:15:00 AM 7.65 45.77 0.218 7.24 5.64 10.86
10/22/2022 12:30:00 AM 7.6 45.68 0.218 7.23 5.46 10.84
10/22/2022 12:45:00 AM 7.55 45.59 0.218 7.13 5.12 10.81
10/22/2022 1:00:00 AM 7.49 45.482 0.218 7.22 5.95 10.79
10/22/2022 1:15:00 AM 7.43 45.374 0.218 7.21 5.21 10.76
10/22/2022 1:30:00 AM 7.39 45.302 0.218 7.21 5.17 10.72
10/22/2022 1:45:00 AM 7.35 45.23 0.218 7.2 5.27 10.7
10/22/2022 2:00:00 AM 7.29 45.122 0.218 7.2 5.32 10.68
10/22/2022 2:15:00 AM 7.24 45.032 0.218 7.19 5.27 10.66
10/22/2022 2:30:00 AM 7.2 44.96 0.218 7.19 5.28 10.63
10/22/2022 2:45:00 AM 7.15 44.87 0.219 7.18 5.12 10.61
10/22/2022 3:00:00 AM 7.09 44.762 0.218 7.18 5.42 10.59
10/22/2022 3:15:00 AM 7.06 44.708 0.218 7.17 5.83 10.56
10/22/2022 3:30:00 AM 7 44.6 0.219 7.17 5.29 10.54
10/22/2022 3:45:00 AM 6.96 44.528 0.218 7.16 6.34 10.52
10/22/2022 4:00:00 AM 6.92 44.456 0.218 7.15 5.82 10.5
10/22/2022 4:15:00 AM 6.86 44.348 0.218 7.14 5.43 10.49
10/22/2022 4:30:00 AM 6.81 44.258 0.218 7.12 6.33 10.48
10/22/2022 4:45:00 AM 6.77 44.186 0.218 7.11 5.63 10.46
10/22/2022 5:00:00 AM 6.73 44.114 0.218 7.1 5.82 10.45
10/22/2022 5:15:00 AM 6.68 44.024 0.218 7.1 6.08 10.42
10/22/2022 5:30:00 AM 6.63 43.934 0.218 7.1 5.61 10.43
10/22/2022 5:45:00 AM 6.6 43.88 0.218 7.09 6.25 10.42
10/22/2022 6:00:00 AM 6.55 43.79 0.218 7.09 5.59 10.39
10/22/2022 6:15:00 AM 6.51 43.718 0.219 7.09 5.66 10.39
10/22/2022 6:30:00 AM 6.47 43.646 0.219 7.09 6.69 10.38
10/22/2022 6:45:00 AM 6.42 43.556 0.219 7.09 5.53 10.36
10/22/2022 7:00:00 AM 6.39 43.502 0.219 7.09 5.53 10.36
10/22/2022 7:15:00 AM 6.34 43.412 0.219 7.09 6.02 10.35
10/22/2022 7:30:00 AM 6.28 43.304 0.219 7.09 5.45 10.35
10/22/2022 7:45:00 AM 6.26 43.268 0.219 7.08 5.2 10.34
10/22/2022 8:00:00 AM 6.24 43.232 0.219 7.08 4.96 10.33
10/22/2022 8:15:00 AM 6.22 43.196 0.219 7.08 5.29 10.33
10/22/2022 8:30:00 AM 6.18 43.124 0.219 7.09 5.06 10.33
10/22/2022 8:45:00 AM 6.16 43.088 0.219 7.09 5.12 10.35
10/22/2022 9:00:00 AM 6.16 43.088 0.219 7.09 4.87 10.35
10/22/2022 9:15:00 AM 6.14 43.052 0.219 7.09 5.05 10.35
10/22/2022 9:30:00 AM 6.15 43.07 0.219 7.09 5.01 10.36
10/22/2022 9:45:00 AM 6.17 43.106 0.219 7.1 4.94 10.41
10/22/2022 10:00:00 AM 6.2 43.16 0.219 7.11 4.86 10.44
10/22/2022 10:15:00 AM 6.29 43.322 0.219 7.11 5.04 10.53
10/22/2022 10:30:00 AM 6.35 43.43 0.218 7.12 5.02 10.6
10/22/2022 10:45:00 AM 6.43 43.574 0.218 7.13 4.86 10.7
10/22/2022 11:00:00 AM 6.54 43.772 0.218 7.14 5.49 10.8
10/22/2022 11:15:00 AM 6.63 43.934 0.218 7.15 5.49 10.96
10/22/2022 11:30:00 AM 6.74 44.132 0.218 7.17 4.91 11.07
10/22/2022 11:45:00 AM 6.84 44.312 0.218 7.18 4.7 11.16
10/22/2022 12:00:00 PM 6.97 44.546 0.218 7.19 4.77 11.3
10/22/2022 12:15:00 PM 7.15 44.87 0.218 7.2 4.63 11.39
10/22/2022 12:30:00 PM 7.34 45.212 0.218 7.22 4.66 11.49
10/22/2022 12:45:00 PM 7.43 45.374 0.218 7.23 4.64 11.59
10/22/2022 1:00:00 PM 7.59 45.662 0.218 7.24 4.75 11.72
10/22/2022 1:15:00 PM 7.77 45.986 0.218 7.25 5 11.8
10/22/2022 1:30:00 PM 7.97 46.346 0.218 7.26 4.77 11.87
10/22/2022 1:45:00 PM 8.24 46.832 0.218 7.28 4.63 12.02
10/22/2022 2:00:00 PM 8.39 47.102 0.218 7.29 4.67 12.09
10/22/2022 2:15:00 PM 8.59 47.462 0.218 7.2 4.68 12.1
10/22/2022 2:30:00 PM 8.8 47.84 0.218 7.31 4.55 12.18
10/22/2022 2:45:00 PM 9.05 48.29 0.218 7.32 4.69 12.24
10/22/2022 3:00:00 PM 9.18 48.524 0.218 7.33 4.7 12.28
10/22/2022 3:15:00 PM 9.37 48.866 0.218 7.35 4.53 12.34
10/22/2022 3:30:00 PM 9.39 48.902 0.218 7.36 4.52 12.36
10/22/2022 3:45:00 PM 9.8 49.64 0.218 7.38 4.63 12.42
10/22/2022 4:00:00 PM 9.9 49.82 0.219 7.4 4.4 12.47
10/22/2022 4:15:00 PM 9.93 49.874 0.219 7.39 4.47 12.43
10/22/2022 4:30:00 PM 10 50 0.219 7.4 4.42 12.39
10/22/2022 4:45:00 PM 10.15 50.27 0.219 7.41 5.15 12.47
10/22/2022 5:00:00 PM 10.28 50.504 0.219 7.44 4.37 12.55
10/22/2022 5:15:00 PM 10.27 50.486 0.219 7.44 4.42 12.52
10/22/2022 5:30:00 PM 10.22 50.396 0.219 7.43 4.54 12.43
10/22/2022 5:45:00 PM 10.34 50.612 0.219 7.45 4.59 12.53
10/22/2022 6:00:00 PM 9.99 49.982 0.219 7.41 4.48 12.28
10/22/2022 6:15:00 PM 10.1 50.18 0.219 7.43 4.48 12.35
10/22/2022 6:30:00 PM 10.19 50.342 0.219 7.45 4.49 12.4
10/22/2022 6:45:00 PM 10.11 50.198 0.219 7.44 4.44 12.32
10/22/2022 7:00:00 PM 10 50 0.219 7.43 4.48 12.26
10/22/2022 7:15:00 PM 9.88 49.784 0.219 7.43 4.47 12.15
10/22/2022 7:30:00 PM 9.78 49.604 0.219 7.42 4.84 12.04
10/22/2022 7:45:00 PM 9.67 49.406 0.22 7.41 4.64 11.92
10/22/2022 8:00:00 PM 9.58 49.244 0.22 7.39 5.17 11.79
10/22/2022 8:15:00 PM 9.48 49.064 0.22 7.38 4.96 11.66
10/22/2022 8:30:00 PM 9.4 48.92 0.22 7.36 4.76 11.55
10/22/2022 8:45:00 PM 9.3 48.74 0.22 7.35 4.94 11.42
10/22/2022 9:00:00 PM 9.23 48.614 0.22 7.34 5.43 11.33
10/22/2022 9:15:00 PM 9.15 48.47 0.22 7.33 4.81 11.24
10/22/2022 9:30:00 PM 9.09 48.362 0.22 7.31 5.09 11.15
10/22/2022 9:45:00 PM 9 48.2 0.22 7.3 4.87 11.06
10/22/2022 10:00:00 PM 8.97 48.146 0.22 7.29 5.11 11.03
10/22/2022 10:15:00 PM 8.9 48.02 0.22 7.28 4.9 10.97
10/22/2022 10:30:00 PM 8.83 47.894 0.22 7.27 4.94 10.91
10/22/2022 10:45:00 PM 8.77 47.786 0.22 7.26 5.33 10.86
10/22/2022 11:00:00 PM 8.71 47.678 0.22 7.2 5.1 10.82
10/22/2022 11:15:00 PM 8.67 47.606 0.22 7.25 5.22 10.77
10/22/2022 11:30:00 PM 8.61 47.498 0.22 7.24 5.21 10.75
10/22/2022 11:45:00 PM 8.54 47.372 0.221 7.24 5.24 10.72
10/23/2022 12:00:00 AM 8.5 47.3 0.221 7.23 5.66 10.69
10/23/2022 12:15:00 AM 8.45 47.21 0.221 7.22 6.17 10.66
10/23/2022 12:30:00 AM 8.4 47.12 0.221 7.22 5.73 10.63
10/23/2022 12:45:00 AM 8.36 47.048 0.221 7.21 5.72 10.6
10/23/2022 1:00:00 AM 8.3 46.94 0.221 7.21 5.62 10.58
10/23/2022 1:15:00 AM 8.25 46.85 0.221 7.2 5.76 10.54
10/23/2022 1:30:00 AM 8.21 46.778 0.221 7.2 5.55 10.5
10/23/2022 1:45:00 AM 8.15 46.67 0.221 7.19 6 10.48
10/23/2022 2:00:00 AM 8.1 46.58 0.221 7.19 5.69 10.45
10/23/2022 2:15:00 AM 8.04 46.472 0.221 7.18 5.98 10.43
10/23/2022 2:30:00 AM 8 46.4 0.221 7.18 5.86 10.39
10/23/2022 2:45:00 AM 7.95 46.31 0.222 7.17 5.68 10.36
10/23/2022 3:00:00 AM 7.9 46.22 0.222 7.17 5.7 10.33
10/23/2022 3:15:00 AM 7.83 46.094 0.222 7.16 6.3 10.33
10/23/2022 3:30:00 AM 7.77 45.986 0.222 7.16 5.7 10.31
10/23/2022 3:45:00 AM 7.73 45.914 0.222 7.15 6.07 10.28
10/23/2022 4:00:00 AM 7.67 45.806 0.222 7.15 5.82 10.26
10/23/2022 4:15:00 AM 7.62 45.716 0.222 7.14 5.87 10.24
10/23/2022 4:30:00 AM 7.58 45.644 0.222 7.14 6.23 10.21
10/23/2022 4:45:00 AM 7.53 45.554 0.222 7.14 8.67 10.19
10/23/2022 5:00:00 AM 7.47 45.446 0.222 7.13 6.38 10.17
10/23/2022 5:15:00 AM 7.41 45.338 0.222 7.13 5.96 10.18
10/23/2022 5:30:00 AM 7.37 45.266 0.222 7.12 6.27 10.16
10/23/2022 5:45:00 AM 7.34 45.212 0.222 7.12 6.38 10.14
10/23/2022 6:00:00 AM 7.28 45.104 0.222 7.11 6.29 10.13
10/23/2022 6:15:00 AM 7.22 44.996 0.222 7.11 6.36 10.14
10/23/2022 6:30:00 AM 7.17 44.906 0.222 7.1 8.69 10.11
10/23/2022 6:45:00 AM 7.13 44.834 0.222 7.09 5.77 10.12
10/23/2022 7:00:00 AM 7.08 44.744 0.222 6.98 5.31 10.1
10/23/2022 7:15:00 AM 7.05 44.69 0.222 7.08 5.5 10.09
10/23/2022 7:30:00 AM 6.99 44.582 0.222 7.08 5.53 10.07
10/23/2022 7:45:00 AM 6.95 44.51 0.222 7.07 5.12 10.06
10/23/2022 8:00:00 AM 6.92 44.456 0.222 7.06 5.73 10.07
10/23/2022 8:15:00 AM 6.88 44.384 0.222 7.06 5.3 10.08
10/23/2022 8:30:00 AM 6.84 44.312 0.222 7.06 5.08 10.07
10/23/2022 8:45:00 AM 6.83 44.294 0.222 7.06 5.53 10.06
10/23/2022 9:00:00 AM 6.8 44.24 0.222 7.06 4.9 10.08
10/23/2022 9:15:00 AM 6.79 44.222 0.222 7.07 5.04 10.1
10/23/2022 9:30:00 AM 6.79 44.222 0.222 7.07 4.89 10.12
10/23/2022 9:45:00 AM 6.78 44.204 0.222 7.08 4.82 10.16
10/23/2022 10:00:00 AM 6.81 44.258 0.222 7.08 4.87 10.19
10/23/2022 10:15:00 AM 6.82 44.276 0.222 7.08 4.82 10.23
10/23/2022 10:30:00 AM 6.89 44.402 0.221 7.09 4.83 10.34
10/23/2022 10:45:00 AM 6.96 44.528 0.221 7.1 4.87 10.42
10/23/2022 11:00:00 AM 7.04 44.672 0.221 7.11 4.77 10.53
10/23/2022 11:15:00 AM 7.11 44.798 0.221 7.12 4.63 10.63
10/23/2022 11:30:00 AM 7.19 44.942 0.221 7.13 6.18 10.73
10/23/2022 11:45:00 AM 7.24 45.032 0.221 7.14 4.73 10.83
10/23/2022 12:00:00 PM 7.31 45.158 0.221 7.15 4.63 10.93
10/23/2022 12:15:00 PM 7.64 45.752 0.221 7.18 4.6 11.14
10/23/2022 12:30:00 PM 7.59 45.662 0.221 7.19 4.67 11.26
10/23/2022 12:45:00 PM 7.73 45.914 0.221 7.2 4.69 11.34
10/23/2022 1:00:00 PM 7.88 46.184 0.221 7.2 4.68 11.38
10/23/2022 1:15:00 PM 8.03 46.454 0.221 7.23 4.79 11.62
10/23/2022 1:30:00 PM 8.17 46.706 0.221 7.24 8.59 11.73
10/23/2022 1:45:00 PM 8.29 46.922 0.221 7.25 4.95 11.78
10/23/2022 2:00:00 PM 8.47 47.246 0.221 7.26 4.95 11.87
10/23/2022 2:15:00 PM 8.78 47.804 0.221 7.28 4.61 12.02
10/23/2022 2:30:00 PM 8.97 48.146 0.221 7.3 4.53 12.11
10/23/2022 2:45:00 PM 9.21 48.578 0.221 7.32 4.7 12.23
10/23/2022 3:00:00 PM 9.15 48.47 0.221 7.32 4.64 12.23
10/23/2022 3:15:00 PM 9.04 48.272 0.221 7.31 4.81 12.15
10/23/2022 3:30:00 PM 9.24 48.632 0.221 7.32 4.62 12.23
10/23/2022 3:45:00 PM 9.23 48.614 0.221 7.21 4.62 12.06
10/23/2022 4:00:00 PM 9.33 48.794 0.221 7.33 4.71 12.14
10/23/2022 4:15:00 PM 9.39 48.902 0.22 7.33 4.7 12.17
10/23/2022 4:30:00 PM 9.5 49.1 0.221 7.34 4.6 12.23
10/23/2022 4:45:00 PM 9.63 49.334 0.223 7.33 4.7 12.07
10/23/2022 5:00:00 PM 9.59 49.262 0.222 7.32 4.84 12.08
10/23/2022 5:15:00 PM 9.35 48.83 0.221 7.31 4.89 11.82
10/23/2022 5:30:00 PM 9.16 48.488 0.22 7.3 4.84 11.69
10/23/2022 5:45:00 PM 9.78 49.604 0.222 7.36 4.62 12.23
10/23/2022 6:00:00 PM 9.84 49.712 0.222 7.28 4.78 12.3
10/23/2022 6:15:00 PM 9.92 49.856 0.223 7.39 5.41 12.36
10/23/2022 6:30:00 PM 9.96 49.928 0.223 7.39 4.64 12.29
10/23/2022 6:45:00 PM 9.91 49.838 0.223 7.4 4.59 12.29
10/23/2022 7:00:00 PM 9.91 49.838 0.223 7.38 4.61 12.24
10/23/2022 7:15:00 PM 9.87 49.766 0.223 7.41 4.91 12.24
10/23/2022 7:30:00 PM 9.93 49.874 0.223 7.42 4.79 12.24
10/23/2022 7:45:00 PM 9.88 49.784 0.223 7.41 4.91 12.11
10/23/2022 8:00:00 PM 9.85 49.73 0.223 7.4 5.32 12.01
10/23/2022 8:15:00 PM 9.78 49.604 0.223 7.38 5.14 11.82
10/23/2022 8:30:00 PM 9.76 49.568 0.223 7.36 4.77 11.72
10/23/2022 8:45:00 PM 9.73 49.514 0.224 7.35 4.84 11.55
10/23/2022 9:00:00 PM 9.72 49.496 0.224 7.34 4.86 11.51
10/23/2022 9:15:00 PM 9.68 49.424 0.224 7.31 4.93 11.4
10/23/2022 9:30:00 PM 9.64 49.352 0.224 7.31 5.08 11.23
10/23/2022 9:45:00 PM 9.64 49.352 0.224 7.29 5.06 11.13
10/23/2022 10:00:00 PM 9.64 49.352 0.224 7.28 5.01 11.02
10/23/2022 10:15:00 PM 9.64 49.352 0.224 7.27 5.25 10.99
10/23/2022 10:30:00 PM 9.6 49.28 0.224 7.26 5.24 10.87
10/23/2022 10:45:00 PM 9.6 49.28 0.224 7.25 5.04 10.79
10/23/2022 11:00:00 PM 9.6 49.28 0.224 7.24 4.99 10.75
10/23/2022 11:15:00 PM 9.59 49.262 0.224 7.23 5.16 10.7
10/23/2022 11:30:00 PM 9.59 49.262 0.224 7.23 5.2 10.65
10/23/2022 11:45:00 PM 9.57 49.226 0.224 7.22 5.31 10.59
10/24/2022 12:00:00 AM 9.59 49.262 0.224 7.21 5.24 10.56
10/24/2022 12:15:00 AM 9.59 49.262 0.224 7.2 5.13 10.51
10/24/2022 12:30:00 AM 9.58 49.244 0.224 7.2 5.33 10.47
10/24/2022 12:45:00 AM 9.58 49.244 0.224 7.19 5.1 10.43
10/24/2022 1:00:00 AM 9.58 49.244 0.224 7.18 6.35 10.39
10/24/2022 1:15:00 AM 9.57 49.226 0.224 7.18 6.42 10.36
10/24/2022 1:30:00 AM 9.58 49.244 0.224 7.17 5.73 10.31
10/24/2022 1:45:00 AM 9.57 49.226 0.224 7.17 5.17 10.29
10/24/2022 2:00:00 AM 9.57 49.226 0.224 7.16 5.31 10.25
10/24/2022 2:15:00 AM 9.56 49.208 0.224 7.16 5.26 10.19
10/24/2022 2:30:00 AM 9.57 49.226 0.225 7.15 5.53 10.17
10/24/2022 2:45:00 AM 9.55 49.19 0.225 7.15 5.33 10.13
10/24/2022 3:00:00 AM 9.56 49.208 0.225 7.15 5.25 10.08
10/24/2022 3:15:00 AM 9.56 49.208 0.225 7.14 6.2 10.06
10/24/2022 3:30:00 AM 9.56 49.208 0.225 7.14 6.28 10.02
10/24/2022 3:45:00 AM 9.55 49.19 0.225 7.13 7.17 10
10/24/2022 4:00:00 AM 9.55 49.19 0.225 7.13 6.08 9.97
10/24/2022 4:15:00 AM 9.55 49.19 0.225 7.12 5.77 9.93
10/24/2022 4:30:00 AM 9.54 49.172 0.225 7.12 5.52 9.91
10/24/2022 4:45:00 AM 9.54 49.172 0.225 7.12 5.49 9.88
10/24/2022 5:00:00 AM 9.54 49.172 0.225 7.11 5.62 9.83
10/24/2022 5:15:00 AM 9.54 49.172 0.225 7.11 5.8 9.8
10/24/2022 5:30:00 AM 9.54 49.172 0.225 7.11 5.3 9.78
10/24/2022 5:45:00 AM 9.54 49.172 0.225 7.1 5.55 9.75
10/24/2022 6:00:00 AM 9.55 49.19 0.225 7.1 5.36 9.72
10/24/2022 6:15:00 AM 9.55 49.19 0.224 7.1 5.22 9.7
10/24/2022 6:30:00 AM 9.55 49.19 0.224 7.1 5.12 9.69
10/24/2022 6:45:00 AM 9.55 49.19 0.224 7.1 5.76 9.7
10/24/2022 7:00:00 AM 9.56 49.208 0.224 7.1 5.59 9.71
10/24/2022 7:15:00 AM 9.56 49.208 0.223 7.1 6.16 9.67
10/24/2022 7:30:00 AM 9.57 49.226 0.224 7.1 5.58 9.65
10/24/2022 7:45:00 AM 9.57 49.226 0.223 7.09 6.07 9.61
10/24/2022 8:00:00 AM 9.58 49.244 0.223 7.09 5.53 9.6
10/24/2022 8:15:00 AM 9.59 49.262 0.223 7.09 6.6 9.58
10/24/2022 8:30:00 AM 9.6 49.28 0.223 7.09 6.48 9.56
10/24/2022 8:45:00 AM 9.61 49.298 0.222 7.09 5.88 9.56
10/24/2022 9:00:00 AM 9.63 49.334 0.222 7.09 5.38 9.55
10/24/2022 9:15:00 AM 9.64 49.352 0.222 7.09 5.31 9.54
10/24/2022 9:30:00 AM 9.66 49.388 0.221 7.09 5.01 9.57
10/24/2022 9:45:00 AM 9.69 49.442 0.221 7.09 5.49 9.57
10/24/2022 10:00:00 AM 9.74 49.532 0.22 7.09 5.46 9.62
10/24/2022 10:15:00 AM 9.79 49.622 0.22 7.09 5.21 9.65
10/24/2022 10:30:00 AM 9.84 49.712 0.22 7.09 7.14 9.67
10/24/2022 10:45:00 AM 9.88 49.784 0.22 7.1 5.73 9.7
10/24/2022 11:00:00 AM 9.94 49.892 0.22 7.1 5.44 9.79
10/24/2022 11:15:00 AM 9.98 49.964 0.22 7.1 5.49 9.81
10/24/2022 11:30:00 AM 10.07 50.126 0.22 7.11 5.37 9.95
10/24/2022 11:45:00 AM 10.18 50.324 0.22 7.12 5.42 10.14
10/24/2022 12:00:00 PM 10.36 50.648 0.22 7.14 5.52 10.4
10/24/2022 12:15:00 PM 10.52 50.936 0.22 7.17 5.48 10.61
10/24/2022 12:30:00 PM 10.54 50.972 0.22 7.17 5.27 10.71
10/24/2022 12:45:00 PM 10.61 51.098 0.219 7.18 5.27 10.78
10/24/2022 1:00:00 PM 10.7 51.26 0.219 7.19 5.47 10.84
10/24/2022 1:15:00 PM 10.83 51.494 0.219 7.22 5.27 11.04
10/24/2022 1:30:00 PM 10.94 51.692 0.219 7.22 5.27 11.05
10/24/2022 1:45:00 PM 11.1 51.98 0.219 7.23 5.43 11.13
10/24/2022 2:00:00 PM 11.2 52.16 0.219 7.25 5.16 11.22
10/24/2022 2:15:00 PM 11.28 52.304 0.219 7.27 5.28 11.32
10/24/2022 2:30:00 PM 11.34 52.412 0.218 7.29 5.17 11.45
10/24/2022 2:45:00 PM 11.44 52.592 0.218 7.29 5.35 11.46
10/24/2022 3:00:00 PM 11.53 52.754 0.218 7.31 5.32 11.55
10/24/2022 3:15:00 PM 11.65 52.97 0.218 7.33 5.43 11.63
10/24/2022 3:30:00 PM 11.7 53.06 0.218 7.35 5.63 11.73
10/24/2022 3:45:00 PM 11.77 53.186 0.218 7.35 5.12 11.67
10/24/2022 4:00:00 PM 11.92 53.456 0.217 7.4 5.24 11.84
10/24/2022 4:15:00 PM 11.91 53.438 0.218 7.4 5.19 11.84
10/24/2022 4:30:00 PM 11.96 53.528 0.217 7.33 5.38 11.82
10/24/2022 4:45:00 PM 11.98 53.564 0.217 7.43 5.18 11.86
10/24/2022 5:00:00 PM 12 53.6 0.217 7.43 5.2 11.84
10/24/2022 5:15:00 PM 12.02 53.636 0.217 7.43 5.11 11.79
10/24/2022 5:30:00 PM 12.02 53.636 0.217 7.41 5.27 11.77
10/24/2022 5:45:00 PM 12 53.6 0.209 7.49 1.5 11.48
10/24/2022 6:00:00 PM 11.98 53.564 0.209 7.54 2.15 11.42
10/24/2022 6:15:00 PM 11.97 53.546 0.209 7.53 2.69 11.34
10/24/2022 6:30:00 PM 11.94 53.492 0.209 7.52 1.41 11.19
10/24/2022 6:45:00 PM 11.95 53.51 0.21 7.5 1.55 11.11
10/24/2022 7:00:00 PM 11.93 53.474 0.21 7.48 1.54 11
10/24/2022 7:15:00 PM 11.91 53.438 0.21 7.49 2.68 10.85
10/24/2022 7:30:00 PM 11.9 53.42 0.211 7.47 1.79 10.74
10/24/2022 7:45:00 PM 11.9 53.42 0.211 7.46 1.7 10.6
10/24/2022 8:00:00 PM 11.89 53.402 0.211 7.44 1.9 10.48
10/24/2022 8:15:00 PM 11.9 53.42 0.212 7.43 1.79 10.42
10/24/2022 8:30:00 PM 11.89 53.402 0.212 7.42 1.89 10.34
10/24/2022 8:45:00 PM 11.88 53.384 0.213 7.4 1.83 10.23
10/24/2022 9:00:00 PM 11.89 53.402 0.213 7.38 1.86 10.18
10/24/2022 9:15:00 PM 11.9 53.42 0.213 7.38 2.65 10.12
10/24/2022 9:30:00 PM 11.89 53.402 0.213 7.38 1.94 10.09
10/24/2022 9:45:00 PM 11.89 53.402 0.214 7.36 1.89 10.02
10/24/2022 10:00:00 PM 11.89 53.402 0.214 7.36 1.94 9.97
10/24/2022 10:15:00 PM 11.89 53.402 0.214 7.35 2 9.93
10/24/2022 10:30:00 PM 11.89 53.402 0.214 7.34 2.01 9.89
10/24/2022 10:45:00 PM 11.89 53.402 0.214 7.33 3.55 9.85
10/24/2022 11:00:00 PM 11.88 53.384 0.213 7.32 3.66 9.79
10/24/2022 11:15:00 PM 11.87 53.366 0.215 7.32 2.32 9.76
10/24/2022 11:30:00 PM 11.87 53.366 0.215 7.31 2.18 9.69
10/24/2022 11:45:00 PM 11.87 53.366 0.215 7.3 2.26 9.64
10/25/2022 12:00:00 AM 11.86 53.348 0.216 7.28 2.44 9.58
10/25/2022 12:15:00 AM 11.85 53.33 0.216 7.29 2.7 9.51
10/25/2022 12:30:00 AM 11.86 53.348 0.216 7.28 2.91 9.47
10/25/2022 12:45:00 AM 11.85 53.33 0.216 7.27 3.09 9.4
10/25/2022 1:00:00 AM 11.86 53.348 0.216 7.27 3.24 9.36
10/25/2022 1:15:00 AM 11.85 53.33 0.216 7.26 3.52 9.32
10/25/2022 1:30:00 AM 11.85 53.33 0.216 7.26 4.07 9.28
10/25/2022 1:45:00 AM 11.85 53.33 0.216 7.24 4.18 9.24
10/25/2022 2:00:00 AM 11.85 53.33 0.216 7.24 4.58 9.2
10/25/2022 2:15:00 AM 11.85 53.33 0.216 7.24 5.17 9.16
10/25/2022 2:30:00 AM 11.85 53.33 0.216 7.23 4.95 9.12
10/25/2022 2:45:00 AM 11.86 53.348 0.216 7.23 5.84 9.08
10/25/2022 3:00:00 AM 11.86 53.348 0.216 7.21 5.48 9.05
10/25/2022 3:15:00 AM 11.87 53.366 0.216 7.22 5.73 8.99
10/25/2022 3:30:00 AM 11.87 53.366 0.216 7.21 7.03 8.97
10/25/2022 3:45:00 AM 11.87 53.366 0.216 7.21 6.47 8.93
10/25/2022 4:00:00 AM 11.88 53.384 0.216 7.2 6.04 8.9
10/25/2022 4:15:00 AM 11.89 53.402 0.216 7.2 6.07 8.86
10/25/2022 4:30:00 AM 11.9 53.42 0.216 7.19 6.55 8.84
10/25/2022 4:45:00 AM 11.9 53.42 0.216 7.19 6.16 8.81
10/25/2022 5:00:00 AM 11.91 53.438 0.216 7.19 6.6 8.78
10/25/2022 5:15:00 AM 11.93 53.474 0.216 7.19 7.86 8.75
10/25/2022 5:30:00 AM 11.93 53.474 0.216 7.16 6.55 8.74
10/25/2022 5:45:00 AM 11.94 53.492 0.216 7.18 6.74 8.7
10/25/2022 6:00:00 AM 11.96 53.528 0.216 7.18 7.05 8.68
10/25/2022 6:15:00 AM 11.97 53.546 0.217 7.17 6.03 8.65
10/25/2022 6:30:00 AM 11.98 53.564 0.217 7.17 6.48 8.64
10/25/2022 6:45:00 AM 12 53.6 0.217 7.17 6.51 8.61
10/25/2022 7:00:00 AM 12.01 53.618 0.217 7.17 5.57 8.59
10/25/2022 7:15:00 AM 12.02 53.636 0.217 7.16 5.31 8.57
10/25/2022 7:30:00 AM 12.03 53.654 0.217 7.17 5.31 8.55
10/25/2022 7:45:00 AM 12.05 53.69 0.217 7.17 5.22 8.53
10/25/2022 8:00:00 AM 12.06 53.708 0.218 7.16 4.89 8.51
10/25/2022 8:15:00 AM 12.07 53.726 0.218 7.16 4.98 8.51
10/25/2022 8:30:00 AM 12.1 53.78 0.218 7.16 5.08 8.49
10/25/2022 8:45:00 AM 12.11 53.798 0.219 7.17 4.4 8.49
10/25/2022 9:00:00 AM 12.12 53.816 0.219 7.15 4.64 8.47
10/25/2022 9:15:00 AM 12.15 53.87 0.219 7.17 4.89 8.47
10/25/2022 9:30:00 AM 12.17 53.906 0.219 7.17 4.98 8.51
10/25/2022 9:45:00 AM 12.21 53.978 0.219 7.16 4.09 8.53
10/25/2022 10:00:00 AM 12.24 54.032 0.22 7.17 3.57 8.6
10/25/2022 10:15:00 AM 12.28 54.104 0.22 7.17 3.57 8.74
10/25/2022 10:30:00 AM 12.33 54.194 0.22 7.19 3.75 8.86
10/25/2022 10:45:00 AM 12.39 54.302 0.22 7.19 3.24 9
10/25/2022 11:00:00 AM 12.46 54.428 0.22 7.21 3.26 9.08
10/25/2022 11:15:00 AM 12.52 54.536 0.221 7.22 3.45 9.2
10/25/2022 11:30:00 AM 12.59 54.662 0.221 7.24 3.29 9.34
10/25/2022 11:45:00 AM 12.68 54.824 0.221 7.25 2.94 9.44
10/25/2022 12:00:00 PM 12.77 54.986 0.221 7.27 2.95 9.65
10/25/2022 12:15:00 PM 12.9 55.22 0.221 7.28 2.87 9.69
10/25/2022 12:30:00 PM 12.98 55.364 0.221 7.29 2.81 9.79
10/25/2022 12:45:00 PM 13.08 55.544 0.221 7.33 2.59 10.05
10/25/2022 1:00:00 PM 13.19 55.742 0.221 7.34 2.5 10.11
10/25/2022 1:15:00 PM 13.27 55.886 0.222 7.35 2.42 10.23
10/25/2022 1:30:00 PM 13.38 56.084 0.222 7.37 2.34 10.45
10/25/2022 1:45:00 PM 13.45 56.21 0.221 7.4 2.24 10.55
10/25/2022 2:00:00 PM 13.56 56.408 0.222 7.42 2.24 10.62
10/25/2022 2:15:00 PM 13.64 56.552 0.221 7.44 2.14 10.85
10/25/2022 2:30:00 PM 13.71 56.678 0.222 7.44 2.34 10.88
10/25/2022 2:45:00 PM 13.77 56.786 0.222 7.47 1.95 10.88
10/25/2022 3:00:00 PM 13.84 56.912 0.221 7.49 1.79 10.91
10/25/2022 3:15:00 PM 13.89 57.002 0.221 7.51 1.96 10.97
10/25/2022 3:30:00 PM 13.95 57.11 0.221 7.52 2.14 11
10/25/2022 3:45:00 PM 14.01 57.218 0.221 7.52 1.98 11.05
10/25/2022 4:00:00 PM 14.1 57.38 0.221 7.54 1.89 11.09
10/25/2022 4:15:00 PM 14.18 57.524 0.221 7.54 1.98 11.14
10/25/2022 4:30:00 PM 14.28 57.704 0.221 7.55 1.82 11.18
10/25/2022 4:45:00 PM 14.39 57.902 0.221 7.54 1.87 11.19
10/25/2022 5:00:00 PM 14.47 58.046 0.221 7.57 1.97 11.2
10/25/2022 5:15:00 PM 14.53 58.154 0.221 7.56 1.81 11.21
10/25/2022 5:30:00 PM 14.56 58.208 0.221 7.58 1.61 11.21
10/25/2022 5:45:00 PM 14.58 58.244 0.221 7.59 1.74 11.19
10/25/2022 6:00:00 PM 14.56 58.208 0.221 7.58 1.7 11.12
10/25/2022 6:15:00 PM 14.51 58.118 0.22 7.57 1.78 10.99
10/25/2022 6:30:00 PM 14.45 58.01 0.22 7.56 1.9 10.76
10/25/2022 6:45:00 PM 14.4 57.92 0.221 7.53 1.96 10.61
10/25/2022 7:00:00 PM 14.34 57.812 0.221 7.53 1.8 10.61
10/25/2022 7:15:00 PM 14.25 57.65 0.221 7.51 1.92 10.43
10/25/2022 7:30:00 PM 14.21 57.578 0.221 7.49 2.23 10.31
10/25/2022 7:45:00 PM 14.13 57.434 0.221 7.47 2.05 10.12
10/25/2022 8:00:00 PM 14.06 57.308 0.221 7.45 2.08 9.91
10/25/2022 8:15:00 PM 14.02 57.236 0.221 7.43 1.98 9.77
10/25/2022 8:30:00 PM 13.97 57.146 0.221 7.41 2.22 9.65
10/25/2022 8:45:00 PM 13.93 57.074 0.22 7.37 2.25 9.58
10/25/2022 9:00:00 PM 13.87 56.966 0.221 7.38 2.17 9.48
10/25/2022 9:15:00 PM 13.85 56.93 0.221 7.36 2.55 9.4
10/25/2022 9:30:00 PM 13.82 56.876 0.22 7.34 2.33 9.31
10/25/2022 9:45:00 PM 13.79 56.822 0.221 7.32 2.17 9.26
10/25/2022 10:00:00 PM 13.75 56.75 0.221 7.32 2.22 9.2
10/25/2022 10:15:00 PM 13.72 56.696 0.221 7.31 2.21 9.15
10/25/2022 10:30:00 PM 13.69 56.642 0.221 7.3 6.24 9.08
10/25/2022 10:45:00 PM 13.67 56.606 0.222 7.28 2.61 9.04
10/25/2022 11:00:00 PM 13.64 56.552 0.221 7.28 2.51 8.98
10/25/2022 11:15:00 PM 13.6 56.48 0.221 7.26 2.53 8.92
10/25/2022 11:30:00 PM 13.57 56.426 0.221 7.27 2.67 8.84
10/25/2022 11:45:00 PM 13.53 56.354 0.221 7.26 2.63 8.8
10/26/2022 12:00:00 AM 13.5 56.3 0.221 7.25 3.09 8.75
10/26/2022 12:15:00 AM 13.46 56.228 0.221 7.24 3.23 8.73
10/26/2022 12:30:00 AM 13.42 56.156 0.221 7.24 2.87 8.71
10/26/2022 12:45:00 AM 13.39 56.102 0.221 7.22 2.45 8.69
10/26/2022 1:00:00 AM 13.35 56.03 0.221 7.23 2.44 8.65
10/26/2022 1:15:00 AM 13.32 55.976 0.222 7.22 2.53 8.61
10/26/2022 1:30:00 AM 13.3 55.94 0.222 7.22 2.82 8.56
10/26/2022 1:45:00 AM 13.27 55.886 0.221 7.21 2.71 8.52
10/26/2022 2:00:00 AM 13.25 55.85 0.221 7.21 2.48 8.49
10/26/2022 2:15:00 AM 13.23 55.814 0.22 7.21 2.33 8.45
10/26/2022 2:30:00 AM 13.21 55.778 0.221 7.21 2.67 8.42
10/26/2022 2:45:00 AM 13.19 55.742 0.221 7.2 2.37 8.38
10/26/2022 3:00:00 AM 13.19 55.742 0.221 7.2 2.18 8.36
10/26/2022 3:15:00 AM 13.18 55.724 0.221 7.19 2.13 8.32
10/26/2022 3:30:00 AM 13.17 55.706 0.222 7.19 2.09 8.29
10/26/2022 3:45:00 AM 13.16 55.688 0.221 7.19 2.29 8.26
10/26/2022 4:00:00 AM 13.15 55.67 0.221 7.18 2.6 8.22
10/26/2022 4:15:00 AM 13.16 55.688 0.221 7.16 2.73 8.19
10/26/2022 4:30:00 AM 13.16 55.688 0.221 7.18 3.16 8.15
10/26/2022 4:45:00 AM 13.15 55.67 0.221 7.17 2.57 8.13
10/26/2022 5:00:00 AM 13.14 55.652 0.221 7.17 2.54 8.1
10/26/2022 5:15:00 AM 13.13 55.634 0.221 7.17 2.46 8.07
10/26/2022 5:30:00 AM 13.12 55.616 0.221 7.17 3.06 8.04
10/26/2022 5:45:00 AM 13.1 55.58 0.221 7.16 2.69 8
10/26/2022 6:00:00 AM 13.09 55.562 0.221 7.17 2.54 8
10/26/2022 6:15:00 AM 13.08 55.544 0.221 7.16 2.38 7.96
10/26/2022 6:30:00 AM 13.07 55.526 0.221 7.15 2.71 7.95
10/26/2022 6:45:00 AM 13.05 55.49 0.221 7.16 2.46 7.94
10/26/2022 7:00:00 AM 13.04 55.472 0.221 7.16 4.25 7.92
10/26/2022 7:15:00 AM 13.04 55.472 0.221 7.16 2.37 7.91
10/26/2022 7:30:00 AM 13.03 55.454 0.221 7.15 2.32 7.88
10/26/2022 7:45:00 AM 13.03 55.454 0.221 7.16 2.12 7.9
10/26/2022 8:00:00 AM 13.04 55.472 0.221 7.14 2.63 7.88
10/26/2022 8:15:00 AM 13.06 55.508 0.221 7.16 2.15 7.87
10/26/2022 8:30:00 AM 13.06 55.508 0.221 7.14 2.2 7.87
10/26/2022 8:45:00 AM 13.07 55.526 0.221 7.16 2.17 7.86
10/26/2022 9:00:00 AM 13.09 55.562 0.221 7.15 1.96 7.85
10/26/2022 9:15:00 AM 13.11 55.598 0.221 7.15 2.03 7.85
10/26/2022 9:30:00 AM 13.14 55.652 0.221 7.14 2.81 7.85
10/26/2022 9:45:00 AM 13.18 55.724 0.221 7.16 2.05 7.87
10/26/2022 10:00:00 AM 13.24 55.832 0.221 7.16 7.52 7.91
10/26/2022 10:15:00 AM 13.31 55.958 0.221 7.16 3.28 7.91
10/26/2022 10:30:00 AM 13.41 56.138 0.221 7.17 1.88 8.01
10/26/2022 10:45:00 AM 13.42 56.156 0.221 7.18 1.84 8.22
10/26/2022 11:00:00 AM 13.49 56.282 0.222 7.19 2.1 8.23
10/26/2022 11:15:00 AM 13.62 56.516 0.221 7.19 2.33 8.4
10/26/2022 11:30:00 AM 13.7 56.66 0.222 7.21 1.82 8.42
10/26/2022 11:45:00 AM 13.87 56.966 0.225 7.23 1.8 8.61
10/26/2022 12:00:00 PM 14.02 57.236 0.222 7.25 1.65 8.96
10/26/2022 12:15:00 PM 14.11 57.398 0.221 7.26 1.81 9.1
10/26/2022 12:30:00 PM 14.24 57.632 0.222 7.29 1.77 9.24
10/26/2022 12:45:00 PM 14.4 57.92 0.222 7.31 1.63 9.33
10/26/2022 1:00:00 PM 14.49 58.082 0.22 7.33 1.68 9.75
10/26/2022 1:15:00 PM 14.65 58.37 0.221 7.35 1.87 9.77
10/26/2022 1:30:00 PM 14.8 58.64 0.22 7.39 1.75 10.13
10/26/2022 1:45:00 PM 14.86 58.748 0.22 7.41 1.75 10.31
10/26/2022 2:00:00 PM 14.92 58.856 0.22 7.44 1.59 10.42
10/26/2022 2:15:00 PM 15 59 0.221 7.44 1.61 10.4
10/26/2022 2:30:00 PM 15.07 59.126 0.22 7.45 1.54 10.36
10/26/2022 2:45:00 PM 15.09 59.162 0.221 7.46 1.69 10.37
10/26/2022 3:00:00 PM 15.17 59.306 0.22 7.47 1.81 10.4
10/26/2022 3:15:00 PM 15.21 59.378 0.22 7.5 1.52 10.52
10/26/2022 3:30:00 PM 15.27 59.486 0.22 7.49 5.57 10.47
10/26/2022 3:45:00 PM 15.28 59.504 0.22 7.51 1.43 10.57
10/26/2022 4:00:00 PM 15.29 59.522 0.22 7.53 1.51 10.63
10/26/2022 4:15:00 PM 15.26 59.468 0.22 7.52 1.57 10.69
10/26/2022 4:30:00 PM 15.24 59.432 0.22 7.55 1.81 10.71
10/26/2022 4:45:00 PM 15.23 59.414 0.219 7.55 1.47 10.67
10/26/2022 5:00:00 PM 15.23 59.414 0.22 7.54 1.56 10.62
10/26/2022 5:15:00 PM 15.22 59.396 0.22 7.54 1.52 10.62
10/26/2022 5:30:00 PM 15.21 59.378 0.219 7.55 1.51 10.58
10/26/2022 5:45:00 PM 15.18 59.324 0.219 7.57 1.43 10.64
10/26/2022 6:00:00 PM 15.13 59.234 0.219 7.56 1.48 10.56
10/26/2022 6:15:00 PM 15.08 59.144 0.219 7.55 1.44 10.48
10/26/2022 6:30:00 PM 15.05 59.09 0.219 7.54 1.45 10.38
10/26/2022 6:45:00 PM 14.99 58.982 0.219 7.52 1.54 10.38
10/26/2022 7:00:00 PM 14.95 58.91 0.219 7.51 1.54 10.26
10/26/2022 7:15:00 PM 14.88 58.784 0.219 7.47 1.44 10.07
10/26/2022 7:30:00 PM 14.82 58.676 0.219 7.46 1.49 9.88
10/26/2022 7:45:00 PM 14.77 58.586 0.219 7.44 1.88 9.66
10/26/2022 8:00:00 PM 14.72 58.496 0.219 7.42 1.62 9.45
10/26/2022 8:15:00 PM 14.67 58.406 0.219 7.4 1.56 9.4
10/26/2022 8:30:00 PM 14.6 58.28 0.219 7.38 1.67 9.25
10/26/2022 8:45:00 PM 14.55 58.19 0.219 7.36 1.71 9.12
10/26/2022 9:00:00 PM 14.52 58.136 0.219 7.35 3.38 9.05
10/26/2022 9:15:00 PM 14.48 58.064 0.219 7.34 1.84 8.96
10/26/2022 9:30:00 PM 14.43 57.974 0.219 7.33 2.67 8.89
10/26/2022 9:45:00 PM 14.37 57.866 0.219 7.31 2.37 8.83
10/26/2022 10:00:00 PM 14.32 57.776 0.219 7.3 2.59 8.72
10/26/2022 10:15:00 PM 14.28 57.704 0.219 7.29 2.34 8.68
10/26/2022 10:30:00 PM 14.24 57.632 0.219 7.28 1.94 8.61
10/26/2022 10:45:00 PM 14.18 57.524 0.218 7.27 2.05 8.6
10/26/2022 11:00:00 PM 14.13 57.434 0.218 7.26 2.05 8.57
10/26/2022 11:15:00 PM 14.08 57.344 0.218 7.26 2.01 8.56
10/26/2022 11:30:00 PM 14.03 57.254 0.219 7.25 2.05 8.55
10/26/2022 11:45:00 PM 13.99 57.182 0.218 7.24 2.24 8.55
10/27/2022 12:00:00 AM 13.95 57.11 0.219 7.24 2.11 8.52
10/27/2022 12:15:00 AM 13.9 57.02 0.218 7.23 2.02 8.49
10/27/2022 12:30:00 AM 13.86 56.948 0.219 7.23 2.26 8.45
10/27/2022 12:45:00 AM 13.83 56.894 0.218 7.21 2.6 8.39
10/27/2022 1:00:00 AM 13.8 56.84 0.218 7.22 1.91 8.36
10/27/2022 1:15:00 AM 13.77 56.786 0.218 7.21 2.01 8.33
10/27/2022 1:30:00 AM 13.75 56.75 0.219 7.21 3.77 8.3
10/27/2022 1:45:00 AM 13.72 56.696 0.219 7.21 2.58 8.28
10/27/2022 2:00:00 AM 13.69 56.642 0.218 7.21 2.2 8.25
10/27/2022 2:15:00 AM 13.67 56.606 0.218 7.2 2.2 8.21
10/27/2022 2:30:00 AM 13.64 56.552 0.219 7.2 2.3 8.19
10/27/2022 2:45:00 AM 13.61 56.498 0.219 7.19 2.26 8.15
10/27/2022 3:00:00 AM 13.59 56.462 0.218 7.19 2.53 8.11
10/27/2022 3:15:00 AM 13.56 56.408 0.218 7.19 2.2 8.08
10/27/2022 3:30:00 AM 13.54 56.372 0.219 7.19 2.13 8.03
10/27/2022 3:45:00 AM 13.51 56.318 0.218 7.18 2.21 8.01
10/27/2022 4:00:00 AM 13.48 56.264 0.219 7.19 2.56 7.98
10/27/2022 4:15:00 AM 13.45 56.21 0.218 7.19 2.24 7.96
10/27/2022 4:30:00 AM 13.41 56.138 0.218 7.18 2.05 7.96
10/27/2022 4:45:00 AM 13.39 56.102 0.218 7.19 1.89 7.93
10/27/2022 5:00:00 AM 13.35 56.03 0.218 7.18 2.26 7.91
10/27/2022 5:15:00 AM 13.31 55.958 0.218 7.18 2.2 7.89
10/27/2022 5:30:00 AM 13.27 55.886 0.218 7.18 2.24 7.87
10/27/2022 5:45:00 AM 13.22 55.796 0.218 7.17 4.98 7.87
10/27/2022 6:00:00 AM 13.17 55.706 0.218 7.17 2.21 7.86
10/27/2022 6:15:00 AM 13.13 55.634 0.218 7.17 2.36 7.85
10/27/2022 6:30:00 AM 13.09 55.562 0.218 7.16 2.4 7.84
10/27/2022 6:45:00 AM 13.05 55.49 0.218 7.16 2.18 7.84
10/27/2022 7:00:00 AM 13.01 55.418 0.218 7.16 2.76 7.84
10/27/2022 7:15:00 AM 12.98 55.364 0.218 7.16 3.76 7.82
10/27/2022 7:30:00 AM 12.94 55.292 0.219 7.16 2.07 7.81
10/27/2022 7:45:00 AM 12.89 55.202 0.218 7.16 2.35 7.81
10/27/2022 8:00:00 AM 12.85 55.13 0.218 7.16 1.83 7.82
10/27/2022 8:15:00 AM 12.81 55.058 0.218 7.15 1.95 7.83
10/27/2022 8:30:00 AM 12.78 55.004 0.218 7.15 1.84 7.82
10/27/2022 8:45:00 AM 12.76 54.968 0.218 7.15 2.56 7.83
10/27/2022 9:00:00 AM 12.73 54.914 0.218 7.15 2.13 7.84
10/27/2022 9:15:00 AM 12.72 54.896 0.218 7.15 2.19 7.84
10/27/2022 9:30:00 AM 12.68 54.824 0.218 7.15 1.97 7.89
10/27/2022 9:45:00 AM 12.67 54.806 0.218 7.15 2.63 7.91
10/27/2022 10:00:00 AM 12.64 54.752 0.218 7.16 2.03 7.94
10/27/2022 10:15:00 AM 12.6 54.68 0.218 7.16 6.47 8
10/27/2022 10:30:00 AM 12.59 54.662 0.218 7.17 1.9 8.05
10/27/2022 10:45:00 AM 12.59 54.662 0.218 7.17 1.88 8.15
10/27/2022 11:00:00 AM 12.6 54.68 0.218 7.19 1.73 8.31
10/27/2022 11:15:00 AM 12.62 54.716 0.217 7.2 1.95 8.48
10/27/2022 11:30:00 AM 12.66 54.788 0.217 7.22 1.78 8.67
10/27/2022 11:45:00 AM 12.68 54.824 0.218 7.24 1.79 8.89
10/27/2022 12:00:00 PM 12.74 54.932 0.217 7.24 1.95 8.99
10/27/2022 12:15:00 PM 12.79 55.022 0.217 7.27 1.85 9.07
10/27/2022 12:30:00 PM 12.89 55.202 0.217 7.29 1.82 9.31
10/27/2022 12:45:00 PM 12.97 55.346 0.217 7.3 1.84 9.52
10/27/2022 1:00:00 PM 13.05 55.49 0.217 7.33 1.79 9.64
10/27/2022 1:15:00 PM 13.11 55.598 0.217 7.34 1.71 9.84
10/27/2022 1:30:00 PM 13.15 55.67 0.216 7.36 2.07 9.91
10/27/2022 1:45:00 PM 13.23 55.814 0.216 7.39 1.75 10.04
10/27/2022 2:00:00 PM 13.31 55.958 0.217 7.41 1.73 10.25
10/27/2022 2:15:00 PM 13.37 56.066 0.217 7.43 1.64 10.42
10/27/2022 2:30:00 PM 13.45 56.21 0.217 7.44 1.54 10.49
10/27/2022 2:45:00 PM 13.52 56.336 0.217 7.46 1.75 10.61
10/27/2022 3:00:00 PM 13.59 56.462 0.217 7.49 1.52 10.86
10/27/2022 3:15:00 PM 13.63 56.534 0.218 7.5 1.69 10.89
10/27/2022 3:30:00 PM 13.67 56.606 0.217 7.52 1.6 10.89
10/27/2022 3:45:00 PM 13.72 56.696 0.217 7.54 1.48 10.9
10/27/2022 4:00:00 PM 13.76 56.768 0.217 7.55 1.45 10.95
10/27/2022 4:15:00 PM 13.78 56.804 0.217 7.57 1.54 10.97
10/27/2022 4:30:00 PM 13.82 56.876 0.217 7.57 1.91 11
10/27/2022 4:45:00 PM 13.81 56.858 0.218 7.58 1.63 11.01
10/27/2022 5:00:00 PM 13.81 56.858 0.218 7.59 1.73 11.06
10/27/2022 5:15:00 PM 13.77 56.786 0.217 7.59 1.76 11.06
10/27/2022 5:30:00 PM 13.73 56.714 0.217 7.59 1.71 11.04
10/27/2022 5:45:00 PM 13.68 56.624 0.217 7.59 1.7 11.02
10/27/2022 6:00:00 PM 13.62 56.516 0.217 7.58 1.57 10.98
10/27/2022 6:15:00 PM 13.55 56.39 0.217 7.57 1.54 10.95
10/27/2022 6:30:00 PM 13.46 56.228 0.217 7.56 1.52 10.95
10/27/2022 6:45:00 PM 13.36 56.048 0.217 7.55 1.46 10.95
10/27/2022 7:00:00 PM 13.24 55.832 0.217 7.53 1.47 10.78
10/27/2022 7:15:00 PM 13.11 55.598 0.217 7.52 1.51 10.65
10/27/2022 7:30:00 PM 12.99 55.382 0.217 7.5 1.49 10.56
10/27/2022 7:45:00 PM 12.87 55.166 0.217 7.49 2.45 10.5
10/27/2022 8:00:00 PM 12.77 54.986 0.217 7.49 1.48 10.4
10/27/2022 8:15:00 PM 12.63 54.734 0.217 7.47 1.43 10.28
10/27/2022 8:30:00 PM 12.51 54.518 0.217 7.45 1.78 10.18
10/27/2022 8:45:00 PM 12.4 54.32 0.218 7.44 1.44 10.11
10/27/2022 9:00:00 PM 12.28 54.104 0.218 7.42 1.45 9.96
10/27/2022 9:15:00 PM 12.16 53.888 0.218 7.39 1.55 9.88
10/27/2022 9:30:00 PM 12.03 53.654 0.218 7.38 1.78 9.79
10/27/2022 9:45:00 PM 11.95 53.51 0.218 7.36 1.63 9.67
10/27/2022 10:00:00 PM 11.86 53.348 0.218 7.33 1.73 9.56
10/27/2022 10:15:00 PM 11.76 53.168 0.218 7.33 1.91 9.5
10/27/2022 10:30:00 PM 11.67 53.006 0.218 7.32 1.64 9.46
10/27/2022 10:45:00 PM 11.58 52.844 0.218 7.32 1.73 9.44
10/27/2022 11:00:00 PM 11.5 52.7 0.218 7.3 1.64 9.42
10/27/2022 11:15:00 PM 11.4 52.52 0.218 7.29 1.86 9.41
10/27/2022 11:30:00 PM 11.32 52.376 0.218 7.28 1.84 9.37
10/27/2022 11:45:00 PM 11.22 52.196 0.218 7.26 2.05 9.35
10/28/2022 12:00:00 AM 11.13 52.034 0.218 7.27 1.84 9.34
10/28/2022 12:15:00 AM 11.05 51.89 0.218 7.27 1.76 9.33
10/28/2022 12:30:00 AM 10.96 51.728 0.218 7.27 1.7 9.32
10/28/2022 12:45:00 AM 10.87 51.566 0.218 7.26 1.85 9.32
10/28/2022 1:00:00 AM 10.78 51.404 0.218 7.25 1.76 9.33
10/28/2022 1:15:00 AM 10.72 51.296 0.218 7.25 1.86 9.3
10/28/2022 1:30:00 AM 10.62 51.116 0.218 7.25 1.78 9.29
10/28/2022 1:45:00 AM 10.55 50.99 0.217 7.24 1.88 9.28
10/28/2022 2:00:00 AM 10.46 50.828 0.217 7.24 1.66 9.26
10/28/2022 2:15:00 AM 10.38 50.684 0.217 7.24 1.93 9.24
10/28/2022 2:30:00 AM 10.3 50.54 0.217 7.23 1.77 9.24
10/28/2022 2:45:00 AM 10.23 50.414 0.217 7.23 1.82 9.21
10/28/2022 3:00:00 AM 10.14 50.252 0.217 7.23 1.87 9.21
10/28/2022 3:15:00 AM 10.06 50.108 0.217 7.23 1.97 9.19
10/28/2022 3:30:00 AM 9.99 49.982 0.217 7.22 1.91 9.19
10/28/2022 3:45:00 AM 9.92 49.856 0.218 7.22 2.14 9.17
10/28/2022 4:00:00 AM 9.84 49.712 0.217 7.22 1.73 9.17
10/28/2022 4:15:00 AM 9.77 49.586 0.218 7.22 1.75 9.15
10/28/2022 4:30:00 AM 9.68 49.424 0.217 7.22 1.88 9.15
10/28/2022 4:45:00 AM 9.63 49.334 0.217 7.21 1.72 9.13
10/28/2022 5:00:00 AM 9.57 49.226 0.217 7.21 1.95 9.13
10/28/2022 5:15:00 AM 9.47 49.046 0.217 7.22 1.71 9.15
10/28/2022 5:30:00 AM 9.39 48.902 0.217 7.21 1.85 9.14
10/28/2022 5:45:00 AM 9.35 48.83 0.218 7.21 1.79 9.14
10/28/2022 6:00:00 AM 9.27 48.686 0.217 7.2 1.91 9.14
10/28/2022 6:15:00 AM 9.19 48.542 0.217 7.2 1.79 9.13
10/28/2022 6:30:00 AM 9.12 48.416 0.218 7.2 2.06 9.14
10/28/2022 6:45:00 AM 9.06 48.308 0.217 7.2 2.12 9.12
10/28/2022 7:00:00 AM 8.97 48.146 0.218 7.2 1.84 9.12
10/28/2022 7:15:00 AM 8.93 48.074 0.218 7.2 2.1 9.13
10/28/2022 7:30:00 AM 8.84 47.912 0.218 7.19 1.96 9.14
10/28/2022 7:45:00 AM 8.79 47.822 0.218 7.2 1.92 9.14
10/28/2022 8:00:00 AM 8.71 47.678 0.218 7.19 1.69 9.16
10/28/2022 8:15:00 AM 8.65 47.57 0.218 7.2 1.81 9.17
10/28/2022 8:30:00 AM 8.6 47.48 0.218 7.19 1.76 9.17
10/28/2022 8:45:00 AM 8.56 47.408 0.217 7.19 1.75 9.19
10/28/2022 9:00:00 AM 8.5 47.3 0.217 7.19 1.94 9.22
10/28/2022 9:15:00 AM 8.45 47.21 0.217 7.2 1.69 9.24
10/28/2022 9:30:00 AM 8.43 47.174 0.217 7.19 1.6 9.26
10/28/2022 9:45:00 AM 8.41 47.138 0.217 7.21 1.51 9.31
10/28/2022 10:00:00 AM 8.38 47.084 0.217 7.2 2.11 9.3
10/28/2022 10:15:00 AM 8.41 47.138 0.217 7.22 1.64 9.42
10/28/2022 10:30:00 AM 8.4 47.12 0.217 7.22 1.83 9.49
10/28/2022 10:45:00 AM 8.41 47.138 0.217 7.22 1.33 9.55
10/28/2022 11:00:00 AM 8.45 47.21 0.217 7.24 1.35 9.63
10/28/2022 11:15:00 AM 8.5 47.3 0.217 7.25 1.62 9.77
10/28/2022 11:30:00 AM 8.55 47.39 0.217 7.25 1.57 9.87
10/28/2022 11:45:00 AM 8.63 47.534 0.217 7.28 1.54 10.02
10/28/2022 12:00:00 PM 8.67 47.606 0.216 7.3 1.38 10.3
10/28/2022 12:15:00 PM 8.74 47.732 0.216 7.31 1.49 10.46
10/28/2022 12:30:00 PM 8.82 47.876 0.217 7.33 1.52 10.56
10/28/2022 12:45:00 PM 8.9 48.02 0.217 7.34 1.5 10.66
10/28/2022 1:00:00 PM 8.97 48.146 0.217 7.35 3.13 10.72
10/28/2022 1:15:00 PM 9.09 48.362 0.216 7.38 1.56 10.88
10/28/2022 1:30:00 PM 9.21 48.578 0.217 7.39 1.48 11.01
10/28/2022 1:45:00 PM 9.33 48.794 0.217 7.41 1.47 11.2
10/28/2022 2:00:00 PM 9.43 48.974 0.217 7.42 2.03 11.26
10/28/2022 2:15:00 PM 9.52 49.136 0.216 7.44 1.47 11.42
10/28/2022 2:30:00 PM 9.64 49.352 0.216 7.43 2.16 11.42
10/28/2022 2:45:00 PM 9.8 49.64 0.216 7.45 1.61 11.45
10/28/2022 3:00:00 PM 9.95 49.91 0.216 7.48 1.44 11.69
10/28/2022 3:15:00 PM 10.11 50.198 0.217 7.5 1.42 11.77
10/28/2022 3:30:00 PM 10.2 50.36 0.217 7.51 1.96 11.82
10/28/2022 3:45:00 PM 10.28 50.504 0.217 7.53 1.39 11.89
10/28/2022 4:00:00 PM 10.38 50.684 0.217 7.53 1.34 11.99
10/28/2022 4:15:00 PM 10.49 50.882 0.217 7.55 1.3 12.08
10/28/2022 4:30:00 PM 10.58 51.044 0.217 7.56 1.35 12.13
10/28/2022 4:45:00 PM 10.63 51.134 0.22 7.57 2.28 12.11
10/28/2022 5:00:00 PM 10.7 51.26 0.217 7.58 1.36 12.18
10/28/2022 5:15:00 PM 10.71 51.278 0.217 7.59 1.33 12.17
10/28/2022 5:30:00 PM 10.73 51.314 0.217 7.59 1.23 12.19
10/28/2022 5:45:00 PM 10.72 51.296 0.217 7.58 1.4 12.16
10/28/2022 6:00:00 PM 10.56 51.008 0.217 7.55 1.62 11.9
10/28/2022 6:15:00 PM 10.58 51.044 0.217 7.55 1.61 11.9
10/28/2022 6:30:00 PM 10.61 51.098 0.218 7.57 1.4 12.05
10/28/2022 6:45:00 PM 10.56 51.008 0.218 7.57 1.42 12.07
10/28/2022 7:00:00 PM 10.47 50.846 0.217 7.56 1.28 12.03
10/28/2022 7:15:00 PM 10.39 50.702 0.217 7.56 1.22 11.96
10/28/2022 7:30:00 PM 10.32 50.576 0.218 7.56 1.3 11.87
10/28/2022 7:45:00 PM 10.24 50.432 0.218 7.55 1.23 11.76
10/28/2022 8:00:00 PM 10.17 50.306 0.218 7.52 1.16 11.63
10/28/2022 8:15:00 PM 10.09 50.162 0.217 7.51 1.16 11.47
10/28/2022 8:30:00 PM 10.01 50.018 0.218 7.5 1.27 11.36
10/28/2022 8:45:00 PM 9.94 49.892 0.217 7.47 1.29 11.23
10/28/2022 9:00:00 PM 9.86 49.748 0.218 7.46 1.26 11.13
10/28/2022 9:15:00 PM 9.79 49.622 0.218 7.44 1.27 11.01
10/28/2022 9:30:00 PM 9.73 49.514 0.218 7.42 1.37 10.91
10/28/2022 9:45:00 PM 9.68 49.424 0.218 7.41 3.61 10.81
10/28/2022 10:00:00 PM 9.62 49.316 0.218 7.4 1.22 10.74
10/28/2022 10:15:00 PM 9.56 49.208 0.218 7.39 1.35 10.68
10/28/2022 10:30:00 PM 9.51 49.118 0.217 7.38 1.45 10.61
10/28/2022 10:45:00 PM 9.47 49.046 0.217 7.37 1.37 10.55
10/28/2022 11:00:00 PM 9.42 48.956 0.217 7.35 1.57 10.5
10/28/2022 11:15:00 PM 9.36 48.848 0.217 7.34 1.44 10.47
10/28/2022 11:30:00 PM 9.29 48.722 0.217 7.34 1.41 10.44
10/28/2022 11:45:00 PM 9.24 48.632 0.218 7.32 1.34 10.42
10/29/2022 12:00:00 AM 9.17 48.506 0.217 7.32 1.67 10.4
10/29/2022 12:15:00 AM 9.12 48.416 0.217 7.31 1.41 10.38
10/29/2022 12:30:00 AM 9.06 48.308 0.217 7.31 1.57 10.35
10/29/2022 12:45:00 AM 8.98 48.164 0.217 7.29 1.55 10.35
10/29/2022 1:00:00 AM 8.92 48.056 0.218 7.3 1.71 10.33
10/29/2022 1:15:00 AM 8.86 47.948 0.217 7.29 1.62 10.3
10/29/2022 1:30:00 AM 8.78 47.804 0.217 7.28 1.57 10.29
10/29/2022 1:45:00 AM 8.7 47.66 0.217 7.27 1.59 10.28
10/29/2022 2:00:00 AM 8.64 47.552 0.217 7.27 1.55 10.26
10/29/2022 2:15:00 AM 8.59 47.462 0.218 7.27 1.43 10.24
10/29/2022 2:30:00 AM 8.51 47.318 0.218 7.27 1.47 10.22
10/29/2022 2:45:00 AM 8.45 47.21 0.217 7.26 1.63 10.19
10/29/2022 3:00:00 AM 8.37 47.066 0.217 7.26 1.46 10.17
10/29/2022 3:15:00 AM 8.3 46.94 0.217 7.25 1.51 10.15
10/29/2022 3:30:00 AM 8.25 46.85 0.217 7.25 1.59 10.12
10/29/2022 3:45:00 AM 8.17 46.706 0.217 7.24 1.7 10.1
10/29/2022 4:00:00 AM 8.11 46.598 0.217 7.24 1.54 10.07
10/29/2022 4:15:00 AM 8.03 46.454 0.217 7.23 1.52 10.07
10/29/2022 4:30:00 AM 7.98 46.364 0.217 7.24 1.53 10.05
10/29/2022 4:45:00 AM 7.92 46.256 0.217 7.23 1.51 10.04
10/29/2022 5:00:00 AM 7.84 46.112 0.218 7.24 1.66 10.04
10/29/2022 5:15:00 AM 7.78 46.004 0.217 7.23 1.62 10.02
10/29/2022 5:30:00 AM 7.72 45.896 0.217 7.23 1.75 10.02
10/29/2022 5:45:00 AM 7.64 45.752 0.217 7.24 1.82 10.02
10/29/2022 6:00:00 AM 7.58 45.644 0.217 7.22 1.64 10
10/29/2022 6:15:00 AM 7.53 45.554 0.217 7.23 1.76 9.98
10/29/2022 6:30:00 AM 7.48 45.464 0.217 7.22 1.58 9.97
10/29/2022 6:45:00 AM 7.4 45.32 0.217 7.22 1.55 9.96
10/29/2022 7:00:00 AM 7.32 45.176 0.217 7.22 1.53 9.96
10/29/2022 7:15:00 AM 7.27 45.086 0.217 7.22 1.56 9.95
10/29/2022 7:30:00 AM 7.22 44.996 0.217 7.22 1.58 9.95
10/29/2022 7:45:00 AM 7.14 44.852 0.218 7.21 1.77 9.93
10/29/2022 8:00:00 AM 7.09 44.762 0.217 7.21 1.42 9.92
10/29/2022 8:15:00 AM 7.03 44.654 0.218 7.21 1.43 9.95
10/29/2022 8:30:00 AM 6.97 44.546 0.218 7.21 1.41 9.96
10/29/2022 8:45:00 AM 6.94 44.492 0.217 7.21 1.44 9.96
10/29/2022 9:00:00 AM 6.88 44.384 0.217 7.22 1.37 9.91
10/29/2022 9:15:00 AM 6.84 44.312 0.217 7.21 1.32 9.97
10/29/2022 9:30:00 AM 6.8 44.24 0.217 7.21 1.24 10.01
10/29/2022 9:45:00 AM 6.8 44.24 0.217 7.21 2.49 10.03
10/29/2022 10:00:00 AM 6.81 44.258 0.217 7.21 1.24 9.95
10/29/2022 10:15:00 AM 6.85 44.33 0.217 7.22 1.36 9.48
10/29/2022 10:30:00 AM 6.91 44.438 0.217 7.22 1.22 10.12
10/29/2022 10:45:00 AM 6.94 44.492 0.217 7.23 1.22 10.16
10/29/2022 11:00:00 AM 7.01 44.618 0.216 7.24 1.23 10.19
10/29/2022 11:15:00 AM 7.08 44.744 0.217 7.25 1.26 10.18
10/29/2022 11:30:00 AM 7.11 44.798 0.216 7.26 1.2 10.48
10/29/2022 11:45:00 AM 7.16 44.888 0.216 7.28 1.22 10.6
10/29/2022 12:00:00 PM 7.22 44.996 0.216 7.29 1.19 10.72
10/29/2022 12:15:00 PM 7.36 45.248 0.216 7.3 1.26 10.78
10/29/2022 12:30:00 PM 7.47 45.446 0.216 7.32 1.24 10.94
10/29/2022 12:45:00 PM 7.56 45.608 0.216 7.32 1.24 10.76
10/29/2022 1:00:00 PM 7.66 45.788 0.216 7.34 1.17 10.93
10/29/2022 1:15:00 PM 7.81 46.058 0.216 7.35 1.34 11.03
10/29/2022 1:30:00 PM 7.92 46.256 0.216 7.36 1.22 11.07
10/29/2022 1:45:00 PM 8.09 46.562 0.215 7.37 1.21 11.21
10/29/2022 2:00:00 PM 8.22 46.796 0.215 7.38 1.28 11.32
10/29/2022 2:15:00 PM 8.36 47.048 0.215 7.38 1.45 11.4
10/29/2022 2:30:00 PM 8.51 47.318 0.215 7.38 1.4 11.13
10/29/2022 2:45:00 PM 8.88 47.984 0.215 7.41 1.28 10.86
10/29/2022 3:00:00 PM 8.97 48.146 0.215 7.43 1.25 11.73
10/29/2022 3:15:00 PM 9.13 48.434 0.216 7.43 1.19 11.52
10/29/2022 3:30:00 PM 9.33 48.794 0.215 7.45 1.31 11.44
10/29/2022 3:45:00 PM 9.36 48.848 0.215 7.45 1.22 11.91
10/29/2022 4:00:00 PM 9.51 49.118 0.215 7.48 1.4 11.94
10/29/2022 4:15:00 PM 9.63 49.334 0.216 7.49 1.96 12.13
10/29/2022 4:30:00 PM 9.74 49.532 0.215 7.5 1.07 12.22
10/29/2022 4:45:00 PM 9.79 49.622 0.216 7.52 1.08 12.24
10/29/2022 5:00:00 PM 9.82 49.676 0.215 7.52 1.02 12.26
10/29/2022 5:15:00 PM 9.84 49.712 0.216 7.53 1.09 12.27
10/29/2022 5:30:00 PM 9.87 49.766 0.216 7.54 1.11 12.29
10/29/2022 5:45:00 PM 9.86 49.748 0.216 7.55 1.18 12.28
10/29/2022 6:00:00 PM 9.83 49.694 0.216 7.55 1.32 12.28
10/29/2022 6:15:00 PM 9.78 49.604 0.216 7.53 1.29 12.23
10/29/2022 6:30:00 PM 9.56 49.208 0.215 7.51 1.48 11.97
10/29/2022 6:45:00 PM 9.62 49.316 0.216 7.53 1.16 12.06
10/29/2022 7:00:00 PM 9.56 49.208 0.216 7.53 1.25 12.07
10/29/2022 7:15:00 PM 9.46 49.028 0.216 7.52 1.08 11.98
10/29/2022 7:30:00 PM 9.37 48.866 0.216 7.51 1.06 11.88
10/29/2022 7:45:00 PM 9.27 48.686 0.216 7.5 1.5 11.81
10/29/2022 8:00:00 PM 9.19 48.542 0.217 7.49 1.09 11.72
10/29/2022 8:15:00 PM 9.07 48.326 0.217 7.48 1.04 11.61
10/29/2022 8:30:00 PM 8.95 48.11 0.216 7.47 1.06 11.51
10/29/2022 8:45:00 PM 8.88 47.984 0.217 7.44 1.16 11.43
10/29/2022 9:00:00 PM 8.77 47.786 0.217 7.44 1.11 11.31
10/29/2022 9:15:00 PM 8.68 47.624 0.216 7.42 1.07 11.2
10/29/2022 9:30:00 PM 8.6 47.48 0.216 7.41 1.07 11.11
10/29/2022 9:45:00 PM 8.52 47.336 0.217 7.4 1.16 11.03
10/29/2022 10:00:00 PM 8.45 47.21 0.217 7.39 1.46 10.98
10/29/2022 10:15:00 PM 8.38 47.084 0.217 7.36 1.19 10.92
10/29/2022 10:30:00 PM 8.34 47.012 0.217 7.37 1.11 10.87
10/29/2022 10:45:00 PM 8.26 46.868 0.217 7.36 1.36 10.82
10/29/2022 11:00:00 PM 8.2 46.76 0.217 7.34 1.16 10.78
10/29/2022 11:15:00 PM 8.15 46.67 0.217 7.34 1.15 10.76
10/29/2022 11:30:00 PM 8.08 46.544 0.217 7.32 1.15 10.74
10/29/2022 11:45:00 PM 8.02 46.436 0.217 7.31 1.21 10.72
10/30/2022 12:00:00 AM 7.98 46.364 0.217 7.3 1.15 10.68
10/30/2022 12:15:00 AM 7.91 46.238 0.218 7.31 1.25 10.67
10/30/2022 12:30:00 AM 7.85 46.13 0.218 7.3 1.27 10.65
10/30/2022 12:45:00 AM 7.78 46.004 0.218 7.29 1.27 10.64
10/30/2022 1:00:00 AM 7.72 45.896 0.218 7.29 1.41 10.62
10/30/2022 1:15:00 AM 7.65 45.77 0.217 7.29 1.26 10.63
10/30/2022 1:30:00 AM 7.61 45.698 0.218 7.28 1.3 10.59
10/30/2022 1:45:00 AM 7.51 45.518 0.218 7.28 1.81 10.58
10/30/2022 2:00:00 AM 7.46 45.428 0.218 7.27 1.57 10.59
10/30/2022 2:15:00 AM 7.41 45.338 0.218 7.27 1.61 10.56
10/30/2022 2:30:00 AM 7.34 45.212 0.218 7.27 1.41 10.52
10/30/2022 2:45:00 AM 7.29 45.122 0.218 7.27 1.34 10.51
10/30/2022 3:00:00 AM 7.21 44.978 0.218 7.25 1.44 10.5
10/30/2022 3:15:00 AM 7.16 44.888 0.219 7.26 1.48 10.49
10/30/2022 3:30:00 AM 7.08 44.744 0.219 7.26 1.68 10.49
10/30/2022 3:45:00 AM 7.02 44.636 0.218 7.25 1.49 10.47
10/30/2022 4:00:00 AM 6.97 44.546 0.218 7.26 1.5 10.46
10/30/2022 4:15:00 AM 6.89 44.402 0.218 7.25 1.75 10.46
10/30/2022 4:30:00 AM 6.84 44.312 0.218 7.26 1.68 10.46
10/30/2022 4:45:00 AM 6.79 44.222 0.219 7.25 1.57 10.44
10/30/2022 5:00:00 AM 6.71 44.078 0.219 7.25 1.55 10.43
10/30/2022 5:15:00 AM 6.66 43.988 0.219 7.25 1.79 10.43
10/30/2022 5:30:00 AM 6.59 43.862 0.219 7.25 1.77 10.4
10/30/2022 5:45:00 AM 6.54 43.772 0.219 7.24 1.92 10.38
10/30/2022 6:00:00 AM 6.47 43.646 0.219 7.24 1.84 10.37
10/30/2022 6:15:00 AM 6.41 43.538 0.218 7.24 1.55 10.37
10/30/2022 6:30:00 AM 6.35 43.43 0.219 7.24 1.47 10.36
10/30/2022 6:45:00 AM 6.31 43.358 0.219 7.22 1.52 10.35
10/30/2022 7:00:00 AM 6.21 43.178 0.219 7.24 1.48 10.37
10/30/2022 7:15:00 AM 6.17 43.106 0.219 7.23 1.63 10.36
10/30/2022 7:30:00 AM 6.09 42.962 0.219 7.24 1.54 10.36
10/30/2022 7:45:00 AM 6.04 42.872 0.219 7.23 1.52 10.36
10/30/2022 8:00:00 AM 5.98 42.764 0.219 7.23 1.34 10.36
10/30/2022 8:15:00 AM 5.92 42.656 0.219 7.23 1.36 10.37
10/30/2022 8:30:00 AM 5.86 42.548 0.219 7.23 1.46 10.38
10/30/2022 8:45:00 AM 5.83 42.494 0.219 7.23 1.37 10.38
10/30/2022 9:00:00 AM 5.79 42.422 0.219 7.23 1.39 10.39
10/30/2022 9:15:00 AM 5.75 42.35 0.219 7.23 1.22 10.39
10/30/2022 9:30:00 AM 5.7 42.26 0.219 7.23 1.18 10.42
10/30/2022 9:45:00 AM 5.68 42.224 0.219 7.23 1.28 10.44
10/30/2022 10:00:00 AM 5.69 42.242 0.219 7.23 1.18 10.46
10/30/2022 10:15:00 AM 5.7 42.26 0.219 7.24 1.26 10.51
10/30/2022 10:30:00 AM 5.74 42.332 0.219 7.24 1.19 10.54
10/30/2022 10:45:00 AM 5.78 42.404 0.219 7.25 1.31 10.59
10/30/2022 11:00:00 AM 5.84 42.512 0.219 7.26 1.19 10.64
10/30/2022 11:15:00 AM 5.91 42.638 0.219 7.26 1.32 10.66
10/30/2022 11:30:00 AM 6.01 42.818 0.218 7.28 1.31 10.83
10/30/2022 11:45:00 AM 6.09 42.962 0.218 7.3 1.27 10.98
10/30/2022 12:00:00 PM 6.14 43.052 0.218 7.3 1.24 11.12
10/30/2022 12:15:00 PM 6.18 43.124 0.218 7.32 1.17 11.21
10/30/2022 12:30:00 PM 6.32 43.376 0.218 7.33 1.16 11.3
10/30/2022 12:45:00 PM 6.42 43.556 0.218 7.34 1.16 11.42
10/30/2022 1:00:00 PM 6.51 43.718 0.218 7.35 1.52 11.44
10/30/2022 1:15:00 PM 6.63 43.934 0.218 7.36 1.23 11.48
10/30/2022 1:30:00 PM 6.76 44.168 0.218 7.37 1.24 11.54
10/30/2022 1:45:00 PM 6.93 44.474 0.218 7.38 1.19 11.67
10/30/2022 2:00:00 PM 7.05 44.69 0.217 7.39 1.2 11.74
10/30/2022 2:15:00 PM 7.17 44.906 0.218 7.39 1.24 11.78
10/30/2022 2:30:00 PM 7.37 45.266 0.218 7.41 1.2 11.86
10/30/2022 2:45:00 PM 7.62 45.716 0.218 7.42 1.13 11.97
10/30/2022 3:00:00 PM 7.96 46.328 0.217 7.44 1.19 12.07
10/30/2022 3:15:00 PM 8.2 46.76 0.217 7.45 1.12 12.16
10/30/2022 3:30:00 PM 8.41 47.138 0.217 7.47 1.26 12.31
10/30/2022 3:45:00 PM 8.52 47.336 0.218 7.49 1.17 12.35
10/30/2022 4:00:00 PM 8.63 47.534 0.217 7.49 1.08 12.4
10/30/2022 4:15:00 PM 8.74 47.732 0.217 7.5 1.08 12.47
10/30/2022 4:30:00 PM 8.85 47.93 0.217 7.52 1.05 12.51
10/30/2022 4:45:00 PM 8.88 47.984 0.218 7.53 1.05 12.53
10/30/2022 5:00:00 PM 8.92 48.056 0.217 7.51 1.06 12.53
10/30/2022 5:15:00 PM 8.97 48.146 0.217 7.54 1.08 12.53
10/30/2022 5:30:00 PM 8.98 48.164 0.217 7.54 1.11 12.54
10/30/2022 5:45:00 PM 8.99 48.182 0.217 7.54 1.09 12.54
10/30/2022 6:00:00 PM 8.97 48.146 0.217 7.55 1.15 12.52
10/30/2022 6:15:00 PM 8.72 47.696 0.217 7.52 1.15 12.31
10/30/2022 6:30:00 PM 8.7 47.66 0.217 7.5 1.18 12.26
10/30/2022 6:45:00 PM 8.77 47.786 0.218 7.53 2.32 12.37
10/30/2022 7:00:00 PM 8.7 47.66 0.218 7.54 1.17 12.42
10/30/2022 7:15:00 PM 8.61 47.498 0.217 7.53 1.07 12.35
10/30/2022 7:30:00 PM 8.52 47.336 0.217 7.54 1.2 12.29
10/30/2022 7:45:00 PM 8.42 47.156 0.218 7.53 1.11 12.23
10/30/2022 8:00:00 PM 8.3 46.94 0.217 7.51 1.28 12.13
10/30/2022 8:15:00 PM 8.23 46.814 0.218 7.5 1.22 12.03
10/30/2022 8:30:00 PM 8.12 46.616 0.217 7.49 1.13 11.91
10/30/2022 8:45:00 PM 8.02 46.436 0.218 7.47 1.18 11.78
10/30/2022 9:00:00 PM 7.95 46.31 0.218 7.44 1.2 11.65
10/30/2022 9:15:00 PM 7.84 46.112 0.218 7.43 1.18 11.52
10/30/2022 9:30:00 PM 7.77 45.986 0.218 7.42 1.19 11.42
10/30/2022 9:45:00 PM 7.69 45.842 0.218 7.4 1.32 11.35
10/30/2022 10:00:00 PM 7.65 45.77 0.218 7.39 1.2 11.29
10/30/2022 10:15:00 PM 7.62 45.716 0.218 7.39 1.23 11.23
10/30/2022 10:30:00 PM 7.58 45.644 0.218 7.37 1.21 11.18
10/30/2022 10:45:00 PM 7.54 45.572 0.218 7.37 1.24 11.16
10/30/2022 11:00:00 PM 7.52 45.536 0.218 7.37 1.2 11.14
10/30/2022 11:15:00 PM 7.48 45.464 0.218 7.36 1.35 11.13
10/30/2022 11:30:00 PM 7.45 45.41 0.218 7.36 1.35 11.12
10/30/2022 11:45:00 PM 7.44 45.392 0.218 7.36 1.55 11.11
10/31/2022 12:00:00 AM 7.42 45.356 0.218 7.35 1.5 11.11
10/31/2022 12:15:00 AM 7.39 45.302 0.218 7.36 1.31 11.1
10/31/2022 12:30:00 AM 7.36 45.248 0.218 7.35 1.42 11.08
10/31/2022 12:45:00 AM 7.32 45.176 0.218 7.34 1.51 11.07
10/31/2022 1:00:00 AM 7.28 45.104 0.218 7.35 1.48 11.05
10/31/2022 1:15:00 AM 7.25 45.05 0.218 7.34 1.63 11.02
10/31/2022 1:30:00 AM 7.22 44.996 0.218 7.34 1.58 10.99
10/31/2022 1:45:00 AM 7.19 44.942 0.219 7.33 1.57 10.96
10/31/2022 2:00:00 AM 7.17 44.906 0.219 7.33 1.8 10.92
10/31/2022 2:15:00 AM 7.12 44.816 0.219 7.33 1.77 10.91
10/31/2022 2:30:00 AM 7.09 44.762 0.219 7.32 2.03 10.88
10/31/2022 2:45:00 AM 7.05 44.69 0.219 7.32 1.49 10.84
10/31/2022 3:00:00 AM 7.01 44.618 0.219 7.31 1.71 10.8
10/31/2022 3:15:00 AM 6.97 44.546 0.219 7.31 1.72 10.76
10/31/2022 3:30:00 AM 6.92 44.456 0.219 7.3 2.06 10.73
10/31/2022 3:45:00 AM 6.89 44.402 0.219 7.3 1.71 10.71
10/31/2022 4:00:00 AM 6.84 44.312 0.219 7.3 1.78 10.68
10/31/2022 4:15:00 AM 6.8 44.24 0.219 7.29 2.1 10.66
10/31/2022 4:30:00 AM 6.76 44.168 0.219 7.29 1.89 10.64
10/31/2022 4:45:00 AM 6.7 44.06 0.219 7.29 1.78 10.63
10/31/2022 5:00:00 AM 6.67 44.006 0.219 7.28 1.53 10.62
10/31/2022 5:15:00 AM 6.61 43.898 0.219 7.28 1.92 10.61
10/31/2022 5:30:00 AM 6.59 43.862 0.219 7.28 1.77 10.59
10/31/2022 5:45:00 AM 6.54 43.772 0.219 7.27 1.94 10.56
10/31/2022 6:00:00 AM 6.48 43.664 0.219 7.28 2.67 10.56
10/31/2022 6:15:00 AM 6.42 43.556 0.218 7.26 2.05 10.55
10/31/2022 6:30:00 AM 6.37 43.466 0.218 7.27 2.1 10.53
10/31/2022 6:45:00 AM 6.35 43.43 0.218 7.26 2.46 10.52
10/31/2022 7:00:00 AM 6.31 43.358 0.218 7.26 1.84 10.49
10/31/2022 7:15:00 AM 6.25 43.25 0.217 7.26 1.71 10.49
10/31/2022 7:30:00 AM 6.22 43.196 0.217 7.25 1.73 10.48
10/31/2022 7:45:00 AM 6.18 43.124 0.217 7.25 1.61 10.48
10/31/2022 8:00:00 AM 6.14 43.052 0.216 7.25 1.56 10.48
10/31/2022 8:15:00 AM 6.11 42.998 0.216 7.25 1.76 10.46
10/31/2022 8:30:00 AM 6.08 42.944 0.216 7.25 1.45 10.46
10/31/2022 8:45:00 AM 6.07 42.926 0.216 7.25 1.58 10.46
10/31/2022 9:00:00 AM 6.05 42.89 0.215 7.25 1.57 10.47
10/31/2022 9:15:00 AM 6.05 42.89 0.216 7.24 1.44 10.46
10/31/2022 9:30:00 AM 6.05 42.89 0.215 7.24 1.56 10.47
10/31/2022 9:45:00 AM 6.05 42.89 0.215 7.25 1.93 10.49
10/31/2022 10:00:00 AM 6.08 42.944 0.215 7.25 4.05 10.47
10/31/2022 10:15:00 AM 6.11 42.998 0.215 7.26 1.48 10.49
10/31/2022 10:30:00 AM 6.17 43.106 0.215 7.26 3.12 10.51
10/31/2022 10:45:00 AM 6.21 43.178 0.215 7.26 1.5 10.57
10/31/2022 11:00:00 AM 6.26 43.268 0.215 7.27 1.53 10.66
10/31/2022 11:15:00 AM 6.32 43.376 0.215 7.28 1.76 10.73
10/31/2022 11:30:00 AM 6.37 43.466 0.215 7.29 1.41 10.81
10/31/2022 11:45:00 AM 6.43 43.574 0.215 7.31 1.45 10.96
10/31/2022 12:00:00 PM 6.47 43.646 0.215 7.31 1.53 11.12
10/31/2022 12:15:00 PM 6.52 43.736 0.215 7.33 1.56 11.24
10/31/2022 12:30:00 PM 6.62 43.916 0.215 7.34 2.47 11.31
10/31/2022 12:45:00 PM 6.67 44.006 0.215 7.34 1.47 11.31
10/31/2022 1:00:00 PM 6.78 44.204 0.215 7.36 1.6 11.37
10/31/2022 1:15:00 PM 6.92 44.456 0.215 7.37 1.48 11.46
10/31/2022 1:30:00 PM 7.01 44.618 0.215 7.38 1.8 11.54
10/31/2022 1:45:00 PM 7.17 44.906 0.215 7.39 2.04 11.64
10/31/2022 2:00:00 PM 7.27 45.086 0.215 7.39 1.58 11.73
10/31/2022 2:15:00 PM 7.31 45.158 0.215 7.41 1.85 11.83
10/31/2022 2:30:00 PM 7.4 45.32 0.215 7.42 2.61 11.86
10/31/2022 2:45:00 PM 7.5 45.5 0.215 7.43 1.6 12.02
10/31/2022 3:00:00 PM 7.6 45.68 0.215 7.43 1.46 12.05
10/31/2022 3:15:00 PM 7.75 45.95 0.215 7.45 1.34 12.08
10/31/2022 3:30:00 PM 7.86 46.148 0.215 7.46 1.34 12.13
10/31/2022 3:45:00 PM 8.03 46.454 0.215 7.47 1.26 12.21
10/31/2022 4:00:00 PM 8.11 46.598 0.215 7.47 1.3 12.24
10/31/2022 4:15:00 PM 8.18 46.724 0.215 7.5 1.36 12.29
10/31/2022 4:30:00 PM 8.2 46.76 0.216 7.5 1.36 12.35
10/31/2022 4:45:00 PM 8.26 46.868 0.215 7.5 1.63 12.37
10/31/2022 5:00:00 PM 8.37 47.066 0.215 7.52 1.26 12.39
10/31/2022 5:15:00 PM 8.37 47.066 0.215 7.52 1.29 12.4
10/31/2022 5:30:00 PM 8.39 47.102 0.215 7.53 1.32 12.4
10/31/2022 5:45:00 PM 8.41 47.138 0.215 7.53 1.3 12.39
10/31/2022 6:00:00 PM 8.42 47.156 0.215 7.53 1.28 12.36
10/31/2022 6:15:00 PM 8.41 47.138 0.215 7.53 1.35 12.33
10/31/2022 6:30:00 PM 8.42 47.156 0.215 7.53 1.4 12.32
10/31/2022 6:45:00 PM 8.41 47.138 0.215 7.53 1.13 12.27
10/31/2022 7:00:00 PM 8.41 47.138 0.215 7.52 1.28 12.2
10/31/2022 7:15:00 PM 8.41 47.138 0.215 7.52 1.34 12.13
10/31/2022 7:30:00 PM 8.4 47.12 0.215 7.5 1.31 12.07
10/31/2022 7:45:00 PM 8.4 47.12 0.216 7.5 1.25 11.99
10/31/2022 8:00:00 PM 8.38 47.084 0.215 7.5 1.28 11.92
10/31/2022 8:15:00 PM 8.36 47.048 0.215 7.49 1.18 11.8
10/31/2022 8:30:00 PM 8.36 47.048 0.216 7.47 1.18 11.74
10/31/2022 8:45:00 PM 8.35 47.03 0.215 7.47 1.45 11.69
10/31/2022 9:00:00 PM 8.36 47.048 0.216 7.46 1.39 11.61
10/31/2022 9:15:00 PM 8.35 47.03 0.216 7.45 1.38 11.5
10/31/2022 9:30:00 PM 8.35 47.03 0.216 7.43 1.75 11.37
10/31/2022 9:45:00 PM 8.35 47.03 0.216 7.42 1.79 11.27
10/31/2022 10:00:00 PM 8.34 47.012 0.216 7.41 5.81 11.18
10/31/2022 10:15:00 PM 8.34 47.012 0.216 7.41 1.52 11.15
10/31/2022 10:30:00 PM 8.35 47.03 0.216 7.39 1.44 11.13
10/31/2022 10:45:00 PM 8.36 47.048 0.216 7.39 4.11 11.05
10/31/2022 11:00:00 PM 8.37 47.066 0.217 7.39 1.57 11.01
10/31/2022 11:15:00 PM 8.37 47.066 0.217 7.37 1.43 10.98
10/31/2022 11:30:00 PM 8.39 47.102 0.217 7.38 1.64 10.95
10/31/2022 11:45:00 PM 8.4 47.12 0.217 7.37 1.35 10.89
11/1/2022 12:00:00 AM 8.41 47.138 0.217 7.35 1.63 10.85
11/1/2022 12:15:00 AM 8.42 47.156 0.217 7.36 1.36 10.82
11/1/2022 12:30:00 AM 8.43 47.174 0.217 7.35 1.61 10.78
11/1/2022 12:45:00 AM 8.45 47.21 0.218 7.35 1.38 10.75
11/1/2022 1:00:00 AM 8.46 47.228 0.218 7.34 1.53 10.72
11/1/2022 1:15:00 AM 8.47 47.246 0.218 7.34 1.55 10.68
11/1/2022 1:30:00 AM 8.48 47.264 0.218 7.34 1.69 10.67
11/1/2022 1:45:00 AM 8.49 47.282 0.218 7.33 1.85 10.62
11/1/2022 2:00:00 AM 8.5 47.3 0.218 7.33 2.08 10.58
11/1/2022 2:15:00 AM 8.51 47.318 0.218 7.32 1.81 10.54
11/1/2022 2:30:00 AM 8.53 47.354 0.218 7.31 1.73 10.52
11/1/2022 2:45:00 AM 8.54 47.372 0.218 7.32 1.83 10.48
11/1/2022 3:00:00 AM 8.54 47.372 0.219 7.31 1.63 10.45
11/1/2022 3:15:00 AM 8.55 47.39 0.219 7.3 1.55 10.41
11/1/2022 3:30:00 AM 8.56 47.408 0.219 7.31 1.69 10.38
11/1/2022 3:45:00 AM 8.57 47.426 0.219 7.3 2.98 10.35
11/1/2022 4:00:00 AM 8.58 47.444 0.219 7.3 1.71 10.3
11/1/2022 4:15:00 AM 8.59 47.462 0.219 7.29 1.95 10.28
11/1/2022 4:30:00 AM 8.6 47.48 0.219 7.29 1.84 10.23
11/1/2022 4:45:00 AM 8.61 47.498 0.219 7.28 1.92 10.19
11/1/2022 5:00:00 AM 8.61 47.498 0.219 7.28 1.78 10.17
11/1/2022 5:15:00 AM 8.62 47.516 0.22 7.28 1.86 10.14
11/1/2022 5:30:00 AM 8.62 47.516 0.22 7.28 2.13 10.1
11/1/2022 5:45:00 AM 8.63 47.534 0.22 7.27 1.8 10.06
11/1/2022 6:00:00 AM 8.64 47.552 0.22 7.26 1.86 10.03
11/1/2022 6:15:00 AM 8.65 47.57 0.22 7.27 1.91 10.01
11/1/2022 6:30:00 AM 8.65 47.57 0.22 7.26 2.03 9.97
11/1/2022 6:45:00 AM 8.66 47.588 0.22 7.26 1.65 9.94
11/1/2022 7:00:00 AM 8.66 47.588 0.22 7.25 2.02 9.9
11/1/2022 7:15:00 AM 8.67 47.606 0.221 7.24 1.97 9.88
11/1/2022 7:30:00 AM 8.68 47.624 0.221 7.25 1.87 9.85
11/1/2022 7:45:00 AM 8.69 47.642 0.221 7.24 2.03 9.83
11/1/2022 8:00:00 AM 8.69 47.642 0.22 7.24 1.92 9.8
11/1/2022 8:15:00 AM 8.71 47.678 0.221 7.24 2.05 9.78
11/1/2022 8:30:00 AM 8.72 47.696 0.221 7.23 1.94 9.76
11/1/2022 8:45:00 AM 8.74 47.732 0.221 7.23 2.15 9.74
11/1/2022 9:00:00 AM 8.77 47.786 0.221 7.23 1.82 9.73
11/1/2022 9:15:00 AM 8.79 47.822 0.221 7.23 2.59 9.72
11/1/2022 9:30:00 AM 8.82 47.876 0.221 7.23 2.01 9.71
11/1/2022 9:45:00 AM 8.84 47.912 0.221 7.22 2.21 9.71
11/1/2022 10:00:00 AM 8.87 47.966 0.221 7.22 2.05 9.7
11/1/2022 10:15:00 AM 8.9 48.02 0.221 7.22 2.25 9.68
11/1/2022 10:30:00 AM 8.93 48.074 0.222 7.22 2.42 9.67
11/1/2022 10:45:00 AM 8.97 48.146 0.222 7.22 2.01 9.68
11/1/2022 11:00:00 AM 9.04 48.272 0.222 7.22 1.86 9.66
11/1/2022 11:15:00 AM 9.14 48.452 0.222 7.22 2.11 9.7
11/1/2022 11:30:00 AM 9.11 48.398 0.222 7.23 1.9 9.79
11/1/2022 11:45:00 AM 9.15 48.47 0.222 7.23 2.11 9.91
11/1/2022 12:00:00 PM 9.23 48.614 0.222 7.23 1.61 9.9
11/1/2022 12:15:00 PM 9.33 48.794 0.222 7.24 1.6 10.1
11/1/2022 12:30:00 PM 9.4 48.92 0.222 7.26 1.62 10.27
11/1/2022 12:45:00 PM 9.5 49.1 0.222 7.27 2.23 10.4
11/1/2022 1:00:00 PM 9.62 49.316 0.222 7.3 1.66 10.54
11/1/2022 1:15:00 PM 9.64 49.352 0.221 7.3 1.97 10.64
11/1/2022 1:30:00 PM 9.67 49.406 0.221 7.3 2.02 10.7
11/1/2022 1:45:00 PM 9.7 49.46 0.221 7.31 1.97 10.79
11/1/2022 2:00:00 PM 9.76 49.568 0.221 7.32 1.67 10.87
11/1/2022 2:15:00 PM 9.88 49.784 0.221 7.33 1.61 10.92
11/1/2022 2:30:00 PM 10 50 0.221 7.34 1.62 10.95
11/1/2022 2:45:00 PM 9.97 49.946 0.221 7.35 1.59 11.05
11/1/2022 3:00:00 PM 10.19 50.342 0.221 7.36 1.51 11.12
11/1/2022 3:15:00 PM 10.15 50.27 0.221 7.37 2.42 11.16
11/1/2022 3:30:00 PM 9.96 49.928 0.22 7.36 2.02 11.04
11/1/2022 3:45:00 PM 9.99 49.982 0.22 7.37 2.29 10.99
11/1/2022 4:00:00 PM 10.05 50.09 0.221 7.35 1.82 10.98
11/1/2022 4:15:00 PM 9.98 49.964 0.221 7.38 1.68 10.9
11/1/2022 4:30:00 PM 9.7 49.46 0.22 7.32 2 10.56
11/1/2022 4:45:00 PM 9.74 49.532 0.22 7.33 2.13 10.61
11/1/2022 5:00:00 PM 9.82 49.676 0.22 7.35 1.84 10.69
11/1/2022 5:15:00 PM 9.85 49.73 0.22 7.33 1.8 10.74
11/1/2022 5:30:00 PM 10.28 50.504 0.221 7.39 1.65 11.07
11/1/2022 5:45:00 PM 9.8 49.64 0.22 7.32 1.96 10.59
11/1/2022 6:00:00 PM 10.03 50.054 0.221 7.38 1.81 10.78
11/1/2022 6:15:00 PM 10.04 50.072 0.22 7.36 1.8 10.73
11/1/2022 6:30:00 PM 10.19 50.342 0.221 7.39 2.18 10.9
11/1/2022 6:45:00 PM 10.6 51.08 0.221 7.43 1.86 11.27
11/1/2022 7:00:00 PM 10.62 51.116 0.222 7.46 1.69 11.43
11/1/2022 7:15:00 PM 10.7 51.26 0.221 7.44 1.62 11.37
11/1/2022 7:30:00 PM 10.73 51.314 0.222 7.46 1.7 11.29
11/1/2022 7:45:00 PM 10.87 51.566 0.222 7.5 1.7 11.47
11/1/2022 8:00:00 PM 10.92 51.656 0.222 7.49 1.5 11.34
11/1/2022 8:15:00 PM 10.95 51.71 0.222 7.49 1.53 11.27
11/1/2022 8:30:00 PM 10.92 51.656 0.222 7.47 1.48 11.05
11/1/2022 8:45:00 PM 10.87 51.566 0.222 7.44 1.43 10.89
11/1/2022 9:00:00 PM 10.9 51.62 0.222 7.45 1.53 10.84
11/1/2022 9:15:00 PM 10.91 51.638 0.223 7.42 1.46 10.63
11/1/2022 9:30:00 PM 10.92 51.656 0.223 7.42 1.58 10.52
11/1/2022 9:45:00 PM 10.89 51.602 0.223 7.4 1.74 10.4
11/1/2022 10:00:00 PM 10.9 51.62 0.223 7.41 1.95 10.43
11/1/2022 10:15:00 PM 10.89 51.602 0.223 7.4 1.74 10.34
11/1/2022 10:30:00 PM 10.89 51.602 0.223 7.39 1.92 10.23
11/1/2022 10:45:00 PM 10.87 51.566 0.223 7.38 1.8 10.15
11/1/2022 11:00:00 PM 10.88 51.584 0.223 7.37 1.65 10.12
11/1/2022 11:15:00 PM 10.87 51.566 0.223 7.36 2.02 10.05
11/1/2022 11:30:00 PM 10.87 51.566 0.223 7.34 1.78 10
11/1/2022 11:45:00 PM 10.85 51.53 0.223 7.35 2.58 9.95
11/2/2022 12:00:00 AM 10.83 51.494 0.223 7.33 1.8 9.89
11/2/2022 12:15:00 AM 10.81 51.458 0.223 7.33 1.84 9.87
11/2/2022 12:30:00 AM 10.79 51.422 0.223 7.32 1.66 9.84
11/2/2022 12:45:00 AM 10.78 51.404 0.223 7.32 2 9.81
11/2/2022 1:00:00 AM 10.75 51.35 0.223 7.31 1.91 9.8
11/2/2022 1:15:00 AM 10.72 51.296 0.223 7.31 1.67 9.77
11/2/2022 1:30:00 AM 10.7 51.26 0.223 7.29 1.81 9.74
11/2/2022 1:45:00 AM 10.68 51.224 0.223 7.3 1.73 9.71
11/2/2022 2:00:00 AM 10.64 51.152 0.223 7.29 2.04 9.67
11/2/2022 2:15:00 AM 10.61 51.098 0.224 7.29 1.67 9.63
11/2/2022 2:30:00 AM 10.58 51.044 0.223 7.28 2.1 9.6
11/2/2022 2:45:00 AM 10.55 50.99 0.223 7.28 1.76 9.56
11/2/2022 3:00:00 AM 10.52 50.936 0.223 7.27 1.8 9.54
11/2/2022 3:15:00 AM 10.5 50.9 0.223 7.27 1.88 9.52
11/2/2022 3:30:00 AM 10.48 50.864 0.223 7.27 1.9 9.48
11/2/2022 3:45:00 AM 10.44 50.792 0.223 7.26 1.8 9.46
11/2/2022 4:00:00 AM 10.39 50.702 0.224 7.26 1.81 9.43
11/2/2022 4:15:00 AM 10.34 50.612 0.223 7.24 1.88 9.42
11/2/2022 4:30:00 AM 10.32 50.576 0.223 7.25 1.73 9.38
11/2/2022 4:45:00 AM 10.3 50.54 0.224 7.24 1.93 9.35
11/2/2022 5:00:00 AM 10.25 50.45 0.224 7.24 1.98 9.33
11/2/2022 5:15:00 AM 10.22 50.396 0.224 7.23 2.11 9.28
11/2/2022 5:30:00 AM 10.19 50.342 0.224 7.23 2.18 9.27
11/2/2022 5:45:00 AM 10.16 50.288 0.224 7.23 2.62 9.26
11/2/2022 6:00:00 AM 10.13 50.234 0.224 7.23 2.58 9.23
11/2/2022 6:15:00 AM 10.11 50.198 0.224 7.22 5.33 9.18
11/2/2022 6:30:00 AM 10.09 50.162 0.224 7.22 2.54 9.17
11/2/2022 6:45:00 AM 10.06 50.108 0.224 7.22 2.89 9.16
11/2/2022 7:00:00 AM 10.03 50.054 0.224 7.21 2.56 9.14
11/2/2022 7:15:00 AM 10.01 50.018 0.224 7.2 2.48 9.13
11/2/2022 7:30:00 AM 9.98 49.964 0.224 7.21 2.3 9.12
11/2/2022 7:45:00 AM 9.96 49.928 0.224 7.21 2.18 9.11
11/2/2022 8:00:00 AM 9.93 49.874 0.224 7.2 1.92 9.1
11/2/2022 8:15:00 AM 9.91 49.838 0.224 7.2 2.19 9.08
11/2/2022 8:30:00 AM 9.9 49.82 0.224 7.21 2.21 9.07
11/2/2022 8:45:00 AM 9.88 49.784 0.224 7.21 2.13 9.06
11/2/2022 9:00:00 AM 9.86 49.748 0.224 7.21 2.27 9.06
11/2/2022 9:15:00 AM 9.85 49.73 0.224 7.2 2.19 9.06
11/2/2022 9:30:00 AM 9.85 49.73 0.224 7.21 2.12 9.06
11/2/2022 9:45:00 AM 9.85 49.73 0.224 7.2 3.08 9.09
11/2/2022 10:00:00 AM 9.9 49.82 0.224 7.21 1.82 9.11
11/2/2022 10:15:00 AM 9.94 49.892 0.224 7.21 2.43 9.13
11/2/2022 10:30:00 AM 10.05 50.09 0.224 7.22 1.89 9.17
11/2/2022 10:45:00 AM 10.13 50.234 0.224 7.23 1.65 9.23
11/2/2022 11:00:00 AM 10.05 50.09 0.224 7.23 1.76 9.3
11/2/2022 11:15:00 AM 10.05 50.09 0.224 7.24 1.66 9.45
11/2/2022 11:30:00 AM 10.1 50.18 0.223 7.25 1.85 9.62
11/2/2022 11:45:00 AM 10.17 50.306 0.223 7.27 1.8 9.73
11/2/2022 12:00:00 PM 10.31 50.558 0.223 7.28 1.74 9.9
11/2/2022 12:15:00 PM 10.35 50.63 0.223 7.29 218.5 9.95
11/2/2022 12:30:00 PM 10.58 51.044 0.223 7.31 1.94 10.1
11/2/2022 12:45:00 PM 10.56 51.008 0.223 7.31 2.09 10.16
11/2/2022 1:00:00 PM 10.76 51.368 0.223 7.33 2.02 10.37
11/2/2022 1:15:00 PM 10.79 51.422 0.223 7.34 1.96 10.39
11/2/2022 1:30:00 PM 10.9 51.62 0.222 7.35 2.1 10.5
11/2/2022 1:45:00 PM 10.96 51.728 0.222 7.36 1.95 10.71
11/2/2022 2:00:00 PM 11.03 51.854 0.222 7.37 2 10.76
11/2/2022 2:15:00 PM 11.22 52.196 0.222 7.4 1.91 10.9
11/2/2022 2:30:00 PM 11.11 51.998 0.222 7.38 2.21 10.78
11/2/2022 2:45:00 PM 11.26 52.268 0.222 7.38 2.15 10.84
11/2/2022 3:00:00 PM 11.11 51.998 0.222 7.37 2.26 10.48
11/2/2022 3:15:00 PM 10.85 51.53 0.223 7.32 2.56 9.98
11/2/2022 3:30:00 PM 10.84 51.512 0.223 7.31 2.33 9.94
11/2/2022 3:45:00 PM 10.84 51.512 0.223 7.31 2.57 9.97
11/2/2022 4:00:00 PM 10.87 51.566 0.223 7.31 2.44 10.08
11/2/2022 4:15:00 PM 10.83 51.494 0.223 7.31 2.56 10.01
11/2/2022 4:30:00 PM 10.84 51.512 0.223 7.3 2.34 10
11/2/2022 4:45:00 PM 10.83 51.494 0.223 7.3 2.39 9.91
11/2/2022 5:00:00 PM 10.88 51.584 0.223 7.31 2.28 9.9
11/2/2022 5:15:00 PM 10.92 51.656 0.223 7.35 2.34 9.92
11/2/2022 5:30:00 PM 11.04 51.872 0.223 7.37 2.38 10.28
11/2/2022 5:45:00 PM 11.07 51.926 0.223 7.41 2.4 10.09
11/2/2022 6:00:00 PM 10.99 51.782 0.223 7.36 2.36 10.03
11/2/2022 6:15:00 PM 11.18 52.124 0.223 7.4 2.35 10.39
11/2/2022 6:30:00 PM 11.39 52.502 0.222 7.43 2.19 10.6
11/2/2022 6:45:00 PM 11.05 51.89 0.223 7.36 2.24 10.03
11/2/2022 7:00:00 PM 11.69 53.042 0.222 7.48 4.42 10.94
11/2/2022 7:15:00 PM 11.88 53.384 0.221 7.53 2.58 11.38
11/2/2022 7:30:00 PM 11.94 53.492 0.221 7.54 2.15 11.51
11/2/2022 7:45:00 PM 11.97 53.546 0.221 7.55 2.01 11.54
11/2/2022 8:00:00 PM 11.88 53.384 0.221 7.54 1.98 11.32
11/2/2022 8:15:00 PM 11.82 53.276 0.221 7.53 1.96 11.26
11/2/2022 8:30:00 PM 11.73 53.114 0.221 7.53 1.83 11.16
11/2/2022 8:45:00 PM 11.63 52.934 0.221 7.51 1.92 10.99
11/2/2022 9:00:00 PM 11.53 52.754 0.222 7.49 1.97 10.8
11/2/2022 9:15:00 PM 11.43 52.574 0.222 7.47 1.85 10.71
11/2/2022 9:30:00 PM 11.34 52.412 0.222 7.45 2.18 10.6
11/2/2022 9:45:00 PM 11.24 52.232 0.222 7.42 1.92 10.45
11/2/2022 10:00:00 PM 11.16 52.088 0.222 7.41 1.91 10.34
11/2/2022 10:15:00 PM 11.07 51.926 0.222 7.39 1.9 10.22
11/2/2022 10:30:00 PM 10.99 51.782 0.223 7.36 2.04 10.08
11/2/2022 10:45:00 PM 10.92 51.656 0.223 7.35 1.92 10
11/2/2022 11:00:00 PM 10.86 51.548 0.223 7.35 1.84 9.95
11/2/2022 11:15:00 PM 10.78 51.404 0.223 7.34 2.46 9.91
11/2/2022 11:30:00 PM 10.74 51.332 0.223 7.32 2.08 9.86
11/2/2022 11:45:00 PM 10.68 51.224 0.223 7.31 2.18 9.81
11/3/2022 12:00:00 AM 10.63 51.134 0.223 7.31 2.11 9.79
11/3/2022 12:15:00 AM 10.59 51.062 0.223 7.3 2.1 9.76
11/3/2022 12:30:00 AM 10.52 50.936 0.223 7.29 2.27 9.72
11/3/2022 12:45:00 AM 10.47 50.846 0.223 7.28 2.16 9.69
11/3/2022 1:00:00 AM 10.41 50.738 0.224 7.28 2.62 9.65
11/3/2022 1:15:00 AM 10.37 50.666 0.224 7.28 2.4 9.62
11/3/2022 1:30:00 AM 10.31 50.558 0.224 7.26 2.6 9.58
11/3/2022 1:45:00 AM 10.25 50.45 0.224 7.26 2.94 9.59
11/3/2022 2:00:00 AM 10.19 50.342 0.224 7.26 3.03 9.59
11/3/2022 2:15:00 AM 10.12 50.216 0.223 7.26 2.71 9.6
11/3/2022 2:30:00 AM 10.08 50.144 0.224 7.26 2.65 9.56
11/3/2022 2:45:00 AM 10.03 50.054 0.224 7.25 3.65 9.56
11/3/2022 3:00:00 AM 9.96 49.928 0.224 7.25 5.14 9.55
11/3/2022 3:15:00 AM 9.88 49.784 0.224 7.25 3.07 9.57
11/3/2022 3:30:00 AM 9.83 49.694 0.224 7.24 3.01 9.58
11/3/2022 3:45:00 AM 9.78 49.604 0.224 7.24 3.1 9.56
11/3/2022 4:00:00 AM 9.74 49.532 0.224 7.24 2.88 9.53
11/3/2022 4:15:00 AM 9.68 49.424 0.224 7.24 2.62 9.52
11/3/2022 4:30:00 AM 9.64 49.352 0.224 7.23 2.93 9.51
11/3/2022 4:45:00 AM 9.59 49.262 0.224 7.23 2.92 9.49
11/3/2022 5:00:00 AM 9.54 49.172 0.224 7.23 2.8 9.47
11/3/2022 5:15:00 AM 9.5 49.1 0.224 7.23 2.68 9.45
11/3/2022 5:30:00 AM 9.45 49.01 0.224 7.23 2.67 9.43
11/3/2022 5:45:00 AM 9.42 48.956 0.224 7.23 2.66 9.41
11/3/2022 6:00:00 AM 9.38 48.884 0.224 7.22 2.67 9.4
11/3/2022 6:15:00 AM 9.35 48.83 0.224 7.21 2.73 9.37
11/3/2022 6:30:00 AM 9.32 48.776 0.224 7.22 2.46 9.36
11/3/2022 6:45:00 AM 9.29 48.722 0.225 7.22 2.49 9.35
11/3/2022 7:00:00 AM 9.26 48.668 0.225 7.22 2.8 9.33
11/3/2022 7:15:00 AM 9.24 48.632 0.225 7.22 2.66 9.31
11/3/2022 7:30:00 AM 9.21 48.578 0.225 7.21 2.7 9.3
11/3/2022 7:45:00 AM 9.18 48.524 0.225 7.22 2.62 9.29
11/3/2022 8:00:00 AM 9.16 48.488 0.225 7.22 2.66 9.27
11/3/2022 8:15:00 AM 9.13 48.434 0.225 7.22 2.48 9.26
11/3/2022 8:30:00 AM 9.1 48.38 0.225 7.22 2.57 9.25
11/3/2022 8:45:00 AM 9.09 48.362 0.225 7.22 2.44 9.24
11/3/2022 9:00:00 AM 9.07 48.326 0.225 7.22 2.67 9.24
11/3/2022 9:15:00 AM 9.06 48.308 0.226 7.21 2.48 9.24
11/3/2022 9:30:00 AM 9.06 48.308 0.226 7.22 2.46 9.24
11/3/2022 9:45:00 AM 9.05 48.29 0.226 7.22 2.32 9.25
11/3/2022 10:00:00 AM 9.06 48.308 0.226 7.22 2.53 9.27
11/3/2022 10:15:00 AM 9.07 48.326 0.226 7.22 2.35 9.3
11/3/2022 10:30:00 AM 9.08 48.344 0.226 7.22 2.61 9.33
11/3/2022 10:45:00 AM 9.1 48.38 0.226 7.23 2.43 9.35
11/3/2022 11:00:00 AM 9.16 48.488 0.226 7.23 2.22 9.38
11/3/2022 11:15:00 AM 9.23 48.614 0.226 7.24 2.23 9.42
11/3/2022 11:30:00 AM 9.3 48.74 0.226 7.25 2.14 9.57
11/3/2022 11:45:00 AM 9.35 48.83 0.226 7.25 2.16 9.74
11/3/2022 12:00:00 PM 9.4 48.92 0.226 7.27 2.15 9.9
11/3/2022 12:15:00 PM 9.47 49.046 0.226 7.29 2.24 10.04
11/3/2022 12:30:00 PM 9.56 49.208 0.226 7.3 2.22 10.18
11/3/2022 12:45:00 PM 9.7 49.46 0.226 7.3 2.3 10.16
11/3/2022 1:00:00 PM 9.74 49.532 0.225 7.32 2.26 10.38
11/3/2022 1:15:00 PM 9.85 49.73 0.225 7.34 2.22 10.53
11/3/2022 1:30:00 PM 9.98 49.964 0.225 7.35 2.29 10.7
11/3/2022 1:45:00 PM 10.12 50.216 0.225 7.37 2.28 10.8
11/3/2022 2:00:00 PM 10.3 50.54 0.225 7.39 2.24 11.11
11/3/2022 2:15:00 PM 10.51 50.918 0.225 7.41 2.16 11.18
11/3/2022 2:30:00 PM 10.53 50.954 0.225 7.42 2.19 11.3
11/3/2022 2:45:00 PM 10.62 51.116 0.225 7.44 2.22 11.42
11/3/2022 3:00:00 PM 10.69 51.242 0.225 7.46 2.27 11.63
11/3/2022 3:15:00 PM 10.89 51.602 0.224 7.47 2.07 11.7
11/3/2022 3:30:00 PM 11.05 51.89 0.224 7.48 3.69 11.7
11/3/2022 3:45:00 PM 11.21 52.178 0.224 7.51 2.41 11.81
11/3/2022 4:00:00 PM 11.24 52.232 0.224 7.51 2.15 11.91
11/3/2022 4:15:00 PM 11.28 52.304 0.224 7.52 2.29 11.94
11/3/2022 4:30:00 PM 11.07 51.926 0.224 7.5 2.78 11.71
11/3/2022 4:45:00 PM 10.96 51.728 0.224 7.46 2.6 11.46
11/3/2022 5:00:00 PM 11.11 51.998 0.225 7.49 2.61 11.54
11/3/2022 5:15:00 PM 11.28 52.304 0.225 7.52 2.36 11.41
11/3/2022 5:30:00 PM 10.88 51.584 0.224 7.5 2.65 11.05
11/3/2022 5:45:00 PM 10.62 51.116 0.225 7.43 3.03 10.84
11/3/2022 6:00:00 PM 11.3 52.34 0.225 7.56 2.38 11.22
11/3/2022 6:15:00 PM 10.98 51.764 0.224 7.57 2.64 11.59
11/3/2022 6:30:00 PM 11.67 53.006 0.224 7.61 2.3 11.9
11/3/2022 6:45:00 PM 10.96 51.728 0.224 7.52 2.34 11.28
11/3/2022 7:00:00 PM 11.27 52.286 0.224 7.54 3.7 11.62
11/3/2022 7:15:00 PM 11.48 52.664 0.224 7.56 2.35 11.79
11/3/2022 7:30:00 PM 11.46 52.628 0.224 7.56 2.56 11.81
11/3/2022 7:45:00 PM 11.41 52.538 0.224 7.56 2.65 11.8
11/3/2022 8:00:00 PM 11.3 52.34 0.224 7.56 2.32 11.68
11/3/2022 8:15:00 PM 11.22 52.196 0.224 7.55 2.71 11.58
11/3/2022 8:30:00 PM 11.13 52.034 0.224 7.53 2.48 11.49
11/3/2022 8:45:00 PM 11.03 51.854 0.224 7.52 2.09 11.32
11/3/2022 9:00:00 PM 10.92 51.656 0.224 7.49 1.96 11.13
11/3/2022 9:15:00 PM 10.81 51.458 0.224 7.47 2.14 10.98
11/3/2022 9:30:00 PM 10.71 51.278 0.224 7.45 2.13 10.82
11/3/2022 9:45:00 PM 10.62 51.116 0.224 7.43 2.3 10.7
11/3/2022 10:00:00 PM 10.54 50.972 0.224 7.41 2.3 10.56
11/3/2022 10:15:00 PM 10.44 50.792 0.224 7.39 2.96 10.41
11/3/2022 10:30:00 PM 10.37 50.666 0.224 7.37 2.59 10.31
11/3/2022 10:45:00 PM 10.29 50.522 0.224 7.36 2.13 10.24
11/3/2022 11:00:00 PM 10.22 50.396 0.224 7.35 2.11 10.17
11/3/2022 11:15:00 PM 10.17 50.306 0.224 7.33 2.27 10.12
11/3/2022 11:30:00 PM 10.09 50.162 0.224 7.33 2.32 10.07
11/3/2022 11:45:00 PM 10.05 50.09 0.224 7.32 2.3 10.03
11/4/2022 12:00:00 AM 10 50 0.224 7.31 2.18 10
11/4/2022 12:15:00 AM 9.92 49.856 0.224 7.3 2.72 9.98
11/4/2022 12:30:00 AM 9.86 49.748 0.224 7.3 2.28 9.94
11/4/2022 12:45:00 AM 9.81 49.658 0.224 7.29 2.35 9.88
11/4/2022 1:00:00 AM 9.76 49.568 0.224 7.28 2.23 9.85
11/4/2022 1:15:00 AM 9.71 49.478 0.224 7.28 2.25 9.82
11/4/2022 1:30:00 AM 9.68 49.424 0.224 7.27 2.49 9.79
11/4/2022 1:45:00 AM 9.64 49.352 0.225 7.27 2.47 9.77
11/4/2022 2:00:00 AM 9.57 49.226 0.224 7.27 2.36 9.77
11/4/2022 2:15:00 AM 9.51 49.118 0.224 7.26 2.59 9.77
11/4/2022 2:30:00 AM 9.46 49.028 0.225 7.26 3.09 9.74
11/4/2022 2:45:00 AM 9.4 48.92 0.224 7.25 2.52 9.73
11/4/2022 3:00:00 AM 9.33 48.794 0.225 7.25 2.65 9.74
11/4/2022 3:15:00 AM 9.27 48.686 0.224 7.25 2.67 9.72
11/4/2022 3:30:00 AM 9.21 48.578 0.225 7.25 2.6 9.71
11/4/2022 3:45:00 AM 9.15 48.47 0.225 7.24 2.68 9.7
11/4/2022 4:00:00 AM 9.1 48.38 0.225 7.24 3.12 9.68
11/4/2022 4:15:00 AM 9.02 48.236 0.225 7.24 2.72 9.7
11/4/2022 4:30:00 AM 8.98 48.164 0.225 7.23 2.62 9.68
11/4/2022 4:45:00 AM 8.91 48.038 0.225 7.24 2.65 9.67
11/4/2022 5:00:00 AM 8.86 47.948 0.225 7.23 2.73 9.65
11/4/2022 5:15:00 AM 8.81 47.858 0.225 7.23 3.14 9.65
11/4/2022 5:30:00 AM 8.75 47.75 0.225 7.23 3.09 9.63
11/4/2022 5:45:00 AM 8.69 47.642 0.225 7.23 2.65 9.63
11/4/2022 6:00:00 AM 8.64 47.552 0.225 7.22 3.04 9.6
11/4/2022 6:15:00 AM 8.58 47.444 0.225 7.22 2.66 9.61
11/4/2022 6:30:00 AM 8.54 47.372 0.225 7.21 2.75 9.6
11/4/2022 6:45:00 AM 8.49 47.282 0.225 7.22 2.89 9.58
11/4/2022 7:00:00 AM 8.44 47.192 0.225 7.22 2.86 9.57
11/4/2022 7:15:00 AM 8.4 47.12 0.225 7.22 3.2 9.57
11/4/2022 7:30:00 AM 8.35 47.03 0.226 7.21 2.83 9.56
11/4/2022 7:45:00 AM 8.3 46.94 0.226 7.22 2.78 9.54
11/4/2022 8:00:00 AM 8.27 46.886 0.226 7.21 2.75 9.53
11/4/2022 8:15:00 AM 8.23 46.814 0.226 7.22 2.5 9.52
11/4/2022 8:30:00 AM 8.19 46.742 0.226 7.22 2.55 9.52
11/4/2022 8:45:00 AM 8.16 46.688 0.226 7.22 2.34 9.52
11/4/2022 9:00:00 AM 8.14 46.652 0.226 7.21 2.4 9.52
11/4/2022 9:15:00 AM 8.11 46.598 0.226 7.22 2.54 9.53
11/4/2022 9:30:00 AM 8.07 46.526 0.226 7.22 2.47 9.54
11/4/2022 9:45:00 AM 8.07 46.526 0.226 7.22 2.83 9.54
11/4/2022 10:00:00 AM 8.08 46.544 0.226 7.22 2.35 9.57
11/4/2022 10:15:00 AM 8.12 46.616 0.227 7.23 2.42 9.6
11/4/2022 10:30:00 AM 8.16 46.688 0.226 7.23 2.18 9.62
11/4/2022 10:45:00 AM 8.18 46.724 0.226 7.24 2.23 9.62
11/4/2022 11:00:00 AM 8.23 46.814 0.226 7.24 2.27 9.67
11/4/2022 11:15:00 AM 8.3 46.94 0.226 7.25 2.22 9.74
11/4/2022 11:30:00 AM 8.36 47.048 0.227 7.25 2.22 9.85
11/4/2022 11:45:00 AM 8.45 47.21 0.226 7.28 2.15 10.02
11/4/2022 12:00:00 PM 8.46 47.228 0.226 7.28 2.03 10.2
11/4/2022 12:15:00 PM 8.58 47.444 0.226 7.3 2.12 10.31
11/4/2022 12:30:00 PM 8.65 47.57 0.226 7.31 2.02 10.48
11/4/2022 12:45:00 PM 8.81 47.858 0.226 7.33 2 10.55
11/4/2022 1:00:00 PM 8.94 48.092 0.226 7.34 2.03 10.68
11/4/2022 1:15:00 PM 9.1 48.38 0.226 7.35 2.06 10.77
11/4/2022 1:30:00 PM 9.28 48.704 0.226 7.37 2.12 10.96
11/4/2022 1:45:00 PM 9.39 48.902 0.226 7.39 2.02 11.18
11/4/2022 2:00:00 PM 9.53 49.154 0.226 7.41 1.96 11.33
11/4/2022 2:15:00 PM 9.69 49.442 0.226 7.43 1.98 11.45
11/4/2022 2:30:00 PM 9.9 49.82 0.226 7.44 2 11.53
11/4/2022 2:45:00 PM 10.04 50.072 0.226 7.46 1.98 11.67
11/4/2022 3:00:00 PM 10.18 50.324 0.226 7.47 2.17 11.71
11/4/2022 3:15:00 PM 10.24 50.432 0.225 7.48 2.05 11.81
11/4/2022 3:30:00 PM 10.5 50.9 0.226 7.5 2.19 11.87
11/4/2022 3:45:00 PM 10.75 51.35 0.226 7.53 2.74 11.98
11/4/2022 4:00:00 PM 10.5 50.9 0.225 7.51 2.26 11.97
11/4/2022 4:15:00 PM 10.93 51.674 0.225 7.55 2.12 12.11
11/4/2022 4:30:00 PM 10.89 51.602 0.225 7.54 2.38 12.09
11/4/2022 4:45:00 PM 11.15 52.07 0.225 7.57 2.04 12.1
11/4/2022 5:00:00 PM 11.31 52.358 0.225 7.59 2.08 12.13
11/4/2022 5:15:00 PM 11.51 52.718 0.225 7.61 1.99 12.2
11/4/2022 5:30:00 PM 11.13 52.034 0.225 7.58 2.19 12.1
11/4/2022 5:45:00 PM 10.87 51.566 0.225 7.55 2.66 11.97
11/4/2022 6:00:00 PM 10.62 51.116 0.226 7.5 2.61 11.57
11/4/2022 6:15:00 PM 10.17 50.306 0.226 7.42 2.81 10.65
11/4/2022 6:30:00 PM 10.08 50.144 0.226 7.39 2.65 10.48
11/4/2022 6:45:00 PM 10.21 50.378 0.226 7.38 2.64 10.53
11/4/2022 7:00:00 PM 10.27 50.486 0.226 7.38 2.56 10.72
11/4/2022 7:15:00 PM 10.51 50.918 0.226 7.41 2.76 10.89
11/4/2022 7:30:00 PM 11.02 51.836 0.226 7.52 2.44 11.53
11/4/2022 7:45:00 PM 11.14 52.052 0.226 7.54 2.5 11.78
11/4/2022 8:00:00 PM 11.19 52.142 0.226 7.56 2.1 11.77
11/4/2022 8:15:00 PM 11.13 52.034 0.226 7.55 2.4 11.68
11/4/2022 8:30:00 PM 11.02 51.836 0.226 7.53 2.25 11.53
11/4/2022 8:45:00 PM 10.95 51.71 0.226 7.52 2.25 11.38
11/4/2022 9:00:00 PM 10.87 51.566 0.226 7.51 2.12 11.28
11/4/2022 9:15:00 PM 10.79 51.422 0.226 7.49 2.2 11.12
11/4/2022 9:30:00 PM 10.72 51.296 0.226 7.47 2.07 11
11/4/2022 9:45:00 PM 10.64 51.152 0.226 7.44 3.36 10.81
11/4/2022 10:00:00 PM 10.57 51.026 0.226 7.42 2.04 10.68
11/4/2022 10:15:00 PM 10.52 50.936 0.226 7.41 2.5 10.58
11/4/2022 10:30:00 PM 10.46 50.828 0.226 7.4 1.94 10.46
11/4/2022 10:45:00 PM 10.42 50.756 0.225 7.39 1.81 10.38
11/4/2022 11:00:00 PM 10.36 50.648 0.226 7.37 1.77 10.28
11/4/2022 11:15:00 PM 10.33 50.594 0.225 7.36 1.76 10.19
11/4/2022 11:30:00 PM 10.28 50.504 0.225 7.35 1.79 10.12
11/4/2022 11:45:00 PM 10.24 50.432 0.225 7.34 1.87 10.06
11/5/2022 12:00:00 AM 10.21 50.378 0.225 7.32 1.75 10.01
11/5/2022 12:15:00 AM 10.17 50.306 0.225 7.32 1.76 9.98
11/5/2022 12:30:00 AM 10.15 50.27 0.225 7.31 1.87 9.96
11/5/2022 12:45:00 AM 10.11 50.198 0.225 7.31 1.88 9.93
11/5/2022 1:00:00 AM 10.09 50.162 0.225 7.3 2.01 9.91
11/5/2022 1:15:00 AM 10.06 50.108 0.225 7.29 2.04 9.88
11/5/2022 1:30:00 AM 10.03 50.054 0.224 7.29 2.09 9.85
11/5/2022 1:45:00 AM 10 50 0.225 7.28 2.01 9.84
11/5/2022 2:00:00 AM 9.99 49.982 0.224 7.27 2.08 9.81
11/5/2022 2:15:00 AM 9.97 49.946 0.224 7.28 2.33 9.8
11/5/2022 2:30:00 AM 9.94 49.892 0.224 7.27 2.19 9.79
11/5/2022 2:45:00 AM 9.92 49.856 0.224 7.27 2.17 9.8
11/5/2022 3:00:00 AM 9.89 49.802 0.224 7.26 2.44 9.79
11/5/2022 3:15:00 AM 9.88 49.784 0.224 7.27 2.23 9.76
11/5/2022 3:30:00 AM 9.86 49.748 0.224 7.27 2.32 9.74
11/5/2022 3:45:00 AM 9.84 49.712 0.223 7.27 2.24 9.74
11/5/2022 4:00:00 AM 9.82 49.676 0.223 7.27 2.36 9.75
11/5/2022 4:15:00 AM 9.81 49.658 0.223 7.27 2.32 9.72
11/5/2022 4:30:00 AM 9.79 49.622 0.223 7.27 2.32 9.72
11/5/2022 4:45:00 AM 9.78 49.604 0.223 7.27 2.27 9.7
11/5/2022 5:00:00 AM 9.76 49.568 0.222 7.27 2.21 9.68
11/5/2022 5:15:00 AM 9.75 49.55 0.222 7.27 2.87 9.66
11/5/2022 5:30:00 AM 9.73 49.514 0.222 7.26 2.42 9.63
11/5/2022 5:45:00 AM 9.72 49.496 0.222 7.26 2.17 9.61
11/5/2022 6:00:00 AM 9.7 49.46 0.222 7.26 2.25 9.58
11/5/2022 6:15:00 AM 9.69 49.442 0.222 7.26 2.36 9.57
11/5/2022 6:30:00 AM 9.68 49.424 0.222 7.26 2.31 9.55
11/5/2022 6:45:00 AM 9.68 49.424 0.222 7.26 2.46 9.52
11/5/2022 7:00:00 AM 9.68 49.424 0.222 7.25 2.4 9.5
11/5/2022 7:15:00 AM 9.67 49.406 0.222 7.25 2.72 9.46
11/5/2022 7:30:00 AM 9.66 49.388 0.222 7.25 2.35 9.44
11/5/2022 7:45:00 AM 9.66 49.388 0.222 7.25 2.25 9.4
11/5/2022 8:00:00 AM 9.66 49.388 0.222 7.25 2.29 9.38
11/5/2022 8:15:00 AM 9.67 49.406 0.222 7.24 2.42 9.36
11/5/2022 8:30:00 AM 9.67 49.406 0.222 7.24 2.53 9.34
11/5/2022 8:45:00 AM 9.68 49.424 0.222 7.24 2.43 9.31
11/5/2022 9:00:00 AM 9.68 49.424 0.222 7.24 2.28 9.3
11/5/2022 9:15:00 AM 9.69 49.442 0.222 7.23 2.43 9.28
11/5/2022 9:30:00 AM 9.69 49.442 0.222 7.23 2.28 9.26
11/5/2022 9:45:00 AM 9.7 49.46 0.222 7.23 2.29 9.26
11/5/2022 10:00:00 AM 9.72 49.496 0.222 7.23 2.37 9.25
11/5/2022 10:15:00 AM 9.73 49.514 0.222 7.23 2.25 9.24
11/5/2022 10:30:00 AM 9.75 49.55 0.222 7.23 2.72 9.24
11/5/2022 10:45:00 AM 9.77 49.586 0.222 7.23 2.2 9.29
11/5/2022 11:00:00 AM 9.8 49.64 0.222 7.23 2.24 9.3
11/5/2022 11:15:00 AM 9.82 49.676 0.222 7.23 2.33 9.33
11/5/2022 11:30:00 AM 9.85 49.73 0.222 7.23 2.23 9.3
11/5/2022 11:45:00 AM 9.89 49.802 0.222 7.23 2.34 9.3
11/5/2022 12:00:00 PM 9.95 49.91 0.222 7.24 3.13 9.34
11/5/2022 12:15:00 PM 10 50 0.222 7.24 2.28 9.42
11/5/2022 12:30:00 PM 10.12 50.216 0.222 7.25 2.08 9.59
11/5/2022 12:45:00 PM 10.27 50.486 0.221 7.25 2.17 9.7
11/5/2022 1:00:00 PM 10.31 50.558 0.221 7.27 2.09 9.75
11/5/2022 1:15:00 PM 10.36 50.648 0.221 7.28 2.27 9.85
11/5/2022 1:30:00 PM 10.48 50.864 0.221 7.29 1.79 9.95
11/5/2022 1:45:00 PM 10.56 51.008 0.221 7.3 1.87 10.02
11/5/2022 2:00:00 PM 10.67 51.206 0.221 7.32 1.8 10.2
11/5/2022 2:15:00 PM 10.7 51.26 0.22 7.33 1.73 10.29
11/5/2022 2:30:00 PM 10.97 51.746 0.22 7.35 1.78 10.42
11/5/2022 2:45:00 PM 10.84 51.512 0.22 7.35 1.73 10.45
11/5/2022 3:00:00 PM 11.19 52.142 0.22 7.38 1.63 10.62
11/5/2022 3:15:00 PM 11.16 52.088 0.22 7.39 2.19 10.69
11/5/2022 3:30:00 PM 11.41 52.538 0.22 7.4 1.78 10.78
11/5/2022 3:45:00 PM 11.43 52.574 0.22 7.41 1.7 10.87
11/5/2022 4:00:00 PM 11.38 52.484 0.22 7.41 2.4 10.89
11/5/2022 4:15:00 PM 11.53 52.754 0.219 7.43 1.74 10.98
11/5/2022 4:30:00 PM 11.42 52.556 0.22 7.42 1.72 10.86
11/5/2022 4:45:00 PM 11.46 52.628 0.22 7.42 1.72 10.92
11/5/2022 5:00:00 PM 11.49 52.682 0.22 7.42 1.99 10.89
11/5/2022 5:15:00 PM 11.55 52.79 0.22 7.43 1.75 10.97
11/5/2022 5:30:00 PM 11.5 52.7 0.22 7.42 1.72 10.9
11/5/2022 5:45:00 PM 11.83 53.294 0.22 7.47 1.64 11.16
11/5/2022 6:00:00 PM 11.78 53.204 0.22 7.46 1.66 11.09
11/5/2022 6:15:00 PM 11.75 53.15 0.22 7.46 1.82 11
11/5/2022 6:30:00 PM 11.88 53.384 0.22 7.46 1.69 10.99
11/5/2022 6:45:00 PM 12.06 53.708 0.22 7.47 1.7 10.96
11/5/2022 7:00:00 PM 11.91 53.438 0.22 7.46 1.88 10.82
11/5/2022 7:15:00 PM 12.05 53.69 0.221 7.46 1.84 10.79
11/5/2022 7:30:00 PM 11.93 53.474 0.221 7.44 2.78 10.61
11/5/2022 7:45:00 PM 11.97 53.546 0.221 7.43 1.89 10.57
11/5/2022 8:00:00 PM 11.94 53.492 0.221 7.41 1.75 10.37
11/5/2022 8:15:00 PM 11.95 53.51 0.221 7.4 1.96 10.21
11/5/2022 8:30:00 PM 12.12 53.816 0.222 7.41 2 10.28
11/5/2022 8:45:00 PM 12.04 53.672 0.222 7.37 1.78 9.99
11/5/2022 9:00:00 PM 12.02 53.636 0.222 7.36 1.75 9.82
11/5/2022 9:15:00 PM 12.01 53.618 0.222 7.34 2.86 9.67
11/5/2022 9:30:00 PM 12.01 53.618 0.222 7.32 1.8 9.58
11/5/2022 9:45:00 PM 12.02 53.636 0.222 7.33 2.24 9.55
11/5/2022 10:00:00 PM 12.12 53.816 0.222 7.32 2.18 9.51
11/5/2022 10:15:00 PM 12.06 53.708 0.222 7.31 1.91 9.4
11/5/2022 10:30:00 PM 12.1 53.78 0.222 7.29 2.17 9.38
11/5/2022 10:45:00 PM 12.15 53.87 0.223 7.3 2.01 9.33
11/5/2022 11:00:00 PM 12.2 53.96 0.222 7.29 2.15 9.29
11/5/2022 11:15:00 PM 12.21 53.978 0.222 7.29 1.99 9.24
11/5/2022 11:30:00 PM 12.24 54.032 0.222 7.28 2.45 9.22
11/5/2022 11:45:00 PM 12.22 53.996 0.223 7.27 1.94 9.12
11/6/2022 12:00:00 AM 12.21 53.978 0.223 7.26 2.21 9.03
11/6/2022 12:15:00 AM 12.27 54.086 0.222 7.26 2.28 9.01
11/6/2022 12:30:00 AM 12.25 54.05 0.222 7.25 2.35 8.96
11/6/2022 12:45:00 AM 12.25 54.05 0.222 7.25 2.3 8.94
11/6/2022 1:00:00 AM 12.26 54.068 0.222 7.25 6.92 8.88
11/6/2022 1:15:00 AM 12.29 54.122 0.222 7.24 2.21 8.85
11/6/2022 1:30:00 AM 12.33 54.194 0.222 7.24 2.1 8.85
11/6/2022 1:45:00 AM 12.39 54.302 0.222 7.24 1.95 8.86
11/6/2022 2:00:00 AM 12.39 54.302 0.222 7.24 1.94 8.83
11/6/2022 2:15:00 AM 12.43 54.374 0.222 7.24 2.12 8.83
11/6/2022 2:30:00 AM 12.4 54.32 0.222 7.23 2.09 8.76
11/6/2022 2:45:00 AM 12.4 54.32 0.222 7.22 2.16 8.71
11/6/2022 3:00:00 AM 12.41 54.338 0.222 7.22 2.24 8.66
11/6/2022 3:15:00 AM 12.45 54.41 0.222 7.22 2.39 8.66
11/6/2022 3:30:00 AM 12.58 54.644 0.221 7.22 2.34 8.57
11/6/2022 3:45:00 AM 12.56 54.608 0.221 7.21 2.33 8.49
11/6/2022 4:00:00 AM 12.55 54.59 0.222 7.21 2.18 8.47
11/6/2022 4:15:00 AM 12.56 54.608 0.222 7.2 2.15 8.41
11/6/2022 4:30:00 AM 12.59 54.662 0.222 7.2 2.35 8.37
11/6/2022 4:45:00 AM 12.6 54.68 0.222 7.2 2.46 8.35
11/6/2022 5:00:00 AM 12.65 54.77 0.222 7.2 2.3 8.35
11/6/2022 5:15:00 AM 12.64 54.752 0.222 7.19 2.14 8.31
11/6/2022 5:30:00 AM 12.66 54.788 0.222 7.19 2.25 8.28
11/6/2022 5:45:00 AM 12.72 54.896 0.223 7.2 2.17 8.29
11/6/2022 6:00:00 AM 12.72 54.896 0.222 7.19 1.99 8.26
11/6/2022 6:15:00 AM 12.69 54.842 0.222 7.19 3.3 8.22
11/6/2022 6:30:00 AM 12.66 54.788 0.223 7.19 2.66 8.17
11/6/2022 6:45:00 AM 12.68 54.824 0.223 7.18 2.16 8.16
11/6/2022 7:00:00 AM 12.76 54.968 0.223 7.19 2.49 8.17
11/6/2022 7:15:00 AM 12.71 54.878 0.223 7.18 2.45 8.13
11/6/2022 7:30:00 AM 12.73 54.914 0.223 7.18 2.34 8.12
11/6/2022 7:45:00 AM 12.74 54.932 0.223 7.18 2.38 8.09
11/6/2022 8:00:00 AM 12.75 54.95 0.223 7.18 2.26 8.08
11/6/2022 8:15:00 AM 12.76 54.968 0.223 7.16 2.15 8.08
11/6/2022 8:30:00 AM 12.77 54.986 0.223 7.18 2.03 8.07
11/6/2022 8:45:00 AM 12.8 55.04 0.223 7.17 2.31 8.05
11/6/2022 9:00:00 AM 12.79 55.022 0.223 7.18 2.18 8.07
11/6/2022 9:15:00 AM 12.82 55.076 0.223 7.17 2.29 8.06
11/6/2022 9:30:00 AM 12.84 55.112 0.223 7.17 2.08 8.06
11/6/2022 9:45:00 AM 12.87 55.166 0.224 7.17 1.95 8.06
11/6/2022 10:00:00 AM 12.9 55.22 0.224 7.18 2.03 8.11
11/6/2022 10:15:00 AM 12.94 55.292 0.224 7.18 2.03 8.14
11/6/2022 10:30:00 AM 12.96 55.328 0.224 7.18 2.36 8.16
11/6/2022 10:45:00 AM 13.15 55.67 0.224 7.19 1.94 8.24
11/6/2022 11:00:00 AM 13.19 55.742 0.224 7.19 1.94 8.41
11/6/2022 11:15:00 AM 13.3 55.94 0.224 7.22 2.01 8.5
11/6/2022 11:30:00 AM 13.2 55.76 0.224 7.22 2.19 8.59
11/6/2022 11:45:00 AM 13.44 56.192 0.224 7.23 2 8.78
11/6/2022 12:00:00 PM 13.47 56.246 0.224 7.24 1.88 8.88
11/6/2022 12:15:00 PM 13.52 56.336 0.224 7.25 2.16 9.02
11/6/2022 12:30:00 PM 13.72 56.696 0.224 7.28 1.79 9.32
11/6/2022 12:45:00 PM 13.76 56.768 0.223 7.31 1.85 9.69
11/6/2022 1:00:00 PM 13.86 56.948 0.223 7.33 2.11 9.83
11/6/2022 1:15:00 PM 13.91 57.038 0.223 7.35 1.87 9.98
11/6/2022 1:30:00 PM 13.98 57.164 0.223 7.36 1.76 10.06
11/6/2022 1:45:00 PM 14.07 57.326 0.223 7.38 1.87 10.34
11/6/2022 2:00:00 PM 14.34 57.812 0.223 7.41 1.71 10.43
11/6/2022 2:15:00 PM 14.44 57.992 0.223 7.43 1.65 10.52
11/6/2022 2:30:00 PM 14.47 58.046 0.222 7.46 1.86 10.75
11/6/2022 2:45:00 PM 14.5 58.1 0.222 7.47 1.86 10.81
11/6/2022 3:00:00 PM 14.58 58.244 0.222 7.48 1.8 10.83
11/6/2022 3:15:00 PM 14.75 58.55 0.222 7.51 1.79 10.9
11/6/2022 3:30:00 PM 14.84 58.712 0.222 7.52 1.78 11.02
11/6/2022 3:45:00 PM 15.05 59.09 0.222 7.56 1.75 11.05
11/6/2022 4:00:00 PM 15.04 59.072 0.222 7.57 2 11.15
11/6/2022 4:15:00 PM 15.1 59.18 0.222 7.59 1.85 11.25
11/6/2022 4:30:00 PM 15.05 59.09 0.222 7.59 1.76 11.27
11/6/2022 4:45:00 PM 15.15 59.27 0.222 7.6 1.83 11.33
11/6/2022 5:00:00 PM 15.24 59.432 0.223 7.63 2.07 11.41
11/6/2022 5:15:00 PM 14.59 58.262 0.222 7.54 2.09 10.64
11/6/2022 5:30:00 PM 14.46 58.028 0.223 7.5 2.52 10.02
11/6/2022 5:45:00 PM 14.61 58.298 0.223 7.49 2.32 10.14
11/6/2022 6:00:00 PM 15.19 59.342 0.223 7.6 1.8 11.03
11/6/2022 6:15:00 PM 15.17 59.306 0.223 7.59 1.75 10.99
11/6/2022 6:30:00 PM 15.19 59.342 0.223 7.59 1.78 10.91
11/6/2022 6:45:00 PM 15.1 59.18 0.222 7.57 1.69 10.63
11/6/2022 7:00:00 PM 15.11 59.198 0.222 7.56 1.79 10.51
11/6/2022 7:15:00 PM 15.04 59.072 0.222 7.54 1.93 10.41
11/6/2022 7:30:00 PM 15 59 0.222 7.51 1.87 10.15
11/6/2022 7:45:00 PM 14.95 58.91 0.223 7.47 1.69 9.92
11/6/2022 8:00:00 PM 14.92 58.856 0.222 7.46 1.87 9.73
11/6/2022 8:15:00 PM 14.9 58.82 0.222 7.42 1.76 9.43
11/6/2022 8:30:00 PM 14.82 58.676 0.222 7.4 1.77 9.34
11/6/2022 8:45:00 PM 14.82 58.676 0.222 7.39 1.91 9.2
11/6/2022 9:00:00 PM 14.82 58.676 0.223 7.36 2.02 9.04
11/6/2022 9:15:00 PM 14.78 58.604 0.223 7.33 1.86 8.9
11/6/2022 9:30:00 PM 14.77 58.586 0.223 7.33 1.73 8.77
11/6/2022 9:45:00 PM 14.8 58.64 0.223 7.33 1.92 8.78
11/6/2022 10:00:00 PM 14.75 58.55 0.223 7.3 1.92 8.56
11/6/2022 10:15:00 PM 14.75 58.55 0.223 7.28 1.69 8.47
11/6/2022 10:30:00 PM 14.74 58.532 0.223 7.27 1.73 8.43
11/6/2022 10:45:00 PM 14.73 58.514 0.223 7.27 1.92 8.42
11/6/2022 11:00:00 PM 14.73 58.514 0.223 7.26 1.81 8.4
11/6/2022 11:15:00 PM 14.74 58.532 0.223 7.25 1.73 8.33
11/6/2022 11:30:00 PM 14.72 58.496 0.223 7.24 1.84 8.24
11/6/2022 11:45:00 PM 14.74 58.532 0.223 7.24 2.08 8.22
11/7/2022 12:00:00 AM 14.77 58.586 0.223 7.24 2.09 8.2
11/7/2022 12:15:00 AM 14.78 58.604 0.223 7.24 2.22 8.2
11/7/2022 12:30:00 AM 14.77 58.586 0.222 7.22 2.11 8.16
11/7/2022 12:45:00 AM 14.79 58.622 0.222 7.23 1.98 8.16
11/7/2022 1:00:00 AM 14.81 58.658 0.222 7.23 2.1 8.15
11/7/2022 1:15:00 AM 14.81 58.658 0.221 7.22 2.21 8.14
11/7/2022 1:30:00 AM 14.82 58.676 0.221 7.23 2.55 8.12
11/7/2022 1:45:00 AM 14.84 58.712 0.22 7.23 2.22 8.17
11/7/2022 2:00:00 AM 14.83 58.694 0.22 7.23 2.01 8.15
11/7/2022 2:15:00 AM 14.82 58.676 0.219 7.21 2.86 8.13
11/7/2022 2:30:00 AM 14.81 58.658 0.219 7.22 2.07 8.1
11/7/2022 2:45:00 AM 14.78 58.604 0.219 7.22 2.39 8.08
11/7/2022 3:00:00 AM 14.77 58.586 0.219 7.22 2.23 8.06
11/7/2022 3:15:00 AM 14.74 58.532 0.219 7.21 2.08 8.06
11/7/2022 3:30:00 AM 14.72 58.496 0.219 7.21 2.26 8.02
11/7/2022 3:45:00 AM 14.7 58.46 0.219 7.2 2.26 7.99
11/7/2022 4:00:00 AM 14.66 58.388 0.219 7.19 2.22 7.96
11/7/2022 4:15:00 AM 14.62 58.316 0.22 7.19 2.4 7.92
11/7/2022 4:30:00 AM 14.59 58.262 0.22 7.19 2.63 7.88
11/7/2022 4:45:00 AM 14.55 58.19 0.22 7.18 2.45 7.83
11/7/2022 5:00:00 AM 14.51 58.118 0.22 7.19 2.28 7.82
11/7/2022 5:15:00 AM 14.47 58.046 0.22 7.18 2.51 7.77
11/7/2022 5:30:00 AM 14.43 57.974 0.221 7.17 2.71 7.74
11/7/2022 5:45:00 AM 14.39 57.902 0.221 7.17 2.56 7.7
11/7/2022 6:00:00 AM 14.36 57.848 0.221 7.17 2.42 7.67
11/7/2022 6:15:00 AM 14.31 57.758 0.221 7.16 2.6 7.66
11/7/2022 6:30:00 AM 14.26 57.668 0.221 7.15 2.51 7.65
11/7/2022 6:45:00 AM 14.21 57.578 0.222 7.15 2.2 7.65
11/7/2022 7:00:00 AM 14.18 57.524 0.222 7.15 2.05 7.64
11/7/2022 7:15:00 AM 14.15 57.47 0.221 7.15 2.53 7.61
11/7/2022 7:30:00 AM 14.11 57.398 0.222 7.13 2.31 7.62
11/7/2022 7:45:00 AM 14.07 57.326 0.222 7.13 2.39 7.58
11/7/2022 8:00:00 AM 14 57.2 0.222 7.12 2.26 7.57
11/7/2022 8:15:00 AM 13.92 57.056 0.222 7.12 2.34 7.59
11/7/2022 8:30:00 AM 13.89 57.002 0.222 7.13 2.41 7.75
11/7/2022 8:45:00 AM 13.99 57.182 0.22 7.16 2.67 8.07
11/7/2022 9:00:00 AM 14.06 57.308 0.22 7.2 3.13 8.28
11/7/2022 9:15:00 AM 14.1 57.38 0.22 7.23 3.16 8.5
11/7/2022 9:30:00 AM 14.15 57.47 0.22 7.26 3.49 8.62
11/7/2022 9:45:00 AM 14.17 57.506 0.22 7.28 3.69 8.72
11/7/2022 10:00:00 AM 14.19 57.542 0.222 7.31 3.63 8.88
11/7/2022 10:15:00 AM 14.2 57.56 0.227 7.34 4.99 9.1
11/7/2022 10:30:00 AM 14.2 57.56 0.233 7.36 6.68 9.14
11/7/2022 10:45:00 AM 14.22 57.596 0.236 7.39 8.55 9.18
11/7/2022 11:00:00 AM 14.28 57.704 0.24 7.4 9.9 9.28
11/7/2022 11:15:00 AM 14.35 57.83 0.242 7.43 9.38 9.39
11/7/2022 11:30:00 AM 14.44 57.992 0.244 7.46 9.05 9.51
11/7/2022 11:45:00 AM 14.52 58.136 0.244 7.48 8.16 9.57
11/7/2022 12:00:00 PM 14.6 58.28 0.241 7.52 7.78 9.71
11/7/2022 12:15:00 PM 14.65 58.37 0.237 7.55 6.64 9.87
11/7/2022 12:30:00 PM 14.67 58.406 0.233 7.55 6.56 9.95
11/7/2022 12:45:00 PM 14.69 58.442 0.229 7.56 5.58 10.03
11/7/2022 1:00:00 PM 14.71 58.478 0.226 7.58 5.55 10.1
11/7/2022 1:15:00 PM 14.7 58.46 0.223 7.58 5.02 10.16
11/7/2022 1:30:00 PM 14.7 58.46 0.22 7.61 5.17 10.21
11/7/2022 1:45:00 PM 14.69 58.442 0.217 7.62 4.93 10.26
11/7/2022 2:00:00 PM 14.7 58.46 0.216 7.62 4.62 10.31
11/7/2022 2:15:00 PM 14.69 58.442 0.214 7.63 4.68 10.34
11/7/2022 2:30:00 PM 14.69 58.442 0.213 7.64 4.53 10.36
11/7/2022 2:45:00 PM 14.68 58.424 0.211 7.64 4.66 10.37
11/7/2022 3:00:00 PM 14.66 58.388 0.211 7.65 4.73 10.34
11/7/2022 3:15:00 PM 14.64 58.352 0.208 7.65 4.38 10.34
11/7/2022 3:30:00 PM 14.61 58.298 0.207 7.64 4.48 10.33
11/7/2022 3:45:00 PM 14.56 58.208 0.206 7.64 4.57 10.28
11/7/2022 4:00:00 PM 14.51 58.118 0.204 7.63 4.25 10.22
11/7/2022 4:15:00 PM 14.45 58.01 0.203 7.62 4.43 10.14
11/7/2022 4:30:00 PM 14.41 57.938 0.201 7.6 4.35 10.08
11/7/2022 4:45:00 PM 14.38 57.884 0.2 7.59 4.42 10
11/7/2022 5:00:00 PM 14.35 57.83 0.199 7.57 4.43 9.92
11/7/2022 5:15:00 PM 14.31 57.758 0.197 7.55 4.43 9.83
11/7/2022 5:30:00 PM 14.27 57.686 0.197 7.54 4.66 9.74
11/7/2022 5:45:00 PM 14.22 57.596 0.196 7.52 4.69 9.66
11/7/2022 6:00:00 PM 14.18 57.524 0.195 7.51 5.22 9.62
11/7/2022 6:15:00 PM 14.14 57.452 0.194 7.49 5.53 9.6
11/7/2022 6:30:00 PM 14.08 57.344 0.194 7.47 6.33 9.56
11/7/2022 6:45:00 PM 14.01 57.218 0.193 7.45 16.2 9.48
11/7/2022 7:00:00 PM 13.95 57.11 0.193 7.44 10.6 9.42
11/7/2022 7:15:00 PM 13.87 56.966 0.193 7.42 8.01 9.36
11/7/2022 7:30:00 PM 13.79 56.822 0.192 7.41 8.51 9.3
11/7/2022 7:45:00 PM 13.71 56.678 0.192 7.39 9.06 9.27
11/7/2022 8:00:00 PM 13.62 56.516 0.192 7.37 11.43 9.22
11/7/2022 8:15:00 PM 13.51 56.318 0.191 7.35 12.01 9.12
11/7/2022 8:30:00 PM 13.43 56.174 0.191 7.34 13.3 9.07
11/7/2022 8:45:00 PM 13.33 55.994 0.191 7.32 14.96 9
11/7/2022 9:00:00 PM 13.22 55.796 0.19 7.31 16.11 8.95
11/7/2022 9:15:00 PM 13.14 55.652 0.19 7.3 16.75 8.94
11/7/2022 9:30:00 PM 13.04 55.472 0.19 7.28 17.43 8.92
11/7/2022 9:45:00 PM 12.95 55.31 0.189 7.27 18.24 8.87
11/7/2022 10:00:00 PM 12.85 55.13 0.189 7.26 19.02 8.8
11/7/2022 10:15:00 PM 12.75 54.95 0.188 7.26 23.46 8.76
11/7/2022 10:30:00 PM 12.64 54.752 0.187 7.24 20.16 8.73
11/7/2022 10:45:00 PM 12.55 54.59 0.187 7.24 20.32 8.71
11/7/2022 11:00:00 PM 12.47 54.446 0.187 7.22 20 8.7
11/7/2022 11:15:00 PM 12.37 54.266 0.186 7.22 20.21 8.69
11/7/2022 11:30:00 PM 12.29 54.122 0.185 7.21 19.32 8.67
11/7/2022 11:45:00 PM 12.19 53.942 0.185 7.21 20.09 8.69
11/8/2022 12:00:00 AM 12.08 53.744 0.184 7.21 18.47 8.74
11/8/2022 12:15:00 AM 11.98 53.564 0.183 7.2 18.1 8.77
11/8/2022 12:30:00 AM 11.9 53.42 0.183 7.2 17.8 8.8
11/8/2022 12:45:00 AM 11.81 53.258 0.182 7.2 18.11 8.82
11/8/2022 1:00:00 AM 11.71 53.078 0.181 7.2 16.72 8.87
11/8/2022 1:15:00 AM 11.63 52.934 0.181 7.19 16.2 8.91
11/8/2022 1:30:00 AM 11.52 52.736 0.18 7.2 17.33 8.99
11/8/2022 1:45:00 AM 11.44 52.592 0.179 7.2 16.16 9.05
11/8/2022 2:00:00 AM 11.33 52.394 0.178 7.19 15.52 9.11
11/8/2022 2:15:00 AM 11.25 52.25 0.178 7.2 15.24 9.16
11/8/2022 2:30:00 AM 11.17 52.106 0.177 7.2 14.22 9.2
11/8/2022 2:45:00 AM 11.06 51.908 0.176 7.2 14.14 9.26
11/8/2022 3:00:00 AM 10.99 51.782 0.176 7.2 14.24 9.31
11/8/2022 3:15:00 AM 10.89 51.602 0.175 7.2 12.87 9.37
11/8/2022 3:30:00 AM 10.82 51.476 0.175 7.2 13.02 9.4
11/8/2022 3:45:00 AM 10.73 51.314 0.174 7.2 12.53 9.45
11/8/2022 4:00:00 AM 10.64 51.152 0.174 7.2 12.46 9.49
11/8/2022 4:15:00 AM 10.56 51.008 0.173 7.21 11.74 9.53
11/8/2022 4:30:00 AM 10.48 50.864 0.173 7.21 11.07 9.57
11/8/2022 4:45:00 AM 10.39 50.702 0.172 7.21 11.04 9.6
11/8/2022 5:00:00 AM 10.31 50.558 0.172 7.2 11.34 9.65
11/8/2022 5:15:00 AM 10.23 50.414 0.171 7.2 10.5 9.69
11/8/2022 5:30:00 AM 10.15 50.27 0.171 7.21 10.26 9.73
11/8/2022 5:45:00 AM 10.07 50.126 0.171 7.21 10.14 9.75
11/8/2022 6:00:00 AM 9.99 49.982 0.17 7.21 9.91 9.79
11/8/2022 6:15:00 AM 9.92 49.856 0.17 7.21 9.73 9.82
11/8/2022 6:30:00 AM 9.84 49.712 0.17 7.21 9.13 9.85
11/8/2022 6:45:00 AM 9.76 49.568 0.169 7.21 9.5 9.87
11/8/2022 7:00:00 AM 9.71 49.478 0.169 7.21 8.53 9.89
11/8/2022 7:15:00 AM 9.63 49.334 0.169 7.22 8.26 9.95
11/8/2022 7:30:00 AM 9.58 49.244 0.169 7.22 8.17 9.99
11/8/2022 7:45:00 AM 9.51 49.118 0.169 7.22 8.34 10.02
11/8/2022 8:00:00 AM 9.45 49.01 0.168 7.23 7.51 10.07
11/8/2022 8:15:00 AM 9.39 48.902 0.168 7.22 7.47 10.11
11/8/2022 8:30:00 AM 9.33 48.794 0.168 7.22 7.5 10.19
11/8/2022 8:45:00 AM 9.28 48.704 0.168 7.24 7.6 10.27
11/8/2022 9:00:00 AM 9.28 48.704 0.168 7.26 7.49 10.3
11/8/2022 9:15:00 AM 9.28 48.704 0.167 7.27 7.66 10.37
11/8/2022 9:30:00 AM 9.3 48.74 0.167 7.28 7.09 10.41
11/8/2022 9:45:00 AM 9.32 48.776 0.167 7.29 7.81 10.52
11/8/2022 10:00:00 AM 9.37 48.866 0.167 7.31 7.2 10.58
11/8/2022 10:15:00 AM 9.42 48.956 0.167 7.33 6.98 10.71
11/8/2022 10:30:00 AM 9.46 49.028 0.166 7.35 6.73 10.82
11/8/2022 10:45:00 AM 9.5 49.1 0.166 7.36 6.61 10.87
11/8/2022 11:00:00 AM 9.53 49.154 0.166 7.37 6.64 10.97
11/8/2022 11:15:00 AM 9.58 49.244 0.166 7.38 6.07 11.03
11/8/2022 11:30:00 AM 9.63 49.334 0.166 7.41 6.29 11.12
11/8/2022 11:45:00 AM 9.69 49.442 0.166 7.41 6.05 11.18
11/8/2022 12:00:00 PM 9.76 49.568 0.165 7.44 5.72 11.27
11/8/2022 12:15:00 PM 9.81 49.658 0.165 7.44 5.78 11.32
11/8/2022 12:30:00 PM 9.87 49.766 0.165 7.46 5.6 11.39
11/8/2022 12:45:00 PM 9.91 49.838 0.165 7.47 5.37 11.45
11/8/2022 1:00:00 PM 9.95 49.91 0.165 7.49 5.65 11.52
11/8/2022 1:15:00 PM 10 50 0.164 7.5 6.2 11.56
11/8/2022 1:30:00 PM 10.02 50.036 0.164 7.5 5.52 11.63
11/8/2022 1:45:00 PM 10.05 50.09 0.164 7.53 5.69 11.68
11/8/2022 2:00:00 PM 10.07 50.126 0.164 7.54 5.89 11.71
11/8/2022 2:15:00 PM 10.1 50.18 0.164 7.54 5.28 11.77
11/8/2022 2:30:00 PM 10.11 50.198 0.163 7.55 5.59 11.78
11/8/2022 2:45:00 PM 10.1 50.18 0.163 7.56 5.24 11.78
11/8/2022 3:00:00 PM 10.12 50.216 0.163 7.56 5.29 11.82
11/8/2022 3:15:00 PM 10.12 50.216 0.163 7.56 5.54 11.82
11/8/2022 3:30:00 PM 10.09 50.162 0.163 7.56 5.3 11.8
11/8/2022 3:45:00 PM 10.08 50.144 0.163 7.57 5.66 11.79
11/8/2022 4:00:00 PM 10.05 50.09 0.163 7.56 5.1 11.77
11/8/2022 4:15:00 PM 10 50 0.163 7.56 6.4 11.71
11/8/2022 4:30:00 PM 9.92 49.856 0.163 7.55 5.4 11.63
11/8/2022 4:45:00 PM 9.87 49.766 0.163 7.53 5.5 11.56
11/8/2022 5:00:00 PM 9.8 49.64 0.162 7.52 5.44 11.48
11/8/2022 5:15:00 PM 9.75 49.55 0.162 7.5 4.89 11.42
11/8/2022 5:30:00 PM 9.71 49.478 0.162 7.49 5.4 11.35
11/8/2022 5:45:00 PM 9.66 49.388 0.162 7.47 5.12 11.28
11/8/2022 6:00:00 PM 9.62 49.316 0.162 7.46 5.39 11.21
11/8/2022 6:15:00 PM 9.58 49.244 0.162 7.44 5.58 11.14
11/8/2022 6:30:00 PM 9.55 49.19 0.162 7.44 5.43 11.09
11/8/2022 6:45:00 PM 9.52 49.136 0.162 7.41 5.25 11.04
11/8/2022 7:00:00 PM 9.49 49.082 0.162 7.42 5.71 10.99
11/8/2022 7:15:00 PM 9.46 49.028 0.162 7.4 5.19 10.93
11/8/2022 7:30:00 PM 9.42 48.956 0.162 7.4 5.14 10.88
11/8/2022 7:45:00 PM 9.38 48.884 0.162 7.39 5.06 10.84
11/8/2022 8:00:00 PM 9.35 48.83 0.162 7.38 5.24 10.79
11/8/2022 8:15:00 PM 9.31 48.758 0.162 7.37 4.98 10.75
11/8/2022 8:30:00 PM 9.26 48.668 0.162 7.36 4.97 10.71
11/8/2022 8:45:00 PM 9.22 48.596 0.162 7.36 4.99 10.68
11/8/2022 9:00:00 PM 9.17 48.506 0.162 7.35 4.97 10.65
11/8/2022 9:15:00 PM 9.11 48.398 0.162 7.34 4.92 10.63
11/8/2022 9:30:00 PM 9.06 48.308 0.162 7.33 4.89 10.62
11/8/2022 9:45:00 PM 8.99 48.182 0.162 7.32 4.79 10.62
11/8/2022 10:00:00 PM 8.94 48.092 0.162 7.31 5.02 10.59
11/8/2022 10:15:00 PM 8.87 47.966 0.162 7.31 4.64 10.59
11/8/2022 10:30:00 PM 8.82 47.876 0.162 7.3 4.75 10.57
11/8/2022 10:45:00 PM 8.74 47.732 0.162 7.3 5.11 10.58
11/8/2022 11:00:00 PM 8.65 47.57 0.162 7.29 5.01 10.59
11/8/2022 11:15:00 PM 8.59 47.462 0.162 7.29 4.9 10.59
11/8/2022 11:30:00 PM 8.51 47.318 0.162 7.28 4.95 10.6
11/8/2022 11:45:00 PM 8.42 47.156 0.162 7.28 4.8 10.61
11/9/2022 12:00:00 AM 8.36 47.048 0.162 7.27 4.89 10.61
11/9/2022 12:15:00 AM 8.27 46.886 0.162 7.27 4.8 10.63
11/9/2022 12:30:00 AM 8.2 46.76 0.162 7.26 4.98 10.63
11/9/2022 12:45:00 AM 8.11 46.598 0.162 7.26 4.73 10.65
11/9/2022 1:00:00 AM 8.03 46.454 0.162 7.26 4.89 10.67
11/9/2022 1:15:00 AM 7.96 46.328 0.162 7.25 4.73 10.66
11/9/2022 1:30:00 AM 7.87 46.166 0.162 7.25 4.84 10.69
11/9/2022 1:45:00 AM 7.79 46.022 0.162 7.25 4.56 10.71
11/9/2022 2:00:00 AM 7.72 45.896 0.162 7.24 4.95 10.72
11/9/2022 2:15:00 AM 7.64 45.752 0.162 7.25 4.5 10.74
11/9/2022 2:30:00 AM 7.57 45.626 0.162 7.25 4.69 10.75
11/9/2022 2:45:00 AM 7.46 45.428 0.162 7.24 4.55 10.79
11/9/2022 3:00:00 AM 7.4 45.32 0.162 7.25 4.52 10.8
11/9/2022 3:15:00 AM 7.32 45.176 0.162 7.24 4.49 10.82
11/9/2022 3:30:00 AM 7.25 45.05 0.162 7.24 5.01 10.82
11/9/2022 3:45:00 AM 7.17 44.906 0.162 7.24 4.98 10.85
11/9/2022 4:00:00 AM 7.08 44.744 0.162 7.24 5.01 10.87
11/9/2022 4:15:00 AM 7.01 44.618 0.162 7.23 5.05 10.89
11/9/2022 4:30:00 AM 6.94 44.492 0.162 7.24 5.27 10.88
11/9/2022 4:45:00 AM 6.86 44.348 0.162 7.23 5.13 10.91
11/9/2022 5:00:00 AM 6.79 44.222 0.162 7.24 4.93 10.93
11/9/2022 5:15:00 AM 6.71 44.078 0.162 7.23 4.78 10.95
11/9/2022 5:30:00 AM 6.63 43.934 0.162 7.23 4.67 10.98
11/9/2022 5:45:00 AM 6.58 43.844 0.162 7.23 5.06 10.98
11/9/2022 6:00:00 AM 6.51 43.718 0.162 7.23 4.85 10.99
11/9/2022 6:15:00 AM 6.42 43.556 0.162 7.22 4.54 11.02
11/9/2022 6:30:00 AM 6.35 43.43 0.162 7.23 6.63 11.03
11/9/2022 6:45:00 AM 6.3 43.34 0.162 7.23 4.22 11.06
11/9/2022 7:00:00 AM 6.23 43.214 0.162 7.23 4.21 11.08
11/9/2022 7:15:00 AM 6.17 43.106 0.162 7.23 4.04 11.1
11/9/2022 7:30:00 AM 6.11 42.998 0.163 7.22 4.01 11.12
11/9/2022 7:45:00 AM 6.05 42.89 0.163 7.23 3.97 11.14
11/9/2022 8:00:00 AM 6 42.8 0.163 7.23 4.14 11.19
11/9/2022 8:15:00 AM 5.94 42.692 0.163 7.24 3.96 11.25
11/9/2022 8:30:00 AM 5.92 42.656 0.163 7.25 4.87 11.26
11/9/2022 8:45:00 AM 5.89 42.602 0.163 7.26 4.12 11.34
11/9/2022 9:00:00 AM 5.87 42.566 0.163 7.27 4.14 11.44
11/9/2022 9:15:00 AM 5.88 42.584 0.163 7.28 4.15 11.55
11/9/2022 9:30:00 AM 5.92 42.656 0.163 7.29 4.21 11.58
11/9/2022 9:45:00 AM 5.95 42.71 0.163 7.3 4.14 11.7
11/9/2022 10:00:00 AM 6 42.8 0.163 7.33 4.21 11.76
11/9/2022 10:15:00 AM 6.06 42.908 0.163 7.33 4.77 11.81
11/9/2022 10:30:00 AM 6.13 43.034 0.163 7.35 3.82 11.91
11/9/2022 10:45:00 AM 6.21 43.178 0.163 7.36 4.15 11.98
11/9/2022 11:00:00 AM 6.29 43.322 0.163 7.38 4.16 12.08
11/9/2022 11:15:00 AM 6.38 43.484 0.163 7.38 4.03 12.08
11/9/2022 11:30:00 AM 6.46 43.628 0.162 7.41 4.23 12.17
11/9/2022 11:45:00 AM 6.54 43.772 0.162 7.41 4.18 12.24
11/9/2022 12:00:00 PM 6.65 43.97 0.162 7.43 3.95 12.34
11/9/2022 12:15:00 PM 6.76 44.168 0.162 7.44 4.1 12.39
11/9/2022 12:30:00 PM 6.85 44.33 0.162 7.45 4.02 12.46
11/9/2022 12:45:00 PM 6.95 44.51 0.162 7.46 3.93 12.53
11/9/2022 1:00:00 PM 7.03 44.654 0.162 7.48 4.16 12.57
11/9/2022 1:15:00 PM 7.1 44.78 0.163 7.49 3.97 12.6
11/9/2022 1:30:00 PM 7.21 44.978 0.162 7.5 4.08 12.65
11/9/2022 1:45:00 PM 7.26 45.068 0.163 7.51 3.92 12.66
11/9/2022 2:00:00 PM 7.32 45.176 0.162 7.52 3.79 12.72
11/9/2022 2:15:00 PM 7.4 45.32 0.163 7.53 4.08 12.77
11/9/2022 2:30:00 PM 7.47 45.446 0.163 7.54 3.87 12.79
11/9/2022 2:45:00 PM 7.54 45.572 0.163 7.55 4 12.8
11/9/2022 3:00:00 PM 7.55 45.59 0.163 7.55 3.91 12.8
11/9/2022 3:15:00 PM 7.57 45.626 0.163 7.56 3.83 12.8
11/9/2022 3:30:00 PM 7.6 45.68 0.163 7.57 3.79 12.8
11/9/2022 3:45:00 PM 7.59 45.662 0.163 7.57 3.69 12.8
11/9/2022 4:00:00 PM 7.58 45.644 0.163 7.58 3.94 12.78
11/9/2022 4:15:00 PM 7.56 45.608 0.163 7.57 3.98 12.76
11/9/2022 4:30:00 PM 7.52 45.536 0.163 7.57 3.8 12.73
11/9/2022 4:45:00 PM 7.48 45.464 0.163 7.56 3.62 12.65
11/9/2022 5:00:00 PM 7.42 45.356 0.163 7.55 4 12.56
11/9/2022 5:15:00 PM 7.38 45.284 0.163 7.54 3.79 12.47
11/9/2022 5:30:00 PM 7.33 45.194 0.163 7.52 3.71 12.39
11/9/2022 5:45:00 PM 7.29 45.122 0.164 7.48 4.02 12.31
11/9/2022 6:00:00 PM 7.26 45.068 0.164 7.49 4.02 12.24
11/9/2022 6:15:00 PM 7.22 44.996 0.164 7.47 3.89 12.15
11/9/2022 6:30:00 PM 7.19 44.942 0.164 7.45 3.97 12.06
11/9/2022 6:45:00 PM 7.16 44.888 0.164 7.45 3.85 11.98
11/9/2022 7:00:00 PM 7.13 44.834 0.164 7.42 3.86 11.92
11/9/2022 7:15:00 PM 7.1 44.78 0.164 7.42 3.92 11.87
11/9/2022 7:30:00 PM 7.09 44.762 0.164 7.42 4.18 11.81
11/9/2022 7:45:00 PM 7.07 44.726 0.165 7.4 3.84 11.76
11/9/2022 8:00:00 PM 7.05 44.69 0.165 7.39 4 11.71
11/9/2022 8:15:00 PM 7.03 44.654 0.165 7.39 4.04 11.68
11/9/2022 8:30:00 PM 7.02 44.636 0.165 7.37 5.06 11.61
11/9/2022 8:45:00 PM 7 44.6 0.165 7.37 3.83 11.55
11/9/2022 9:00:00 PM 6.99 44.582 0.165 7.36 4.03 11.5
11/9/2022 9:15:00 PM 6.97 44.546 0.165 7.36 3.87 11.45
11/9/2022 9:30:00 PM 6.96 44.528 0.165 7.35 4.08 11.4
11/9/2022 9:45:00 PM 6.95 44.51 0.165 7.34 4.04 11.35
11/9/2022 10:00:00 PM 6.93 44.474 0.166 7.34 4.13 11.33
11/9/2022 10:15:00 PM 6.91 44.438 0.166 7.33 4.18 11.29
11/9/2022 10:30:00 PM 6.9 44.42 0.166 7.32 4.2 11.26
11/9/2022 10:45:00 PM 6.87 44.366 0.166 7.32 4.09 11.23
11/9/2022 11:00:00 PM 6.84 44.312 0.166 7.31 4.34 11.2
11/9/2022 11:15:00 PM 6.84 44.312 0.166 7.31 3.86 11.16
11/9/2022 11:30:00 PM 6.81 44.258 0.166 7.31 3.91 11.15
11/9/2022 11:45:00 PM 6.78 44.204 0.166 7.3 3.73 11.12
11/10/2022 12:00:00 AM 6.75 44.15 0.167 7.3 3.72 11.11
11/10/2022 12:15:00 AM 6.73 44.114 0.167 7.29 3.92 11.09
11/10/2022 12:30:00 AM 6.69 44.042 0.167 7.29 3.98 11.08
11/10/2022 12:45:00 AM 6.66 43.988 0.167 7.28 3.88 11.06
11/10/2022 1:00:00 AM 6.62 43.916 0.167 7.28 3.87 11.06
11/10/2022 1:15:00 AM 6.58 43.844 0.167 7.28 3.84 11.05
11/10/2022 1:30:00 AM 6.55 43.79 0.167 7.27 3.85 11.05
11/10/2022 1:45:00 AM 6.5 43.7 0.167 7.27 4 11.04
11/10/2022 2:00:00 AM 6.45 43.61 0.167 7.26 4.17 11.05
11/10/2022 2:15:00 AM 6.42 43.556 0.168 7.26 3.99 11.03
11/10/2022 2:30:00 AM 6.36 43.448 0.168 7.26 4.02 11.04
11/10/2022 2:45:00 AM 6.31 43.358 0.168 7.26 4.05 11.04
11/10/2022 3:00:00 AM 6.26 43.268 0.168 7.26 3.81 11.04
11/10/2022 3:15:00 AM 6.22 43.196 0.168 7.25 3.82 11.06
11/10/2022 3:30:00 AM 6.16 43.088 0.168 7.25 3.74 11.06
11/10/2022 3:45:00 AM 6.1 42.98 0.168 7.24 3.85 11.07
11/10/2022 4:00:00 AM 6.06 42.908 0.168 7.25 3.88 11.08
11/10/2022 4:15:00 AM 6 42.8 0.168 7.24 4 11.11
11/10/2022 4:30:00 AM 5.93 42.674 0.168 7.23 3.79 11.13
11/10/2022 4:45:00 AM 5.88 42.584 0.169 7.24 3.81 11.14
11/10/2022 5:00:00 AM 5.84 42.512 0.169 7.24 4.26 11.15
11/10/2022 5:15:00 AM 5.78 42.404 0.169 7.23 4.16 11.16
11/10/2022 5:30:00 AM 5.72 42.296 0.169 7.24 4.16 11.16
11/10/2022 5:45:00 AM 5.67 42.206 0.169 7.23 4.25 11.18
11/10/2022 6:00:00 AM 5.61 42.098 0.169 7.23 4.17 11.19
11/10/2022 6:15:00 AM 5.56 42.008 0.169 7.23 3.96 11.22
11/10/2022 6:30:00 AM 5.51 41.918 0.17 7.23 3.76 11.23
11/10/2022 6:45:00 AM 5.45 41.81 0.17 7.23 4.15 11.25
11/10/2022 7:00:00 AM 5.4 41.72 0.17 7.23 3.85 11.26
11/10/2022 7:15:00 AM 5.36 41.648 0.17 7.23 3.43 11.28
11/10/2022 7:30:00 AM 5.31 41.558 0.17 7.23 3.26 11.3
11/10/2022 7:45:00 AM 5.26 41.468 0.17 7.23 3.33 11.33
11/10/2022 8:00:00 AM 5.22 41.396 0.17 7.23 3.52 11.36
11/10/2022 8:15:00 AM 5.18 41.324 0.17 7.23 3.17 11.4
11/10/2022 8:30:00 AM 5.16 41.288 0.17 7.24 3.31 11.43
11/10/2022 8:45:00 AM 5.14 41.252 0.171 7.25 3.29 11.51
11/10/2022 9:00:00 AM 5.14 41.252 0.17 7.26 3.41 11.57